<?xml version="1.0" encoding="utf-8"?>
<gpx xmlns:tc2="http://www.garmin.com/xmlschemas/TrainingCenterDatabase/v2" xmlns:xsi="http://www.w3.org/2001/XMLSchema-instance" xmlns:tp1="http://www.garmin.com/xmlschemas/TrackPointExtension/v1" xmlns="http://www.topografix.com/GPX/1/1" version="1.1" creator="TC2 to GPX11 XSLT stylesheet" xsi:schemaLocation="http://www.topografix.com/GPX/1/1 http://www.topografix.com/GPX/1/1/gpx.xsd http://www.garmin.com/xmlschemas/TrackPointExtension/v1 http://www.garmin.com/xmlschemas/TrackPointExtensionv1.xsd">
<trk>
<name>125 Eifel 1 Nac</name>
<trkseg>
<trkpt lat="50.7435260" lon="6.1907090">
<ele>256.8090000</ele>
<time>2008-06-26T07:55:56Z</time>
</trkpt>
<trkpt lat="50.7435330" lon="6.1906980">
<ele>256.8090000</ele>
<time>2008-06-26T07:56:01Z</time>
</trkpt>
<trkpt lat="50.7435460" lon="6.1907180">
<ele>256.8090000</ele>
<time>2008-06-26T07:56:11Z</time>
</trkpt>
<trkpt lat="50.7438230" lon="6.1911950">
<ele>257.2900000</ele>
<time>2008-06-26T07:56:21Z</time>
</trkpt>
<trkpt lat="50.7441940" lon="6.1917860">
<ele>257.7710000</ele>
<time>2008-06-26T07:56:31Z</time>
</trkpt>
<trkpt lat="50.7442690" lon="6.1924600">
<ele>258.2510000</ele>
<time>2008-06-26T07:56:40Z</time>
</trkpt>
<trkpt lat="50.7440040" lon="6.1929890">
<ele>258.7320000</ele>
<time>2008-06-26T07:56:49Z</time>
</trkpt>
<trkpt lat="50.7431960" lon="6.1943580">
<ele>259.2130000</ele>
<time>2008-06-26T07:57:10Z</time>
</trkpt>
<trkpt lat="50.7424130" lon="6.1956750">
<ele>257.2900000</ele>
<time>2008-06-26T07:57:25Z</time>
</trkpt>
<trkpt lat="50.7421590" lon="6.1959880">
<ele>257.2900000</ele>
<time>2008-06-26T07:57:29Z</time>
</trkpt>
<trkpt lat="50.7413290" lon="6.1977730">
<ele>258.2510000</ele>
<time>2008-06-26T07:57:47Z</time>
</trkpt>
<trkpt lat="50.7407630" lon="6.1983430">
<ele>260.6550000</ele>
<time>2008-06-26T07:57:57Z</time>
</trkpt>
<trkpt lat="50.7400380" lon="6.1995720">
<ele>266.4220000</ele>
<time>2008-06-26T07:58:17Z</time>
</trkpt>
<trkpt lat="50.7395930" lon="6.2000790">
<ele>269.7870000</ele>
<time>2008-06-26T07:58:28Z</time>
</trkpt>
<trkpt lat="50.7394200" lon="6.2002340">
<ele>270.7480000</ele>
<time>2008-06-26T07:58:32Z</time>
</trkpt>
<trkpt lat="50.7393760" lon="6.2002730">
<ele>270.7480000</ele>
<time>2008-06-26T07:58:33Z</time>
</trkpt>
<trkpt lat="50.7391680" lon="6.2004930">
<ele>272.1900000</ele>
<time>2008-06-26T07:58:38Z</time>
</trkpt>
<trkpt lat="50.7382550" lon="6.2024500">
<ele>269.3070000</ele>
<time>2008-06-26T07:59:01Z</time>
</trkpt>
<trkpt lat="50.7372570" lon="6.2043740">
<ele>275.0740000</ele>
<time>2008-06-26T07:59:27Z</time>
</trkpt>
<trkpt lat="50.7364970" lon="6.2053600">
<ele>278.4390000</ele>
<time>2008-06-26T07:59:45Z</time>
</trkpt>
<trkpt lat="50.7354870" lon="6.2063980">
<ele>282.2840000</ele>
<time>2008-06-26T08:00:06Z</time>
</trkpt>
<trkpt lat="50.7336540" lon="6.2081730">
<ele>285.1680000</ele>
<time>2008-06-26T08:00:42Z</time>
</trkpt>
<trkpt lat="50.7316620" lon="6.2078720">
<ele>288.0520000</ele>
<time>2008-06-26T08:01:15Z</time>
</trkpt>
<trkpt lat="50.7316200" lon="6.2078700">
<ele>287.5710000</ele>
<time>2008-06-26T08:01:28Z</time>
</trkpt>
<trkpt lat="50.7314680" lon="6.2079280">
<ele>287.0910000</ele>
<time>2008-06-26T08:01:56Z</time>
</trkpt>
<trkpt lat="50.7312610" lon="6.2080840">
<ele>286.6100000</ele>
<time>2008-06-26T08:01:59Z</time>
</trkpt>
<trkpt lat="50.7302060" lon="6.2088370">
<ele>283.2460000</ele>
<time>2008-06-26T08:02:14Z</time>
</trkpt>
<trkpt lat="50.7279320" lon="6.2102400">
<ele>284.6880000</ele>
<time>2008-06-26T08:02:44Z</time>
</trkpt>
<trkpt lat="50.7266020" lon="6.2122360">
<ele>288.0520000</ele>
<time>2008-06-26T08:03:12Z</time>
</trkpt>
<trkpt lat="50.7245950" lon="6.2152820">
<ele>286.1300000</ele>
<time>2008-06-26T08:03:50Z</time>
</trkpt>
<trkpt lat="50.7233750" lon="6.2150840">
<ele>278.9200000</ele>
<time>2008-06-26T08:04:03Z</time>
</trkpt>
<trkpt lat="50.7228290" lon="6.2144180">
<ele>275.0740000</ele>
<time>2008-06-26T08:04:09Z</time>
</trkpt>
<trkpt lat="50.7226680" lon="6.2141570">
<ele>274.1130000</ele>
<time>2008-06-26T08:04:11Z</time>
</trkpt>
<trkpt lat="50.7225110" lon="6.2139060">
<ele>274.1130000</ele>
<time>2008-06-26T08:04:13Z</time>
</trkpt>
<trkpt lat="50.7201050" lon="6.2100640">
<ele>276.0360000</ele>
<time>2008-06-26T08:04:52Z</time>
</trkpt>
<trkpt lat="50.7194910" lon="6.2090960">
<ele>276.5160000</ele>
<time>2008-06-26T08:05:04Z</time>
</trkpt>
<trkpt lat="50.7192380" lon="6.2089270">
<ele>276.5160000</ele>
<time>2008-06-26T08:05:11Z</time>
</trkpt>
<trkpt lat="50.7188700" lon="6.2094040">
<ele>276.5160000</ele>
<time>2008-06-26T08:05:19Z</time>
</trkpt>
<trkpt lat="50.7182870" lon="6.2109180">
<ele>282.7650000</ele>
<time>2008-06-26T08:05:39Z</time>
</trkpt>
<trkpt lat="50.7180670" lon="6.2117680">
<ele>287.0910000</ele>
<time>2008-06-26T08:05:52Z</time>
</trkpt>
<trkpt lat="50.7174460" lon="6.2122360">
<ele>290.4560000</ele>
<time>2008-06-26T08:06:09Z</time>
</trkpt>
<trkpt lat="50.7165330" lon="6.2125660">
<ele>292.3780000</ele>
<time>2008-06-26T08:06:27Z</time>
</trkpt>
<trkpt lat="50.7153420" lon="6.2134460">
<ele>287.5710000</ele>
<time>2008-06-26T08:06:45Z</time>
</trkpt>
<trkpt lat="50.7137520" lon="6.2147810">
<ele>287.5710000</ele>
<time>2008-06-26T08:07:08Z</time>
</trkpt>
<trkpt lat="50.7132010" lon="6.2149160">
<ele>289.4940000</ele>
<time>2008-06-26T08:07:17Z</time>
</trkpt>
<trkpt lat="50.7124960" lon="6.2151390">
<ele>292.3780000</ele>
<time>2008-06-26T08:07:29Z</time>
</trkpt>
<trkpt lat="50.7118170" lon="6.2152140">
<ele>296.2240000</ele>
<time>2008-06-26T08:07:41Z</time>
</trkpt>
<trkpt lat="50.7111600" lon="6.2153780">
<ele>300.5490000</ele>
<time>2008-06-26T08:07:53Z</time>
</trkpt>
<trkpt lat="50.7102310" lon="6.2163930">
<ele>306.7980000</ele>
<time>2008-06-26T08:08:17Z</time>
</trkpt>
<trkpt lat="50.7098580" lon="6.2168410">
<ele>310.1620000</ele>
<time>2008-06-26T08:08:29Z</time>
</trkpt>
<trkpt lat="50.7094990" lon="6.2172700">
<ele>314.0080000</ele>
<time>2008-06-26T08:08:41Z</time>
</trkpt>
<trkpt lat="50.7089780" lon="6.2179030">
<ele>317.8530000</ele>
<time>2008-06-26T08:08:57Z</time>
</trkpt>
<trkpt lat="50.7083620" lon="6.2183470">
<ele>322.1790000</ele>
<time>2008-06-26T08:09:14Z</time>
</trkpt>
<trkpt lat="50.7074380" lon="6.2182410">
<ele>328.4280000</ele>
<time>2008-06-26T08:09:38Z</time>
</trkpt>
<trkpt lat="50.7071150" lon="6.2184080">
<ele>330.8310000</ele>
<time>2008-06-26T08:09:46Z</time>
</trkpt>
<trkpt lat="50.7048720" lon="6.2194980">
<ele>337.0790000</ele>
<time>2008-06-26T08:10:32Z</time>
</trkpt>
<trkpt lat="50.7037910" lon="6.2200020">
<ele>336.5990000</ele>
<time>2008-06-26T08:10:50Z</time>
</trkpt>
<trkpt lat="50.7030760" lon="6.2203370">
<ele>333.2340000</ele>
<time>2008-06-26T08:10:59Z</time>
</trkpt>
<trkpt lat="50.7025150" lon="6.2205820">
<ele>329.8700000</ele>
<time>2008-06-26T08:11:05Z</time>
</trkpt>
<trkpt lat="50.7019730" lon="6.2204550">
<ele>326.0240000</ele>
<time>2008-06-26T08:11:10Z</time>
</trkpt>
<trkpt lat="50.7014100" lon="6.2198150">
<ele>321.2180000</ele>
<time>2008-06-26T08:11:16Z</time>
</trkpt>
<trkpt lat="50.7009580" lon="6.2192640">
<ele>317.3720000</ele>
<time>2008-06-26T08:11:21Z</time>
</trkpt>
<trkpt lat="50.7007460" lon="6.2190290">
<ele>315.4500000</ele>
<time>2008-06-26T08:11:23Z</time>
</trkpt>
<trkpt lat="50.7001400" lon="6.2187180">
<ele>310.6430000</ele>
<time>2008-06-26T08:11:28Z</time>
</trkpt>
<trkpt lat="50.6996230" lon="6.2188850">
<ele>306.7980000</ele>
<time>2008-06-26T08:11:32Z</time>
</trkpt>
<trkpt lat="50.6992560" lon="6.2191590">
<ele>304.3950000</ele>
<time>2008-06-26T08:11:35Z</time>
</trkpt>
<trkpt lat="50.6987540" lon="6.2195390">
<ele>300.5490000</ele>
<time>2008-06-26T08:11:39Z</time>
</trkpt>
<trkpt lat="50.6979690" lon="6.2201010">
<ele>299.1070000</ele>
<time>2008-06-26T08:11:47Z</time>
</trkpt>
<trkpt lat="50.6977770" lon="6.2200430">
<ele>298.6270000</ele>
<time>2008-06-26T08:11:52Z</time>
</trkpt>
<trkpt lat="50.6975540" lon="6.2195140">
<ele>298.6270000</ele>
<time>2008-06-26T08:11:59Z</time>
</trkpt>
<trkpt lat="50.6971320" lon="6.2189640">
<ele>299.1070000</ele>
<time>2008-06-26T08:12:16Z</time>
</trkpt>
<trkpt lat="50.6971340" lon="6.2189950">
<ele>298.6270000</ele>
<time>2008-06-26T08:14:07Z</time>
</trkpt>
<trkpt lat="50.6965680" lon="6.2189980">
<ele>301.9910000</ele>
<time>2008-06-26T08:14:23Z</time>
</trkpt>
<trkpt lat="50.6962860" lon="6.2188550">
<ele>303.4330000</ele>
<time>2008-06-26T08:14:41Z</time>
</trkpt>
<trkpt lat="50.6963060" lon="6.2188580">
<ele>303.4330000</ele>
<time>2008-06-26T08:15:43Z</time>
</trkpt>
<trkpt lat="50.6960310" lon="6.2188540">
<ele>305.3560000</ele>
<time>2008-06-26T08:15:52Z</time>
</trkpt>
<trkpt lat="50.6954080" lon="6.2190380">
<ele>309.2010000</ele>
<time>2008-06-26T08:16:08Z</time>
</trkpt>
<trkpt lat="50.6949380" lon="6.2192130">
<ele>314.0080000</ele>
<time>2008-06-26T08:16:23Z</time>
</trkpt>
<trkpt lat="50.6944920" lon="6.2193440">
<ele>317.8530000</ele>
<time>2008-06-26T08:16:37Z</time>
</trkpt>
<trkpt lat="50.6940970" lon="6.2193750">
<ele>322.1790000</ele>
<time>2008-06-26T08:16:49Z</time>
</trkpt>
<trkpt lat="50.6937960" lon="6.2193100">
<ele>326.0240000</ele>
<time>2008-06-26T08:16:59Z</time>
</trkpt>
<trkpt lat="50.6934570" lon="6.2192380">
<ele>329.8700000</ele>
<time>2008-06-26T08:17:11Z</time>
</trkpt>
<trkpt lat="50.6930480" lon="6.2191760">
<ele>333.7150000</ele>
<time>2008-06-26T08:17:24Z</time>
</trkpt>
<trkpt lat="50.6918870" lon="6.2191710">
<ele>339.9630000</ele>
<time>2008-06-26T08:17:56Z</time>
</trkpt>
<trkpt lat="50.6915290" lon="6.2190790">
<ele>343.8090000</ele>
<time>2008-06-26T08:18:08Z</time>
</trkpt>
<trkpt lat="50.6912990" lon="6.2190830">
<ele>347.1730000</ele>
<time>2008-06-26T08:18:16Z</time>
</trkpt>
<trkpt lat="50.6909860" lon="6.2192680">
<ele>351.4990000</ele>
<time>2008-06-26T08:18:28Z</time>
</trkpt>
<trkpt lat="50.6906160" lon="6.2195130">
<ele>354.3830000</ele>
<time>2008-06-26T08:18:40Z</time>
</trkpt>
<trkpt lat="50.6904760" lon="6.2196570">
<ele>354.3830000</ele>
<time>2008-06-26T08:18:44Z</time>
</trkpt>
<trkpt lat="50.6901100" lon="6.2207420">
<ele>353.9030000</ele>
<time>2008-06-26T08:18:59Z</time>
</trkpt>
<trkpt lat="50.6884680" lon="6.2225960">
<ele>358.7090000</ele>
<time>2008-06-26T08:19:34Z</time>
</trkpt>
<trkpt lat="50.6879210" lon="6.2231040">
<ele>362.0740000</ele>
<time>2008-06-26T08:19:47Z</time>
</trkpt>
<trkpt lat="50.6874350" lon="6.2235170">
<ele>365.4380000</ele>
<time>2008-06-26T08:19:59Z</time>
</trkpt>
<trkpt lat="50.6873930" lon="6.2235510">
<ele>365.4380000</ele>
<time>2008-06-26T08:20:00Z</time>
</trkpt>
<trkpt lat="50.6867310" lon="6.2241490">
<ele>368.8030000</ele>
<time>2008-06-26T08:20:16Z</time>
</trkpt>
<trkpt lat="50.6854530" lon="6.2263110">
<ele>371.6870000</ele>
<time>2008-06-26T08:20:51Z</time>
</trkpt>
<trkpt lat="50.6850360" lon="6.2271710">
<ele>368.3220000</ele>
<time>2008-06-26T08:21:00Z</time>
</trkpt>
<trkpt lat="50.6845940" lon="6.2278180">
<ele>363.9960000</ele>
<time>2008-06-26T08:21:06Z</time>
</trkpt>
<trkpt lat="50.6843220" lon="6.2281420">
<ele>360.6320000</ele>
<time>2008-06-26T08:21:09Z</time>
</trkpt>
<trkpt lat="50.6839310" lon="6.2285980">
<ele>357.2670000</ele>
<time>2008-06-26T08:21:13Z</time>
</trkpt>
<trkpt lat="50.6834160" lon="6.2291930">
<ele>353.9030000</ele>
<time>2008-06-26T08:21:18Z</time>
</trkpt>
<trkpt lat="50.6827250" lon="6.2299660">
<ele>358.2280000</ele>
<time>2008-06-26T08:21:26Z</time>
</trkpt>
<trkpt lat="50.6822430" lon="6.2304660">
<ele>362.5540000</ele>
<time>2008-06-26T08:21:34Z</time>
</trkpt>
<trkpt lat="50.6818580" lon="6.2308680">
<ele>366.8800000</ele>
<time>2008-06-26T08:21:42Z</time>
</trkpt>
<trkpt lat="50.6805180" lon="6.2322270">
<ele>372.6480000</ele>
<time>2008-06-26T08:22:13Z</time>
</trkpt>
<trkpt lat="50.6800480" lon="6.2327360">
<ele>376.9740000</ele>
<time>2008-06-26T08:22:26Z</time>
</trkpt>
<trkpt lat="50.6798770" lon="6.2329390">
<ele>378.4160000</ele>
<time>2008-06-26T08:22:31Z</time>
</trkpt>
<trkpt lat="50.6795870" lon="6.2332060">
<ele>380.8190000</ele>
<time>2008-06-26T08:22:39Z</time>
</trkpt>
<trkpt lat="50.6790180" lon="6.2337740">
<ele>384.6650000</ele>
<time>2008-06-26T08:22:55Z</time>
</trkpt>
<trkpt lat="50.6779550" lon="6.2348250">
<ele>388.0290000</ele>
<time>2008-06-26T08:23:21Z</time>
</trkpt>
<trkpt lat="50.6768420" lon="6.2358890">
<ele>386.5870000</ele>
<time>2008-06-26T08:23:42Z</time>
</trkpt>
<trkpt lat="50.6757230" lon="6.2369680">
<ele>384.6650000</ele>
<time>2008-06-26T08:24:00Z</time>
</trkpt>
<trkpt lat="50.6753010" lon="6.2375510">
<ele>380.8190000</ele>
<time>2008-06-26T08:24:06Z</time>
</trkpt>
<trkpt lat="50.6744800" lon="6.2386760">
<ele>381.3000000</ele>
<time>2008-06-26T08:24:17Z</time>
</trkpt>
<trkpt lat="50.6741280" lon="6.2389830">
<ele>384.6650000</ele>
<time>2008-06-26T08:24:23Z</time>
</trkpt>
<trkpt lat="50.6735500" lon="6.2393910">
<ele>388.9910000</ele>
<time>2008-06-26T08:24:36Z</time>
</trkpt>
<trkpt lat="50.6729520" lon="6.2397580">
<ele>393.3170000</ele>
<time>2008-06-26T08:24:53Z</time>
</trkpt>
<trkpt lat="50.6725260" lon="6.2400160">
<ele>396.6810000</ele>
<time>2008-06-26T08:25:05Z</time>
</trkpt>
<trkpt lat="50.6721560" lon="6.2403320">
<ele>400.0460000</ele>
<time>2008-06-26T08:25:17Z</time>
</trkpt>
<trkpt lat="50.6717240" lon="6.2407710">
<ele>403.8910000</ele>
<time>2008-06-26T08:25:33Z</time>
</trkpt>
<trkpt lat="50.6713050" lon="6.2411940">
<ele>408.2170000</ele>
<time>2008-06-26T08:25:49Z</time>
</trkpt>
<trkpt lat="50.6709550" lon="6.2417310">
<ele>412.0620000</ele>
<time>2008-06-26T08:26:05Z</time>
</trkpt>
<trkpt lat="50.6707500" lon="6.2422240">
<ele>415.4270000</ele>
<time>2008-06-26T08:26:17Z</time>
</trkpt>
<trkpt lat="50.6706000" lon="6.2427040">
<ele>418.7920000</ele>
<time>2008-06-26T08:26:29Z</time>
</trkpt>
<trkpt lat="50.6703320" lon="6.2432930">
<ele>423.1170000</ele>
<time>2008-06-26T08:26:45Z</time>
</trkpt>
<trkpt lat="50.6699890" lon="6.2438460">
<ele>426.9630000</ele>
<time>2008-06-26T08:27:01Z</time>
</trkpt>
<trkpt lat="50.6696000" lon="6.2445180">
<ele>431.2890000</ele>
<time>2008-06-26T08:27:20Z</time>
</trkpt>
<trkpt lat="50.6692700" lon="6.2450670">
<ele>434.6530000</ele>
<time>2008-06-26T08:27:35Z</time>
</trkpt>
<trkpt lat="50.6688410" lon="6.2454800">
<ele>438.4990000</ele>
<time>2008-06-26T08:27:51Z</time>
</trkpt>
<trkpt lat="50.6683770" lon="6.2457760">
<ele>442.3440000</ele>
<time>2008-06-26T08:28:07Z</time>
</trkpt>
<trkpt lat="50.6679010" lon="6.2459830">
<ele>446.1890000</ele>
<time>2008-06-26T08:28:23Z</time>
</trkpt>
<trkpt lat="50.6673950" lon="6.2460790">
<ele>450.0340000</ele>
<time>2008-06-26T08:28:39Z</time>
</trkpt>
<trkpt lat="50.6669050" lon="6.2461790">
<ele>453.8800000</ele>
<time>2008-06-26T08:28:55Z</time>
</trkpt>
<trkpt lat="50.6664020" lon="6.2463100">
<ele>457.2440000</ele>
<time>2008-06-26T08:29:11Z</time>
</trkpt>
<trkpt lat="50.6657520" lon="6.2464900">
<ele>461.0890000</ele>
<time>2008-06-26T08:29:31Z</time>
</trkpt>
<trkpt lat="50.6642770" lon="6.2468960">
<ele>466.8570000</ele>
<time>2008-06-26T08:30:11Z</time>
</trkpt>
<trkpt lat="50.6633860" lon="6.2471260">
<ele>470.2220000</ele>
<time>2008-06-26T08:30:35Z</time>
</trkpt>
<trkpt lat="50.6625050" lon="6.2473630">
<ele>474.5480000</ele>
<time>2008-06-26T08:30:59Z</time>
</trkpt>
<trkpt lat="50.6619170" lon="6.2475370">
<ele>477.9120000</ele>
<time>2008-06-26T08:31:15Z</time>
</trkpt>
<trkpt lat="50.6613750" lon="6.2476870">
<ele>481.2770000</ele>
<time>2008-06-26T08:31:31Z</time>
</trkpt>
<trkpt lat="50.6608680" lon="6.2478920">
<ele>484.6420000</ele>
<time>2008-06-26T08:31:47Z</time>
</trkpt>
<trkpt lat="50.6602690" lon="6.2482810">
<ele>488.4870000</ele>
<time>2008-06-26T08:32:07Z</time>
</trkpt>
<trkpt lat="50.6596530" lon="6.2486930">
<ele>492.3320000</ele>
<time>2008-06-26T08:32:27Z</time>
</trkpt>
<trkpt lat="50.6591730" lon="6.2491050">
<ele>495.6970000</ele>
<time>2008-06-26T08:32:43Z</time>
</trkpt>
<trkpt lat="50.6584230" lon="6.2497670">
<ele>499.0620000</ele>
<time>2008-06-26T08:33:07Z</time>
</trkpt>
<trkpt lat="50.6579880" lon="6.2501510">
<ele>500.0230000</ele>
<time>2008-06-26T08:33:19Z</time>
</trkpt>
<trkpt lat="50.6576550" lon="6.2508680">
<ele>500.0230000</ele>
<time>2008-06-26T08:33:31Z</time>
</trkpt>
<trkpt lat="50.6575990" lon="6.2511140">
<ele>499.5420000</ele>
<time>2008-06-26T08:33:34Z</time>
</trkpt>
<trkpt lat="50.6574090" lon="6.2519490">
<ele>499.0620000</ele>
<time>2008-06-26T08:33:43Z</time>
</trkpt>
<trkpt lat="50.6568800" lon="6.2526210">
<ele>496.6580000</ele>
<time>2008-06-26T08:33:52Z</time>
</trkpt>
<trkpt lat="50.6567100" lon="6.2526810">
<ele>495.6970000</ele>
<time>2008-06-26T08:33:54Z</time>
</trkpt>
<trkpt lat="50.6563500" lon="6.2527900">
<ele>494.2550000</ele>
<time>2008-06-26T08:33:58Z</time>
</trkpt>
<trkpt lat="50.6555390" lon="6.2533490">
<ele>489.9290000</ele>
<time>2008-06-26T08:34:07Z</time>
</trkpt>
<trkpt lat="50.6539850" lon="6.2553890">
<ele>492.3320000</ele>
<time>2008-06-26T08:34:31Z</time>
</trkpt>
<trkpt lat="50.6530190" lon="6.2564010">
<ele>497.6200000</ele>
<time>2008-06-26T08:34:52Z</time>
</trkpt>
<trkpt lat="50.6523370" lon="6.2568890">
<ele>500.9840000</ele>
<time>2008-06-26T08:35:08Z</time>
</trkpt>
<trkpt lat="50.6515650" lon="6.2574210">
<ele>504.3490000</ele>
<time>2008-06-26T08:35:28Z</time>
</trkpt>
<trkpt lat="50.6506150" lon="6.2581220">
<ele>507.7140000</ele>
<time>2008-06-26T08:35:52Z</time>
</trkpt>
<trkpt lat="50.6496130" lon="6.2584060">
<ele>509.6360000</ele>
<time>2008-06-26T08:36:13Z</time>
</trkpt>
<trkpt lat="50.6484890" lon="6.2587270">
<ele>512.0390000</ele>
<time>2008-06-26T08:36:36Z</time>
</trkpt>
<trkpt lat="50.6483040" lon="6.2588160">
<ele>513.0010000</ele>
<time>2008-06-26T08:36:40Z</time>
</trkpt>
<trkpt lat="50.6481310" lon="6.2589100">
<ele>513.9620000</ele>
<time>2008-06-26T08:36:44Z</time>
</trkpt>
<trkpt lat="50.6475730" lon="6.2594890">
<ele>517.8070000</ele>
<time>2008-06-26T08:37:00Z</time>
</trkpt>
<trkpt lat="50.6471380" lon="6.2601330">
<ele>521.6530000</ele>
<time>2008-06-26T08:37:16Z</time>
</trkpt>
<trkpt lat="50.6467400" lon="6.2607310">
<ele>525.4980000</ele>
<time>2008-06-26T08:37:32Z</time>
</trkpt>
<trkpt lat="50.6464160" lon="6.2613570">
<ele>529.3430000</ele>
<time>2008-06-26T08:37:48Z</time>
</trkpt>
<trkpt lat="50.6461050" lon="6.2619530">
<ele>533.1880000</ele>
<time>2008-06-26T08:38:04Z</time>
</trkpt>
<trkpt lat="50.6458040" lon="6.2622970">
<ele>536.5530000</ele>
<time>2008-06-26T08:38:16Z</time>
</trkpt>
<trkpt lat="50.6453570" lon="6.2626570">
<ele>540.3980000</ele>
<time>2008-06-26T08:38:32Z</time>
</trkpt>
<trkpt lat="50.6450270" lon="6.2629380">
<ele>543.7630000</ele>
<time>2008-06-26T08:38:44Z</time>
</trkpt>
<trkpt lat="50.6447090" lon="6.2632290">
<ele>547.1270000</ele>
<time>2008-06-26T08:38:56Z</time>
</trkpt>
<trkpt lat="50.6442950" lon="6.2636890">
<ele>550.4920000</ele>
<time>2008-06-26T08:39:12Z</time>
</trkpt>
<trkpt lat="50.6437250" lon="6.2646750">
<ele>554.3370000</ele>
<time>2008-06-26T08:39:36Z</time>
</trkpt>
<trkpt lat="50.6436270" lon="6.2648710">
<ele>554.3370000</ele>
<time>2008-06-26T08:39:40Z</time>
</trkpt>
<trkpt lat="50.6427100" lon="6.2665350">
<ele>556.2600000</ele>
<time>2008-06-26T08:40:09Z</time>
</trkpt>
<trkpt lat="50.6423140" lon="6.2666100">
<ele>555.2990000</ele>
<time>2008-06-26T08:40:17Z</time>
</trkpt>
<trkpt lat="50.6400460" lon="6.2677030">
<ele>553.3760000</ele>
<time>2008-06-26T08:40:50Z</time>
</trkpt>
<trkpt lat="50.6379720" lon="6.2688750">
<ele>551.9340000</ele>
<time>2008-06-26T08:41:17Z</time>
</trkpt>
<trkpt lat="50.6362390" lon="6.2711050">
<ele>550.0110000</ele>
<time>2008-06-26T08:41:46Z</time>
</trkpt>
<trkpt lat="50.6341580" lon="6.2740230">
<ele>544.7240000</ele>
<time>2008-06-26T08:42:17Z</time>
</trkpt>
<trkpt lat="50.6338000" lon="6.2748880">
<ele>543.2820000</ele>
<time>2008-06-26T08:42:24Z</time>
</trkpt>
<trkpt lat="50.6334980" lon="6.2756270">
<ele>542.8020000</ele>
<time>2008-06-26T08:42:30Z</time>
</trkpt>
<trkpt lat="50.6326760" lon="6.2767670">
<ele>542.8020000</ele>
<time>2008-06-26T08:42:42Z</time>
</trkpt>
<trkpt lat="50.6321170" lon="6.2782380">
<ele>543.2820000</ele>
<time>2008-06-26T08:42:55Z</time>
</trkpt>
<trkpt lat="50.6314550" lon="6.2813320">
<ele>544.2440000</ele>
<time>2008-06-26T08:43:22Z</time>
</trkpt>
<trkpt lat="50.6307780" lon="6.2827470">
<ele>538.9560000</ele>
<time>2008-06-26T08:43:34Z</time>
</trkpt>
<trkpt lat="50.6307110" lon="6.2828790">
<ele>538.9560000</ele>
<time>2008-06-26T08:43:35Z</time>
</trkpt>
<trkpt lat="50.6304290" lon="6.2834460">
<ele>535.1110000</ele>
<time>2008-06-26T08:43:39Z</time>
</trkpt>
<trkpt lat="50.6301450" lon="6.2840880">
<ele>530.7850000</ele>
<time>2008-06-26T08:43:43Z</time>
</trkpt>
<trkpt lat="50.6298610" lon="6.2847590">
<ele>526.4590000</ele>
<time>2008-06-26T08:43:47Z</time>
</trkpt>
<trkpt lat="50.6295320" lon="6.2852820">
<ele>522.6140000</ele>
<time>2008-06-26T08:43:51Z</time>
</trkpt>
<trkpt lat="50.6289300" lon="6.2857820">
<ele>517.8070000</ele>
<time>2008-06-26T08:43:57Z</time>
</trkpt>
<trkpt lat="50.6283120" lon="6.2863000">
<ele>514.4430000</ele>
<time>2008-06-26T08:44:03Z</time>
</trkpt>
<trkpt lat="50.6278070" lon="6.2870840">
<ele>510.5970000</ele>
<time>2008-06-26T08:44:09Z</time>
</trkpt>
<trkpt lat="50.6274170" lon="6.2879470">
<ele>505.3100000</ele>
<time>2008-06-26T08:44:15Z</time>
</trkpt>
<trkpt lat="50.6271990" lon="6.2885570">
<ele>501.9460000</ele>
<time>2008-06-26T08:44:19Z</time>
</trkpt>
<trkpt lat="50.6271110" lon="6.2891730">
<ele>498.5810000</ele>
<time>2008-06-26T08:44:23Z</time>
</trkpt>
<trkpt lat="50.6270970" lon="6.2897270">
<ele>495.2160000</ele>
<time>2008-06-26T08:44:26Z</time>
</trkpt>
<trkpt lat="50.6270940" lon="6.2905560">
<ele>491.8520000</ele>
<time>2008-06-26T08:44:30Z</time>
</trkpt>
<trkpt lat="50.6271850" lon="6.2917660">
<ele>486.5640000</ele>
<time>2008-06-26T08:44:36Z</time>
</trkpt>
<trkpt lat="50.6272920" lon="6.2925490">
<ele>481.7580000</ele>
<time>2008-06-26T08:44:40Z</time>
</trkpt>
<trkpt lat="50.6275130" lon="6.2932770">
<ele>477.4320000</ele>
<time>2008-06-26T08:44:44Z</time>
</trkpt>
<trkpt lat="50.6276570" lon="6.2935990">
<ele>474.5480000</ele>
<time>2008-06-26T08:44:46Z</time>
</trkpt>
<trkpt lat="50.6279560" lon="6.2942470">
<ele>469.7410000</ele>
<time>2008-06-26T08:44:50Z</time>
</trkpt>
<trkpt lat="50.6280920" lon="6.2945940">
<ele>468.7800000</ele>
<time>2008-06-26T08:44:52Z</time>
</trkpt>
<trkpt lat="50.6282600" lon="6.2966450">
<ele>467.3380000</ele>
<time>2008-06-26T08:45:03Z</time>
</trkpt>
<trkpt lat="50.6281970" lon="6.2971440">
<ele>468.2990000</ele>
<time>2008-06-26T08:45:06Z</time>
</trkpt>
<trkpt lat="50.6280300" lon="6.2983310">
<ele>472.1450000</ele>
<time>2008-06-26T08:45:15Z</time>
</trkpt>
<trkpt lat="50.6279940" lon="6.2992100">
<ele>475.9900000</ele>
<time>2008-06-26T08:45:25Z</time>
</trkpt>
<trkpt lat="50.6281700" lon="6.3000430">
<ele>479.3540000</ele>
<time>2008-06-26T08:45:37Z</time>
</trkpt>
<trkpt lat="50.6283690" lon="6.3007890">
<ele>482.7190000</ele>
<time>2008-06-26T08:45:49Z</time>
</trkpt>
<trkpt lat="50.6284720" lon="6.3023250">
<ele>488.0060000</ele>
<time>2008-06-26T08:46:13Z</time>
</trkpt>
<trkpt lat="50.6283240" lon="6.3032610">
<ele>491.8520000</ele>
<time>2008-06-26T08:46:29Z</time>
</trkpt>
<trkpt lat="50.6281670" lon="6.3041730">
<ele>495.2160000</ele>
<time>2008-06-26T08:46:45Z</time>
</trkpt>
<trkpt lat="50.6280930" lon="6.3051880">
<ele>498.5810000</ele>
<time>2008-06-26T08:47:01Z</time>
</trkpt>
<trkpt lat="50.6278350" lon="6.3091900">
<ele>501.4650000</ele>
<time>2008-06-26T08:47:46Z</time>
</trkpt>
<trkpt lat="50.6277420" lon="6.3100640">
<ele>501.9460000</ele>
<time>2008-06-26T08:47:55Z</time>
</trkpt>
<trkpt lat="50.6269340" lon="6.3125880">
<ele>507.2330000</ele>
<time>2008-06-26T08:48:25Z</time>
</trkpt>
<trkpt lat="50.6256290" lon="6.3175020">
<ele>515.4040000</ele>
<time>2008-06-26T08:49:26Z</time>
</trkpt>
<trkpt lat="50.6247410" lon="6.3199240">
<ele>521.1720000</ele>
<time>2008-06-26T08:49:59Z</time>
</trkpt>
<trkpt lat="50.6241560" lon="6.3211660">
<ele>524.5360000</ele>
<time>2008-06-26T08:50:18Z</time>
</trkpt>
<trkpt lat="50.6235620" lon="6.3224270">
<ele>527.9010000</ele>
<time>2008-06-26T08:50:38Z</time>
</trkpt>
<trkpt lat="50.6231180" lon="6.3233460">
<ele>530.3040000</ele>
<time>2008-06-26T08:50:53Z</time>
</trkpt>
<trkpt lat="50.6220550" lon="6.3239860">
<ele>532.7080000</ele>
<time>2008-06-26T08:51:17Z</time>
</trkpt>
<trkpt lat="50.6211990" lon="6.3244690">
<ele>536.5530000</ele>
<time>2008-06-26T08:51:36Z</time>
</trkpt>
<trkpt lat="50.6204700" lon="6.3252790">
<ele>540.8790000</ele>
<time>2008-06-26T08:51:56Z</time>
</trkpt>
<trkpt lat="50.6199040" lon="6.3260650">
<ele>544.7240000</ele>
<time>2008-06-26T08:52:13Z</time>
</trkpt>
<trkpt lat="50.6190560" lon="6.3272400">
<ele>548.0890000</ele>
<time>2008-06-26T08:52:37Z</time>
</trkpt>
<trkpt lat="50.6181160" lon="6.3283980">
<ele>551.4530000</ele>
<time>2008-06-26T08:53:01Z</time>
</trkpt>
<trkpt lat="50.6164970" lon="6.3288680">
<ele>556.2600000</ele>
<time>2008-06-26T08:53:34Z</time>
</trkpt>
<trkpt lat="50.6150820" lon="6.3286270">
<ele>556.2600000</ele>
<time>2008-06-26T08:53:58Z</time>
</trkpt>
<trkpt lat="50.6139970" lon="6.3288370">
<ele>555.7790000</ele>
<time>2008-06-26T08:54:13Z</time>
</trkpt>
<trkpt lat="50.6136210" lon="6.3290410">
<ele>556.2600000</ele>
<time>2008-06-26T08:54:24Z</time>
</trkpt>
<trkpt lat="50.6123100" lon="6.3298550">
<ele>558.1830000</ele>
<time>2008-06-26T08:54:51Z</time>
</trkpt>
<trkpt lat="50.6105610" lon="6.3309420">
<ele>556.2600000</ele>
<time>2008-06-26T08:55:16Z</time>
</trkpt>
<trkpt lat="50.6086200" lon="6.3310770">
<ele>557.7020000</ele>
<time>2008-06-26T08:55:41Z</time>
</trkpt>
<trkpt lat="50.6074720" lon="6.3306110">
<ele>558.6630000</ele>
<time>2008-06-26T08:55:59Z</time>
</trkpt>
<trkpt lat="50.6065440" lon="6.3299370">
<ele>557.2210000</ele>
<time>2008-06-26T08:56:19Z</time>
</trkpt>
<trkpt lat="50.6064620" lon="6.3303780">
<ele>557.2210000</ele>
<time>2008-06-26T08:56:23Z</time>
</trkpt>
<trkpt lat="50.6059180" lon="6.3342960">
<ele>550.9730000</ele>
<time>2008-06-26T08:56:53Z</time>
</trkpt>
<trkpt lat="50.6057100" lon="6.3358290">
<ele>549.0500000</ele>
<time>2008-06-26T08:57:03Z</time>
</trkpt>
<trkpt lat="50.6054120" lon="6.3367410">
<ele>549.0500000</ele>
<time>2008-06-26T08:57:10Z</time>
</trkpt>
<trkpt lat="50.6042630" lon="6.3387610">
<ele>550.4920000</ele>
<time>2008-06-26T08:57:31Z</time>
</trkpt>
<trkpt lat="50.6026600" lon="6.3400850">
<ele>549.0500000</ele>
<time>2008-06-26T08:57:52Z</time>
</trkpt>
<trkpt lat="50.6014130" lon="6.3411470">
<ele>545.6860000</ele>
<time>2008-06-26T08:58:07Z</time>
</trkpt>
<trkpt lat="50.6000780" lon="6.3422750">
<ele>542.3210000</ele>
<time>2008-06-26T08:58:22Z</time>
</trkpt>
<trkpt lat="50.5990170" lon="6.3432250">
<ele>539.4370000</ele>
<time>2008-06-26T08:58:34Z</time>
</trkpt>
<trkpt lat="50.5977680" lon="6.3451430">
<ele>534.1500000</ele>
<time>2008-06-26T08:58:51Z</time>
</trkpt>
<trkpt lat="50.5972720" lon="6.3464620">
<ele>530.7850000</ele>
<time>2008-06-26T08:59:00Z</time>
</trkpt>
<trkpt lat="50.5971260" lon="6.3469170">
<ele>530.7850000</ele>
<time>2008-06-26T08:59:03Z</time>
</trkpt>
<trkpt lat="50.5964160" lon="6.3491180">
<ele>526.9400000</ele>
<time>2008-06-26T08:59:18Z</time>
</trkpt>
<trkpt lat="50.5961060" lon="6.3500400">
<ele>523.0950000</ele>
<time>2008-06-26T08:59:24Z</time>
</trkpt>
<trkpt lat="50.5957540" lon="6.3510480">
<ele>518.7690000</ele>
<time>2008-06-26T08:59:30Z</time>
</trkpt>
<trkpt lat="50.5953210" lon="6.3522910">
<ele>513.9620000</ele>
<time>2008-06-26T08:59:37Z</time>
</trkpt>
<trkpt lat="50.5948350" lon="6.3537030">
<ele>510.1170000</ele>
<time>2008-06-26T08:59:45Z</time>
</trkpt>
<trkpt lat="50.5945880" lon="6.3550370">
<ele>506.2710000</ele>
<time>2008-06-26T08:59:52Z</time>
</trkpt>
<trkpt lat="50.5942700" lon="6.3561030">
<ele>502.9070000</ele>
<time>2008-06-26T08:59:58Z</time>
</trkpt>
<trkpt lat="50.5938650" lon="6.3574880">
<ele>498.5810000</ele>
<time>2008-06-26T09:00:06Z</time>
</trkpt>
<trkpt lat="50.5936940" lon="6.3581820">
<ele>495.6970000</ele>
<time>2008-06-26T09:00:10Z</time>
</trkpt>
<trkpt lat="50.5933530" lon="6.3589380">
<ele>492.3320000</ele>
<time>2008-06-26T09:00:15Z</time>
</trkpt>
<trkpt lat="50.5929030" lon="6.3595240">
<ele>488.9680000</ele>
<time>2008-06-26T09:00:20Z</time>
</trkpt>
<trkpt lat="50.5925950" lon="6.3603010">
<ele>484.6420000</ele>
<time>2008-06-26T09:00:25Z</time>
</trkpt>
<trkpt lat="50.5922460" lon="6.3615710">
<ele>478.3930000</ele>
<time>2008-06-26T09:00:32Z</time>
</trkpt>
<trkpt lat="50.5918870" lon="6.3621720">
<ele>475.0290000</ele>
<time>2008-06-26T09:00:36Z</time>
</trkpt>
<trkpt lat="50.5917160" lon="6.3624330">
<ele>474.0670000</ele>
<time>2008-06-26T09:00:38Z</time>
</trkpt>
<trkpt lat="50.5914720" lon="6.3632930">
<ele>470.2220000</ele>
<time>2008-06-26T09:00:43Z</time>
</trkpt>
<trkpt lat="50.5912260" lon="6.3638680">
<ele>466.8570000</ele>
<time>2008-06-26T09:00:47Z</time>
</trkpt>
<trkpt lat="50.5907220" lon="6.3643550">
<ele>463.4930000</ele>
<time>2008-06-26T09:00:52Z</time>
</trkpt>
<trkpt lat="50.5904980" lon="6.3644920">
<ele>462.0510000</ele>
<time>2008-06-26T09:00:54Z</time>
</trkpt>
<trkpt lat="50.5903840" lon="6.3645520">
<ele>461.5700000</ele>
<time>2008-06-26T09:00:55Z</time>
</trkpt>
<trkpt lat="50.5898420" lon="6.3652500">
<ele>457.2440000</ele>
<time>2008-06-26T09:01:01Z</time>
</trkpt>
<trkpt lat="50.5896070" lon="6.3663670">
<ele>451.4760000</ele>
<time>2008-06-26T09:01:07Z</time>
</trkpt>
<trkpt lat="50.5892860" lon="6.3672020">
<ele>447.1500000</ele>
<time>2008-06-26T09:01:12Z</time>
</trkpt>
<trkpt lat="50.5890760" lon="6.3679100">
<ele>443.7860000</ele>
<time>2008-06-26T09:01:16Z</time>
</trkpt>
<trkpt lat="50.5887510" lon="6.3692050">
<ele>437.5370000</ele>
<time>2008-06-26T09:01:23Z</time>
</trkpt>
<trkpt lat="50.5884110" lon="6.3700840">
<ele>432.7310000</ele>
<time>2008-06-26T09:01:28Z</time>
</trkpt>
<trkpt lat="50.5879500" lon="6.3707560">
<ele>428.8850000</ele>
<time>2008-06-26T09:01:33Z</time>
</trkpt>
<trkpt lat="50.5876580" lon="6.3719730">
<ele>423.5980000</ele>
<time>2008-06-26T09:01:41Z</time>
</trkpt>
<trkpt lat="50.5878660" lon="6.3726700">
<ele>420.2330000</ele>
<time>2008-06-26T09:01:45Z</time>
</trkpt>
<trkpt lat="50.5880710" lon="6.3733130">
<ele>417.8300000</ele>
<time>2008-06-26T09:01:49Z</time>
</trkpt>
<trkpt lat="50.5880470" lon="6.3738990">
<ele>414.4650000</ele>
<time>2008-06-26T09:01:54Z</time>
</trkpt>
<trkpt lat="50.5873840" lon="6.3740080">
<ele>410.1400000</ele>
<time>2008-06-26T09:02:01Z</time>
</trkpt>
<trkpt lat="50.5867470" lon="6.3737550">
<ele>406.2940000</ele>
<time>2008-06-26T09:02:07Z</time>
</trkpt>
<trkpt lat="50.5865290" lon="6.3736080">
<ele>403.8910000</ele>
<time>2008-06-26T09:02:09Z</time>
</trkpt>
<trkpt lat="50.5864190" lon="6.3735280">
<ele>404.3720000</ele>
<time>2008-06-26T09:02:10Z</time>
</trkpt>
<trkpt lat="50.5859720" lon="6.3732120">
<ele>401.0070000</ele>
<time>2008-06-26T09:02:14Z</time>
</trkpt>
<trkpt lat="50.5854000" lon="6.3728170">
<ele>395.7200000</ele>
<time>2008-06-26T09:02:19Z</time>
</trkpt>
<trkpt lat="50.5849630" lon="6.3724900">
<ele>393.3170000</ele>
<time>2008-06-26T09:02:23Z</time>
</trkpt>
<trkpt lat="50.5843790" lon="6.3717920">
<ele>390.4330000</ele>
<time>2008-06-26T09:02:31Z</time>
</trkpt>
<trkpt lat="50.5841320" lon="6.3722870">
<ele>389.4710000</ele>
<time>2008-06-26T09:02:37Z</time>
</trkpt>
<trkpt lat="50.5843910" lon="6.3725600">
<ele>387.5490000</ele>
<time>2008-06-26T09:02:41Z</time>
</trkpt>
<trkpt lat="50.5852570" lon="6.3731750">
<ele>383.2230000</ele>
<time>2008-06-26T09:02:50Z</time>
</trkpt>
<trkpt lat="50.5859370" lon="6.3739150">
<ele>377.4550000</ele>
<time>2008-06-26T09:02:57Z</time>
</trkpt>
<trkpt lat="50.5863070" lon="6.3744180">
<ele>374.0900000</ele>
<time>2008-06-26T09:03:01Z</time>
</trkpt>
<trkpt lat="50.5868430" lon="6.3751490">
<ele>369.7640000</ele>
<time>2008-06-26T09:03:07Z</time>
</trkpt>
<trkpt lat="50.5869340" lon="6.3752620">
<ele>369.7640000</ele>
<time>2008-06-26T09:03:08Z</time>
</trkpt>
<trkpt lat="50.5870300" lon="6.3753670">
<ele>369.2840000</ele>
<time>2008-06-26T09:03:09Z</time>
</trkpt>
<trkpt lat="50.5877270" lon="6.3757380">
<ele>364.9580000</ele>
<time>2008-06-26T09:03:15Z</time>
</trkpt>
<trkpt lat="50.5886750" lon="6.3762680">
<ele>357.7480000</ele>
<time>2008-06-26T09:03:23Z</time>
</trkpt>
<trkpt lat="50.5890990" lon="6.3769200">
<ele>353.9030000</ele>
<time>2008-06-26T09:03:28Z</time>
</trkpt>
<trkpt lat="50.5894100" lon="6.3776790">
<ele>350.5380000</ele>
<time>2008-06-26T09:03:33Z</time>
</trkpt>
<trkpt lat="50.5895600" lon="6.3780070">
<ele>349.0960000</ele>
<time>2008-06-26T09:03:36Z</time>
</trkpt>
<trkpt lat="50.5893240" lon="6.3785990">
<ele>345.7310000</ele>
<time>2008-06-26T09:03:44Z</time>
</trkpt>
<trkpt lat="50.5889990" lon="6.3777210">
<ele>342.3670000</ele>
<time>2008-06-26T09:03:51Z</time>
</trkpt>
<trkpt lat="50.5885980" lon="6.3769780">
<ele>338.5210000</ele>
<time>2008-06-26T09:03:57Z</time>
</trkpt>
<trkpt lat="50.5879680" lon="6.3766250">
<ele>334.1950000</ele>
<time>2008-06-26T09:04:03Z</time>
</trkpt>
<trkpt lat="50.5875100" lon="6.3764860">
<ele>330.3500000</ele>
<time>2008-06-26T09:04:07Z</time>
</trkpt>
<trkpt lat="50.5870870" lon="6.3763630">
<ele>328.4280000</ele>
<time>2008-06-26T09:04:11Z</time>
</trkpt>
<trkpt lat="50.5865770" lon="6.3759870">
<ele>325.0630000</ele>
<time>2008-06-26T09:04:16Z</time>
</trkpt>
<trkpt lat="50.5859480" lon="6.3754240">
<ele>319.7760000</ele>
<time>2008-06-26T09:04:22Z</time>
</trkpt>
<trkpt lat="50.5852130" lon="6.3747880">
<ele>315.4500000</ele>
<time>2008-06-26T09:04:29Z</time>
</trkpt>
<trkpt lat="50.5845220" lon="6.3744880">
<ele>311.1240000</ele>
<time>2008-06-26T09:04:35Z</time>
</trkpt>
<trkpt lat="50.5837890" lon="6.3745930">
<ele>306.7980000</ele>
<time>2008-06-26T09:04:41Z</time>
</trkpt>
<trkpt lat="50.5832100" lon="6.3749880">
<ele>302.4720000</ele>
<time>2008-06-26T09:04:46Z</time>
</trkpt>
<trkpt lat="50.5829880" lon="6.3751970">
<ele>300.0690000</ele>
<time>2008-06-26T09:04:48Z</time>
</trkpt>
<trkpt lat="50.5825520" lon="6.3756470">
<ele>296.7040000</ele>
<time>2008-06-26T09:04:52Z</time>
</trkpt>
<trkpt lat="50.5816980" lon="6.3765550">
<ele>293.8200000</ele>
<time>2008-06-26T09:05:01Z</time>
</trkpt>
<trkpt lat="50.5812880" lon="6.3776320">
<ele>292.8590000</ele>
<time>2008-06-26T09:05:10Z</time>
</trkpt>
<trkpt lat="50.5811760" lon="6.3791480">
<ele>293.3390000</ele>
<time>2008-06-26T09:05:22Z</time>
</trkpt>
<trkpt lat="50.5807730" lon="6.3804630">
<ele>293.8200000</ele>
<time>2008-06-26T09:05:34Z</time>
</trkpt>
<trkpt lat="50.5795720" lon="6.3832670">
<ele>294.7810000</ele>
<time>2008-06-26T09:06:04Z</time>
</trkpt>
<trkpt lat="50.5786940" lon="6.3834820">
<ele>295.2620000</ele>
<time>2008-06-26T09:06:17Z</time>
</trkpt>
<trkpt lat="50.5784860" lon="6.3834100">
<ele>295.2620000</ele>
<time>2008-06-26T09:06:20Z</time>
</trkpt>
<trkpt lat="50.5773910" lon="6.3829670">
<ele>298.1460000</ele>
<time>2008-06-26T09:06:37Z</time>
</trkpt>
<trkpt lat="50.5768810" lon="6.3830020">
<ele>301.5110000</ele>
<time>2008-06-26T09:06:48Z</time>
</trkpt>
<trkpt lat="50.5760150" lon="6.3838820">
<ele>304.8750000</ele>
<time>2008-06-26T09:07:10Z</time>
</trkpt>
<trkpt lat="50.5757710" lon="6.3848100">
<ele>306.3170000</ele>
<time>2008-06-26T09:07:22Z</time>
</trkpt>
<trkpt lat="50.5754700" lon="6.3864490">
<ele>311.6040000</ele>
<time>2008-06-26T09:07:43Z</time>
</trkpt>
<trkpt lat="50.5754240" lon="6.3880700">
<ele>314.9690000</ele>
<time>2008-06-26T09:08:04Z</time>
</trkpt>
<trkpt lat="50.5756270" lon="6.3894600">
<ele>318.8140000</ele>
<time>2008-06-26T09:08:23Z</time>
</trkpt>
<trkpt lat="50.5755990" lon="6.3905390">
<ele>322.6600000</ele>
<time>2008-06-26T09:08:39Z</time>
</trkpt>
<trkpt lat="50.5754850" lon="6.3910200">
<ele>324.5820000</ele>
<time>2008-06-26T09:08:47Z</time>
</trkpt>
<trkpt lat="50.5753060" lon="6.3917160">
<ele>327.9470000</ele>
<time>2008-06-26T09:08:59Z</time>
</trkpt>
<trkpt lat="50.5751020" lon="6.3930030">
<ele>331.7920000</ele>
<time>2008-06-26T09:09:19Z</time>
</trkpt>
<trkpt lat="50.5750220" lon="6.3947020">
<ele>335.1570000</ele>
<time>2008-06-26T09:09:43Z</time>
</trkpt>
<trkpt lat="50.5754220" lon="6.3967020">
<ele>341.4050000</ele>
<time>2008-06-26T09:10:12Z</time>
</trkpt>
<trkpt lat="50.5753870" lon="6.3977220">
<ele>345.2510000</ele>
<time>2008-06-26T09:10:28Z</time>
</trkpt>
<trkpt lat="50.5751790" lon="6.3986880">
<ele>349.0960000</ele>
<time>2008-06-26T09:10:44Z</time>
</trkpt>
<trkpt lat="50.5750170" lon="6.3998790">
<ele>353.9030000</ele>
<time>2008-06-26T09:11:04Z</time>
</trkpt>
<trkpt lat="50.5749490" lon="6.4005740">
<ele>357.2670000</ele>
<time>2008-06-26T09:11:16Z</time>
</trkpt>
<trkpt lat="50.5749070" lon="6.4020450">
<ele>362.5540000</ele>
<time>2008-06-26T09:11:40Z</time>
</trkpt>
<trkpt lat="50.5746920" lon="6.4030300">
<ele>366.4000000</ele>
<time>2008-06-26T09:11:57Z</time>
</trkpt>
<trkpt lat="50.5745250" lon="6.4054400">
<ele>375.5320000</ele>
<time>2008-06-26T09:12:37Z</time>
</trkpt>
<trkpt lat="50.5747010" lon="6.4063520">
<ele>379.3770000</ele>
<time>2008-06-26T09:12:53Z</time>
</trkpt>
<trkpt lat="50.5748750" lon="6.4072200">
<ele>383.7030000</ele>
<time>2008-06-26T09:13:09Z</time>
</trkpt>
<trkpt lat="50.5748750" lon="6.4080490">
<ele>387.5490000</ele>
<time>2008-06-26T09:13:25Z</time>
</trkpt>
<trkpt lat="50.5749420" lon="6.4088940">
<ele>390.9130000</ele>
<time>2008-06-26T09:13:41Z</time>
</trkpt>
<trkpt lat="50.5747860" lon="6.4096880">
<ele>394.2780000</ele>
<time>2008-06-26T09:13:57Z</time>
</trkpt>
<trkpt lat="50.5745510" lon="6.4104810">
<ele>398.1230000</ele>
<time>2008-06-26T09:14:13Z</time>
</trkpt>
<trkpt lat="50.5745000" lon="6.4116410">
<ele>401.9690000</ele>
<time>2008-06-26T09:14:33Z</time>
</trkpt>
<trkpt lat="50.5745430" lon="6.4123040">
<ele>405.3330000</ele>
<time>2008-06-26T09:14:45Z</time>
</trkpt>
<trkpt lat="50.5743320" lon="6.4129460">
<ele>408.6980000</ele>
<time>2008-06-26T09:15:01Z</time>
</trkpt>
<trkpt lat="50.5740930" lon="6.4126640">
<ele>409.6590000</ele>
<time>2008-06-26T09:15:09Z</time>
</trkpt>
<trkpt lat="50.5739920" lon="6.4124690">
<ele>410.6200000</ele>
<time>2008-06-26T09:15:13Z</time>
</trkpt>
<trkpt lat="50.5735300" lon="6.4115810">
<ele>414.4650000</ele>
<time>2008-06-26T09:15:33Z</time>
</trkpt>
<trkpt lat="50.5730160" lon="6.4112770">
<ele>417.8300000</ele>
<time>2008-06-26T09:15:49Z</time>
</trkpt>
<trkpt lat="50.5724500" lon="6.4112560">
<ele>421.1950000</ele>
<time>2008-06-26T09:16:05Z</time>
</trkpt>
<trkpt lat="50.5715100" lon="6.4121850">
<ele>427.9240000</ele>
<time>2008-06-26T09:16:37Z</time>
</trkpt>
<trkpt lat="50.5711010" lon="6.4128160">
<ele>431.2890000</ele>
<time>2008-06-26T09:16:53Z</time>
</trkpt>
<trkpt lat="50.5707740" lon="6.4134430">
<ele>434.6530000</ele>
<time>2008-06-26T09:17:08Z</time>
</trkpt>
<trkpt lat="50.5704810" lon="6.4141930">
<ele>438.4990000</ele>
<time>2008-06-26T09:17:24Z</time>
</trkpt>
<trkpt lat="50.5703120" lon="6.4151130">
<ele>441.8630000</ele>
<time>2008-06-26T09:17:40Z</time>
</trkpt>
<trkpt lat="50.5700020" lon="6.4161240">
<ele>447.1500000</ele>
<time>2008-06-26T09:18:04Z</time>
</trkpt>
<trkpt lat="50.5698820" lon="6.4160380">
<ele>448.1120000</ele>
<time>2008-06-26T09:18:08Z</time>
</trkpt>
<trkpt lat="50.5693750" lon="6.4157220">
<ele>451.9570000</ele>
<time>2008-06-26T09:18:24Z</time>
</trkpt>
<trkpt lat="50.5688420" lon="6.4156030">
<ele>455.8020000</ele>
<time>2008-06-26T09:18:40Z</time>
</trkpt>
<trkpt lat="50.5682960" lon="6.4157740">
<ele>459.1670000</ele>
<time>2008-06-26T09:18:56Z</time>
</trkpt>
<trkpt lat="50.5677970" lon="6.4161290">
<ele>463.0120000</ele>
<time>2008-06-26T09:19:12Z</time>
</trkpt>
<trkpt lat="50.5673690" lon="6.4175010">
<ele>468.7800000</ele>
<time>2008-06-26T09:19:40Z</time>
</trkpt>
<trkpt lat="50.5670940" lon="6.4185350">
<ele>472.6250000</ele>
<time>2008-06-26T09:20:00Z</time>
</trkpt>
<trkpt lat="50.5670420" lon="6.4194660">
<ele>475.9900000</ele>
<time>2008-06-26T09:20:16Z</time>
</trkpt>
<trkpt lat="50.5670490" lon="6.4203470">
<ele>479.3540000</ele>
<time>2008-06-26T09:20:32Z</time>
</trkpt>
<trkpt lat="50.5670550" lon="6.4211890">
<ele>482.7190000</ele>
<time>2008-06-26T09:20:48Z</time>
</trkpt>
<trkpt lat="50.5671600" lon="6.4220350">
<ele>486.5640000</ele>
<time>2008-06-26T09:21:04Z</time>
</trkpt>
<trkpt lat="50.5675270" lon="6.4227170">
<ele>489.4480000</ele>
<time>2008-06-26T09:21:20Z</time>
</trkpt>
<trkpt lat="50.5683500" lon="6.4238920">
<ele>492.8130000</ele>
<time>2008-06-26T09:21:47Z</time>
</trkpt>
<trkpt lat="50.5689580" lon="6.4247990">
<ele>496.6580000</ele>
<time>2008-06-26T09:22:08Z</time>
</trkpt>
<trkpt lat="50.5693900" lon="6.4254370">
<ele>500.5040000</ele>
<time>2008-06-26T09:22:24Z</time>
</trkpt>
<trkpt lat="50.5697070" lon="6.4261540">
<ele>503.8680000</ele>
<time>2008-06-26T09:22:40Z</time>
</trkpt>
<trkpt lat="50.5696900" lon="6.4270780">
<ele>508.1940000</ele>
<time>2008-06-26T09:22:56Z</time>
</trkpt>
<trkpt lat="50.5696480" lon="6.4278320">
<ele>511.5590000</ele>
<time>2008-06-26T09:23:08Z</time>
</trkpt>
<trkpt lat="50.5695890" lon="6.4288800">
<ele>515.4040000</ele>
<time>2008-06-26T09:23:24Z</time>
</trkpt>
<trkpt lat="50.5695720" lon="6.4291530">
<ele>515.4040000</ele>
<time>2008-06-26T09:23:28Z</time>
</trkpt>
<trkpt lat="50.5693620" lon="6.4328190">
<ele>514.4430000</ele>
<time>2008-06-26T09:24:09Z</time>
</trkpt>
<trkpt lat="50.5689300" lon="6.4347830">
<ele>514.9230000</ele>
<time>2008-06-26T09:24:27Z</time>
</trkpt>
<trkpt lat="50.5683840" lon="6.4359520">
<ele>516.3650000</ele>
<time>2008-06-26T09:24:42Z</time>
</trkpt>
<trkpt lat="50.5676340" lon="6.4373370">
<ele>513.9620000</ele>
<time>2008-06-26T09:25:00Z</time>
</trkpt>
<trkpt lat="50.5659600" lon="6.4405230">
<ele>510.1170000</ele>
<time>2008-06-26T09:25:31Z</time>
</trkpt>
<trkpt lat="50.5657960" lon="6.4407960">
<ele>510.5970000</ele>
<time>2008-06-26T09:25:34Z</time>
</trkpt>
<trkpt lat="50.5633830" lon="6.4423940">
<ele>513.4810000</ele>
<time>2008-06-26T09:26:10Z</time>
</trkpt>
<trkpt lat="50.5613940" lon="6.4430020">
<ele>519.7300000</ele>
<time>2008-06-26T09:26:43Z</time>
</trkpt>
<trkpt lat="50.5607320" lon="6.4434030">
<ele>523.0950000</ele>
<time>2008-06-26T09:26:58Z</time>
</trkpt>
<trkpt lat="50.5599410" lon="6.4442320">
<ele>528.3820000</ele>
<time>2008-06-26T09:27:18Z</time>
</trkpt>
<trkpt lat="50.5592910" lon="6.4450060">
<ele>531.7460000</ele>
<time>2008-06-26T09:27:34Z</time>
</trkpt>
<trkpt lat="50.5591630" lon="6.4451560">
<ele>531.7460000</ele>
<time>2008-06-26T09:27:37Z</time>
</trkpt>
<trkpt lat="50.5579500" lon="6.4465720">
<ele>534.1500000</ele>
<time>2008-06-26T09:28:04Z</time>
</trkpt>
<trkpt lat="50.5561220" lon="6.4498360">
<ele>532.7080000</ele>
<time>2008-06-26T09:28:46Z</time>
</trkpt>
<trkpt lat="50.5554600" lon="6.4534610">
<ele>535.5920000</ele>
<time>2008-06-26T09:29:19Z</time>
</trkpt>
<trkpt lat="50.5548400" lon="6.4565760">
<ele>537.0340000</ele>
<time>2008-06-26T09:29:49Z</time>
</trkpt>
<trkpt lat="50.5547580" lon="6.4568890">
<ele>537.0340000</ele>
<time>2008-06-26T09:29:52Z</time>
</trkpt>
<trkpt lat="50.5540150" lon="6.4597000">
<ele>534.6300000</ele>
<time>2008-06-26T09:30:18Z</time>
</trkpt>
<trkpt lat="50.5536320" lon="6.4608300">
<ele>531.2660000</ele>
<time>2008-06-26T09:30:27Z</time>
</trkpt>
<trkpt lat="50.5532380" lon="6.4617170">
<ele>527.4200000</ele>
<time>2008-06-26T09:30:34Z</time>
</trkpt>
<trkpt lat="50.5526600" lon="6.4625890">
<ele>522.6140000</ele>
<time>2008-06-26T09:30:42Z</time>
</trkpt>
<trkpt lat="50.5522080" lon="6.4631570">
<ele>518.2880000</ele>
<time>2008-06-26T09:30:48Z</time>
</trkpt>
<trkpt lat="50.5518740" lon="6.4642490">
<ele>512.5200000</ele>
<time>2008-06-26T09:30:56Z</time>
</trkpt>
<trkpt lat="50.5518690" lon="6.4657970">
<ele>506.2710000</ele>
<time>2008-06-26T09:31:05Z</time>
</trkpt>
<trkpt lat="50.5519150" lon="6.4665520">
<ele>502.9070000</ele>
<time>2008-06-26T09:31:09Z</time>
</trkpt>
<trkpt lat="50.5516380" lon="6.4688520">
<ele>499.0620000</ele>
<time>2008-06-26T09:31:22Z</time>
</trkpt>
<trkpt lat="50.5503400" lon="6.4709330">
<ele>495.2160000</ele>
<time>2008-06-26T09:31:40Z</time>
</trkpt>
<trkpt lat="50.5495220" lon="6.4713950">
<ele>494.2550000</ele>
<time>2008-06-26T09:31:49Z</time>
</trkpt>
<trkpt lat="50.5487420" lon="6.4712850">
<ele>491.3710000</ele>
<time>2008-06-26T09:31:57Z</time>
</trkpt>
<trkpt lat="50.5484490" lon="6.4711650">
<ele>489.9290000</ele>
<time>2008-06-26T09:32:00Z</time>
</trkpt>
<trkpt lat="50.5478410" lon="6.4709080">
<ele>486.5640000</ele>
<time>2008-06-26T09:32:06Z</time>
</trkpt>
<trkpt lat="50.5472020" lon="6.4706650">
<ele>481.7580000</ele>
<time>2008-06-26T09:32:12Z</time>
</trkpt>
<trkpt lat="50.5464270" lon="6.4708680">
<ele>476.4710000</ele>
<time>2008-06-26T09:32:19Z</time>
</trkpt>
<trkpt lat="50.5459370" lon="6.4714470">
<ele>471.6640000</ele>
<time>2008-06-26T09:32:24Z</time>
</trkpt>
<trkpt lat="50.5455430" lon="6.4719580">
<ele>468.2990000</ele>
<time>2008-06-26T09:32:28Z</time>
</trkpt>
<trkpt lat="50.5451580" lon="6.4724560">
<ele>463.9730000</ele>
<time>2008-06-26T09:32:32Z</time>
</trkpt>
<trkpt lat="50.5449710" lon="6.4727220">
<ele>462.5310000</ele>
<time>2008-06-26T09:32:34Z</time>
</trkpt>
<trkpt lat="50.5445860" lon="6.4734810">
<ele>459.1670000</ele>
<time>2008-06-26T09:32:39Z</time>
</trkpt>
<trkpt lat="50.5443860" lon="6.4738810">
<ele>456.2830000</ele>
<time>2008-06-26T09:32:42Z</time>
</trkpt>
<trkpt lat="50.5439130" lon="6.4743730">
<ele>451.4760000</ele>
<time>2008-06-26T09:32:47Z</time>
</trkpt>
<trkpt lat="50.5432130" lon="6.4744810">
<ele>446.1890000</ele>
<time>2008-06-26T09:32:53Z</time>
</trkpt>
<trkpt lat="50.5427600" lon="6.4745780">
<ele>442.8240000</ele>
<time>2008-06-26T09:32:57Z</time>
</trkpt>
<trkpt lat="50.5424170" lon="6.4746760">
<ele>440.4210000</ele>
<time>2008-06-26T09:33:00Z</time>
</trkpt>
<trkpt lat="50.5418180" lon="6.4745730">
<ele>435.6150000</ele>
<time>2008-06-26T09:33:05Z</time>
</trkpt>
<trkpt lat="50.5413340" lon="6.4743980">
<ele>432.2500000</ele>
<time>2008-06-26T09:33:09Z</time>
</trkpt>
<trkpt lat="50.5408370" lon="6.4742270">
<ele>428.4050000</ele>
<time>2008-06-26T09:33:13Z</time>
</trkpt>
<trkpt lat="50.5405800" lon="6.4741230">
<ele>426.0010000</ele>
<time>2008-06-26T09:33:15Z</time>
</trkpt>
<trkpt lat="50.5398240" lon="6.4741140">
<ele>420.2330000</ele>
<time>2008-06-26T09:33:21Z</time>
</trkpt>
<trkpt lat="50.5390550" lon="6.4746930">
<ele>414.4650000</ele>
<time>2008-06-26T09:33:28Z</time>
</trkpt>
<trkpt lat="50.5385760" lon="6.4753320">
<ele>410.6200000</ele>
<time>2008-06-26T09:33:33Z</time>
</trkpt>
<trkpt lat="50.5383230" lon="6.4758150">
<ele>406.7750000</ele>
<time>2008-06-26T09:33:36Z</time>
</trkpt>
<trkpt lat="50.5380430" lon="6.4765210">
<ele>403.4100000</ele>
<time>2008-06-26T09:33:40Z</time>
</trkpt>
<trkpt lat="50.5376250" lon="6.4777080">
<ele>397.6420000</ele>
<time>2008-06-26T09:33:47Z</time>
</trkpt>
<trkpt lat="50.5375010" lon="6.4780370">
<ele>396.2010000</ele>
<time>2008-06-26T09:33:49Z</time>
</trkpt>
<trkpt lat="50.5370980" lon="6.4787070">
<ele>391.8750000</ele>
<time>2008-06-26T09:33:54Z</time>
</trkpt>
<trkpt lat="50.5366630" lon="6.4789580">
<ele>387.5490000</ele>
<time>2008-06-26T09:33:58Z</time>
</trkpt>
<trkpt lat="50.5361930" lon="6.4789490">
<ele>384.1840000</ele>
<time>2008-06-26T09:34:02Z</time>
</trkpt>
<trkpt lat="50.5357390" lon="6.4787400">
<ele>381.3000000</ele>
<time>2008-06-26T09:34:06Z</time>
</trkpt>
<trkpt lat="50.5350620" lon="6.4783830">
<ele>376.9740000</ele>
<time>2008-06-26T09:34:13Z</time>
</trkpt>
<trkpt lat="50.5349740" lon="6.4783460">
<ele>376.4940000</ele>
<time>2008-06-26T09:34:14Z</time>
</trkpt>
<trkpt lat="50.5344180" lon="6.4784130">
<ele>373.1290000</ele>
<time>2008-06-26T09:34:20Z</time>
</trkpt>
<trkpt lat="50.5338890" lon="6.4787350">
<ele>371.6870000</ele>
<time>2008-06-26T09:34:41Z</time>
</trkpt>
<trkpt lat="50.5338960" lon="6.4787410">
<ele>372.1670000</ele>
<time>2008-06-26T09:34:54Z</time>
</trkpt>
<trkpt lat="50.5335370" lon="6.4785350">
<ele>371.2060000</ele>
<time>2008-06-26T09:35:05Z</time>
</trkpt>
<trkpt lat="50.5318340" lon="6.4768690">
<ele>373.1290000</ele>
<time>2008-06-26T09:35:41Z</time>
</trkpt>
<trkpt lat="50.5301660" lon="6.4764760">
<ele>371.2060000</ele>
<time>2008-06-26T09:36:08Z</time>
</trkpt>
<trkpt lat="50.5298700" lon="6.4765470">
<ele>371.2060000</ele>
<time>2008-06-26T09:57:35Z</time>
</trkpt>
<trkpt lat="50.5297120" lon="6.4764580">
<ele>371.2060000</ele>
<time>2008-06-26T09:57:41Z</time>
</trkpt>
<trkpt lat="50.5294850" lon="6.4765790">
<ele>371.2060000</ele>
<time>2008-06-26T09:57:57Z</time>
</trkpt>
<trkpt lat="50.5290360" lon="6.4769000">
<ele>371.6870000</ele>
<time>2008-06-26T09:58:07Z</time>
</trkpt>
<trkpt lat="50.5283940" lon="6.4764590">
<ele>372.6480000</ele>
<time>2008-06-26T09:58:20Z</time>
</trkpt>
<trkpt lat="50.5282390" lon="6.4762150">
<ele>373.1290000</ele>
<time>2008-06-26T09:58:24Z</time>
</trkpt>
<trkpt lat="50.5259440" lon="6.4723140">
<ele>375.0520000</ele>
<time>2008-06-26T09:59:21Z</time>
</trkpt>
<trkpt lat="50.5253010" lon="6.4715150">
<ele>375.5320000</ele>
<time>2008-06-26T09:59:34Z</time>
</trkpt>
<trkpt lat="50.5239620" lon="6.4698710">
<ele>375.5320000</ele>
<time>2008-06-26T10:00:02Z</time>
</trkpt>
<trkpt lat="50.5230570" lon="6.4689950">
<ele>376.4940000</ele>
<time>2008-06-26T10:00:20Z</time>
</trkpt>
<trkpt lat="50.5216160" lon="6.4676260">
<ele>377.9350000</ele>
<time>2008-06-26T10:00:47Z</time>
</trkpt>
<trkpt lat="50.5200520" lon="6.4667510">
<ele>379.3770000</ele>
<time>2008-06-26T10:01:14Z</time>
</trkpt>
<trkpt lat="50.5186950" lon="6.4668410">
<ele>380.8190000</ele>
<time>2008-06-26T10:01:35Z</time>
</trkpt>
<trkpt lat="50.5175150" lon="6.4669660">
<ele>382.2610000</ele>
<time>2008-06-26T10:01:53Z</time>
</trkpt>
<trkpt lat="50.5162990" lon="6.4666970">
<ele>382.7420000</ele>
<time>2008-06-26T10:02:17Z</time>
</trkpt>
<trkpt lat="50.5144470" lon="6.4663260">
<ele>382.7420000</ele>
<time>2008-06-26T10:02:46Z</time>
</trkpt>
<trkpt lat="50.5089030" lon="6.4649410">
<ele>386.1070000</ele>
<time>2008-06-26T10:04:13Z</time>
</trkpt>
<trkpt lat="50.5071350" lon="6.4647060">
<ele>392.3550000</ele>
<time>2008-06-26T10:04:46Z</time>
</trkpt>
<trkpt lat="50.5065520" lon="6.4646610">
<ele>395.7200000</ele>
<time>2008-06-26T10:04:58Z</time>
</trkpt>
<trkpt lat="50.5057060" lon="6.4644290">
<ele>399.0840000</ele>
<time>2008-06-26T10:05:15Z</time>
</trkpt>
<trkpt lat="50.5027900" lon="6.4636590">
<ele>402.9300000</ele>
<time>2008-06-26T10:06:07Z</time>
</trkpt>
<trkpt lat="50.5012860" lon="6.4633630">
<ele>409.1780000</ele>
<time>2008-06-26T10:06:38Z</time>
</trkpt>
<trkpt lat="50.5011400" lon="6.4633800">
<ele>409.1780000</ele>
<time>2008-06-26T10:06:41Z</time>
</trkpt>
<trkpt lat="50.5010530" lon="6.4638040">
<ele>410.6200000</ele>
<time>2008-06-26T10:06:50Z</time>
</trkpt>
<trkpt lat="50.5012920" lon="6.4638890">
<ele>412.5430000</ele>
<time>2008-06-26T10:06:57Z</time>
</trkpt>
<trkpt lat="50.5018060" lon="6.4644100">
<ele>418.7920000</ele>
<time>2008-06-26T10:07:19Z</time>
</trkpt>
<trkpt lat="50.5019050" lon="6.4649910">
<ele>423.1170000</ele>
<time>2008-06-26T10:07:34Z</time>
</trkpt>
<trkpt lat="50.5018020" lon="6.4655000">
<ele>426.4820000</ele>
<time>2008-06-26T10:07:49Z</time>
</trkpt>
<trkpt lat="50.5012740" lon="6.4659010">
<ele>433.2110000</ele>
<time>2008-06-26T10:08:14Z</time>
</trkpt>
<trkpt lat="50.5008890" lon="6.4658660">
<ele>437.5370000</ele>
<time>2008-06-26T10:08:29Z</time>
</trkpt>
<trkpt lat="50.5005150" lon="6.4658370">
<ele>441.3820000</ele>
<time>2008-06-26T10:08:44Z</time>
</trkpt>
<trkpt lat="50.5001930" lon="6.4660410">
<ele>444.7470000</ele>
<time>2008-06-26T10:08:59Z</time>
</trkpt>
<trkpt lat="50.5000580" lon="6.4665660">
<ele>448.1120000</ele>
<time>2008-06-26T10:09:14Z</time>
</trkpt>
<trkpt lat="50.4999990" lon="6.4671360">
<ele>452.4380000</ele>
<time>2008-06-26T10:09:29Z</time>
</trkpt>
<trkpt lat="50.4995090" lon="6.4673500">
<ele>458.6860000</ele>
<time>2008-06-26T10:09:54Z</time>
</trkpt>
<trkpt lat="50.4990940" lon="6.4668920">
<ele>463.4930000</ele>
<time>2008-06-26T10:10:15Z</time>
</trkpt>
<trkpt lat="50.4987560" lon="6.4670370">
<ele>467.3380000</ele>
<time>2008-06-26T10:10:30Z</time>
</trkpt>
<trkpt lat="50.4986780" lon="6.4676020">
<ele>470.7030000</ele>
<time>2008-06-26T10:10:45Z</time>
</trkpt>
<trkpt lat="50.4990500" lon="6.4686820">
<ele>475.9900000</ele>
<time>2008-06-26T10:11:13Z</time>
</trkpt>
<trkpt lat="50.4992660" lon="6.4693630">
<ele>479.3540000</ele>
<time>2008-06-26T10:11:29Z</time>
</trkpt>
<trkpt lat="50.4989170" lon="6.4707660">
<ele>484.6420000</ele>
<time>2008-06-26T10:12:01Z</time>
</trkpt>
<trkpt lat="50.4985350" lon="6.4718580">
<ele>487.0450000</ele>
<time>2008-06-26T10:12:21Z</time>
</trkpt>
<trkpt lat="50.4981030" lon="6.4731870">
<ele>490.8900000</ele>
<time>2008-06-26T10:12:45Z</time>
</trkpt>
<trkpt lat="50.4976790" lon="6.4745680">
<ele>494.2550000</ele>
<time>2008-06-26T10:13:09Z</time>
</trkpt>
<trkpt lat="50.4978100" lon="6.4765770">
<ele>500.0230000</ele>
<time>2008-06-26T10:13:41Z</time>
</trkpt>
<trkpt lat="50.4981960" lon="6.4771870">
<ele>503.3870000</ele>
<time>2008-06-26T10:13:57Z</time>
</trkpt>
<trkpt lat="50.4986370" lon="6.4776230">
<ele>507.2330000</ele>
<time>2008-06-26T10:14:13Z</time>
</trkpt>
<trkpt lat="50.4989600" lon="6.4779530">
<ele>510.5970000</ele>
<time>2008-06-26T10:14:25Z</time>
</trkpt>
<trkpt lat="50.4995150" lon="6.4786300">
<ele>513.9620000</ele>
<time>2008-06-26T10:14:45Z</time>
</trkpt>
<trkpt lat="50.4996090" lon="6.4787480">
<ele>513.9620000</ele>
<time>2008-06-26T10:14:48Z</time>
</trkpt>
<trkpt lat="50.5001540" lon="6.4795550">
<ele>514.9230000</ele>
<time>2008-06-26T10:15:04Z</time>
</trkpt>
<trkpt lat="50.5005240" lon="6.4808460">
<ele>515.8850000</ele>
<time>2008-06-26T10:15:21Z</time>
</trkpt>
<trkpt lat="50.5005940" lon="6.4823960">
<ele>516.8460000</ele>
<time>2008-06-26T10:15:39Z</time>
</trkpt>
<trkpt lat="50.5006350" lon="6.4837040">
<ele>520.2110000</ele>
<time>2008-06-26T10:15:56Z</time>
</trkpt>
<trkpt lat="50.5006020" lon="6.4844570">
<ele>523.5750000</ele>
<time>2008-06-26T10:16:08Z</time>
</trkpt>
<trkpt lat="50.5005830" lon="6.4849540">
<ele>525.0170000</ele>
<time>2008-06-26T10:16:16Z</time>
</trkpt>
<trkpt lat="50.5010220" lon="6.4877880">
<ele>528.8630000</ele>
<time>2008-06-26T10:16:54Z</time>
</trkpt>
<trkpt lat="50.5011090" lon="6.4881510">
<ele>529.3430000</ele>
<time>2008-06-26T10:16:59Z</time>
</trkpt>
<trkpt lat="50.5019810" lon="6.4914530">
<ele>526.4590000</ele>
<time>2008-06-26T10:17:36Z</time>
</trkpt>
<trkpt lat="50.5023120" lon="6.4926910">
<ele>524.5360000</ele>
<time>2008-06-26T10:17:45Z</time>
</trkpt>
<trkpt lat="50.5024210" lon="6.4937480">
<ele>525.9780000</ele>
<time>2008-06-26T10:17:53Z</time>
</trkpt>
<trkpt lat="50.5026400" lon="6.4960460">
<ele>525.0170000</ele>
<time>2008-06-26T10:18:11Z</time>
</trkpt>
<trkpt lat="50.5032220" lon="6.4982830">
<ele>520.6910000</ele>
<time>2008-06-26T10:18:29Z</time>
</trkpt>
<trkpt lat="50.5035950" lon="6.4995980">
<ele>516.8460000</ele>
<time>2008-06-26T10:18:38Z</time>
</trkpt>
<trkpt lat="50.5038680" lon="6.5005700">
<ele>513.4810000</ele>
<time>2008-06-26T10:18:44Z</time>
</trkpt>
<trkpt lat="50.5041230" lon="6.5014780">
<ele>513.9620000</ele>
<time>2008-06-26T10:18:52Z</time>
</trkpt>
<trkpt lat="50.5038440" lon="6.5017840">
<ele>513.9620000</ele>
<time>2008-06-26T10:19:02Z</time>
</trkpt>
<trkpt lat="50.5029370" lon="6.5022050">
<ele>516.3650000</ele>
<time>2008-06-26T10:19:20Z</time>
</trkpt>
<trkpt lat="50.5015420" lon="6.5028340">
<ele>521.1720000</ele>
<time>2008-06-26T10:19:49Z</time>
</trkpt>
<trkpt lat="50.5010280" lon="6.5030640">
<ele>524.5360000</ele>
<time>2008-06-26T10:20:01Z</time>
</trkpt>
<trkpt lat="50.5005280" lon="6.5032840">
<ele>527.9010000</ele>
<time>2008-06-26T10:20:13Z</time>
</trkpt>
<trkpt lat="50.5000340" lon="6.5035110">
<ele>531.2660000</ele>
<time>2008-06-26T10:20:25Z</time>
</trkpt>
<trkpt lat="50.4995430" lon="6.5037360">
<ele>534.6300000</ele>
<time>2008-06-26T10:20:37Z</time>
</trkpt>
<trkpt lat="50.4988890" lon="6.5040420">
<ele>537.9950000</ele>
<time>2008-06-26T10:20:53Z</time>
</trkpt>
<trkpt lat="50.4976630" lon="6.5046250">
<ele>540.3980000</ele>
<time>2008-06-26T10:21:18Z</time>
</trkpt>
<trkpt lat="50.4966120" lon="6.5052990">
<ele>538.9560000</ele>
<time>2008-06-26T10:21:36Z</time>
</trkpt>
<trkpt lat="50.4954980" lon="6.5062160">
<ele>536.5530000</ele>
<time>2008-06-26T10:21:51Z</time>
</trkpt>
<trkpt lat="50.4948600" lon="6.5070370">
<ele>535.1110000</ele>
<time>2008-06-26T10:22:00Z</time>
</trkpt>
<trkpt lat="50.4940490" lon="6.5080690">
<ele>534.6300000</ele>
<time>2008-06-26T10:22:12Z</time>
</trkpt>
<trkpt lat="50.4933570" lon="6.5085870">
<ele>535.5920000</ele>
<time>2008-06-26T10:22:23Z</time>
</trkpt>
<trkpt lat="50.4930400" lon="6.5088390">
<ele>537.0340000</ele>
<time>2008-06-26T10:22:30Z</time>
</trkpt>
<trkpt lat="50.4930590" lon="6.5089220">
<ele>537.0340000</ele>
<time>2008-06-26T10:22:31Z</time>
</trkpt>
<trkpt lat="50.4930660" lon="6.5112850">
<ele>542.8020000</ele>
<time>2008-06-26T10:22:58Z</time>
</trkpt>
<trkpt lat="50.4929780" lon="6.5121410">
<ele>546.1660000</ele>
<time>2008-06-26T10:23:10Z</time>
</trkpt>
<trkpt lat="50.4925810" lon="6.5133630">
<ele>550.0110000</ele>
<time>2008-06-26T10:23:30Z</time>
</trkpt>
<trkpt lat="50.4921200" lon="6.5140590">
<ele>548.5690000</ele>
<time>2008-06-26T10:23:42Z</time>
</trkpt>
<trkpt lat="50.4914190" lon="6.5154190">
<ele>543.2820000</ele>
<time>2008-06-26T10:23:58Z</time>
</trkpt>
<trkpt lat="50.4915300" lon="6.5170790">
<ele>540.3980000</ele>
<time>2008-06-26T10:24:14Z</time>
</trkpt>
<trkpt lat="50.4917460" lon="6.5176470">
<ele>537.5140000</ele>
<time>2008-06-26T10:24:24Z</time>
</trkpt>
<trkpt lat="50.4916190" lon="6.5191880">
<ele>532.7080000</ele>
<time>2008-06-26T10:24:51Z</time>
</trkpt>
<trkpt lat="50.4916670" lon="6.5203060">
<ele>534.1500000</ele>
<time>2008-06-26T10:25:13Z</time>
</trkpt>
<trkpt lat="50.4914980" lon="6.5209440">
<ele>537.5140000</ele>
<time>2008-06-26T10:25:25Z</time>
</trkpt>
<trkpt lat="50.4913850" lon="6.5210910">
<ele>538.9560000</ele>
<time>2008-06-26T10:25:29Z</time>
</trkpt>
<trkpt lat="50.4912730" lon="6.5212270">
<ele>540.3980000</ele>
<time>2008-06-26T10:25:33Z</time>
</trkpt>
<trkpt lat="50.4911460" lon="6.5221300">
<ele>541.3590000</ele>
<time>2008-06-26T10:25:46Z</time>
</trkpt>
<trkpt lat="50.4911990" lon="6.5227550">
<ele>542.3210000</ele>
<time>2008-06-26T10:25:54Z</time>
</trkpt>
<trkpt lat="50.4912890" lon="6.5239400">
<ele>544.2440000</ele>
<time>2008-06-26T10:26:10Z</time>
</trkpt>
<trkpt lat="50.4911240" lon="6.5258990">
<ele>548.0890000</ele>
<time>2008-06-26T10:26:38Z</time>
</trkpt>
<trkpt lat="50.4909180" lon="6.5278450">
<ele>549.0500000</ele>
<time>2008-06-26T10:27:02Z</time>
</trkpt>
<trkpt lat="50.4906940" lon="6.5286350">
<ele>545.2050000</ele>
<time>2008-06-26T10:27:09Z</time>
</trkpt>
<trkpt lat="50.4903820" lon="6.5296480">
<ele>539.9180000</ele>
<time>2008-06-26T10:27:16Z</time>
</trkpt>
<trkpt lat="50.4898430" lon="6.5317570">
<ele>539.9180000</ele>
<time>2008-06-26T10:27:30Z</time>
</trkpt>
<trkpt lat="50.4897240" lon="6.5323970">
<ele>543.7630000</ele>
<time>2008-06-26T10:27:36Z</time>
</trkpt>
<trkpt lat="50.4893390" lon="6.5339620">
<ele>539.9180000</ele>
<time>2008-06-26T10:27:50Z</time>
</trkpt>
<trkpt lat="50.4892680" lon="6.5346160">
<ele>536.0720000</ele>
<time>2008-06-26T10:27:54Z</time>
</trkpt>
<trkpt lat="50.4892460" lon="6.5355090">
<ele>532.2270000</ele>
<time>2008-06-26T10:27:59Z</time>
</trkpt>
<trkpt lat="50.4891900" lon="6.5359470">
<ele>531.2660000</ele>
<time>2008-06-26T10:28:02Z</time>
</trkpt>
<trkpt lat="50.4891590" lon="6.5361600">
<ele>530.3040000</ele>
<time>2008-06-26T10:28:04Z</time>
</trkpt>
<trkpt lat="50.4892510" lon="6.5368880">
<ele>526.9400000</ele>
<time>2008-06-26T10:28:11Z</time>
</trkpt>
<trkpt lat="50.4890810" lon="6.5375080">
<ele>522.6140000</ele>
<time>2008-06-26T10:28:19Z</time>
</trkpt>
<trkpt lat="50.4889560" lon="6.5382000">
<ele>522.1330000</ele>
<time>2008-06-26T10:28:25Z</time>
</trkpt>
<trkpt lat="50.4889370" lon="6.5383040">
<ele>522.1330000</ele>
<time>2008-06-26T10:28:26Z</time>
</trkpt>
<trkpt lat="50.4885890" lon="6.5388300">
<ele>524.0560000</ele>
<time>2008-06-26T10:28:34Z</time>
</trkpt>
<trkpt lat="50.4880780" lon="6.5394160">
<ele>530.3040000</ele>
<time>2008-06-26T10:28:52Z</time>
</trkpt>
<trkpt lat="50.4878030" lon="6.5398390">
<ele>534.6300000</ele>
<time>2008-06-26T10:29:07Z</time>
</trkpt>
<trkpt lat="50.4876060" lon="6.5403100">
<ele>538.4760000</ele>
<time>2008-06-26T10:29:22Z</time>
</trkpt>
<trkpt lat="50.4874370" lon="6.5407880">
<ele>542.3210000</ele>
<time>2008-06-26T10:29:37Z</time>
</trkpt>
<trkpt lat="50.4872770" lon="6.5412600">
<ele>546.1660000</ele>
<time>2008-06-26T10:29:52Z</time>
</trkpt>
<trkpt lat="50.4871220" lon="6.5417500">
<ele>550.0110000</ele>
<time>2008-06-26T10:30:07Z</time>
</trkpt>
<trkpt lat="50.4869980" lon="6.5422610">
<ele>553.3760000</ele>
<time>2008-06-26T10:30:22Z</time>
</trkpt>
<trkpt lat="50.4868780" lon="6.5428400">
<ele>556.7410000</ele>
<time>2008-06-26T10:30:37Z</time>
</trkpt>
<trkpt lat="50.4866870" lon="6.5438600">
<ele>553.8570000</ele>
<time>2008-06-26T10:30:52Z</time>
</trkpt>
<trkpt lat="50.4866200" lon="6.5442240">
<ele>550.4920000</ele>
<time>2008-06-26T10:30:55Z</time>
</trkpt>
<trkpt lat="50.4865120" lon="6.5447800">
<ele>546.1660000</ele>
<time>2008-06-26T10:31:01Z</time>
</trkpt>
<trkpt lat="50.4864850" lon="6.5449680">
<ele>545.2050000</ele>
<time>2008-06-26T10:31:05Z</time>
</trkpt>
<trkpt lat="50.4869880" lon="6.5454740">
<ele>541.8400000</ele>
<time>2008-06-26T10:31:15Z</time>
</trkpt>
<trkpt lat="50.4875140" lon="6.5458380">
<ele>537.5140000</ele>
<time>2008-06-26T10:31:21Z</time>
</trkpt>
<trkpt lat="50.4881120" lon="6.5466140">
<ele>534.1500000</ele>
<time>2008-06-26T10:31:28Z</time>
</trkpt>
<trkpt lat="50.4884560" lon="6.5475050">
<ele>533.6690000</ele>
<time>2008-06-26T10:31:34Z</time>
</trkpt>
<trkpt lat="50.4899330" lon="6.5517040">
<ele>534.1500000</ele>
<time>2008-06-26T10:32:07Z</time>
</trkpt>
<trkpt lat="50.4907200" lon="6.5527960">
<ele>533.1880000</ele>
<time>2008-06-26T10:32:19Z</time>
</trkpt>
<trkpt lat="50.4915010" lon="6.5532340">
<ele>532.2270000</ele>
<time>2008-06-26T10:32:28Z</time>
</trkpt>
<trkpt lat="50.4932880" lon="6.5539000">
<ele>531.7460000</ele>
<time>2008-06-26T10:32:49Z</time>
</trkpt>
<trkpt lat="50.4942140" lon="6.5542790">
<ele>532.7080000</ele>
<time>2008-06-26T10:33:01Z</time>
</trkpt>
<trkpt lat="50.4952250" lon="6.5555220">
<ele>530.7850000</ele>
<time>2008-06-26T10:33:16Z</time>
</trkpt>
<trkpt lat="50.4956210" lon="6.5566460">
<ele>528.8630000</ele>
<time>2008-06-26T10:33:25Z</time>
</trkpt>
<trkpt lat="50.4973050" lon="6.5608160">
<ele>523.0950000</ele>
<time>2008-06-26T10:33:58Z</time>
</trkpt>
<trkpt lat="50.4981160" lon="6.5615110">
<ele>521.6530000</ele>
<time>2008-06-26T10:34:07Z</time>
</trkpt>
<trkpt lat="50.4990060" lon="6.5614960">
<ele>521.6530000</ele>
<time>2008-06-26T10:34:16Z</time>
</trkpt>
<trkpt lat="50.5004270" lon="6.5616820">
<ele>524.5360000</ele>
<time>2008-06-26T10:34:34Z</time>
</trkpt>
<trkpt lat="50.5009370" lon="6.5624110">
<ele>524.5360000</ele>
<time>2008-06-26T10:34:43Z</time>
</trkpt>
<trkpt lat="50.5011370" lon="6.5626420">
<ele>523.0950000</ele>
<time>2008-06-26T10:34:46Z</time>
</trkpt>
<trkpt lat="50.5018280" lon="6.5634580">
<ele>518.7690000</ele>
<time>2008-06-26T10:34:55Z</time>
</trkpt>
<trkpt lat="50.5027180" lon="6.5646730">
<ele>513.9620000</ele>
<time>2008-06-26T10:35:06Z</time>
</trkpt>
<trkpt lat="50.5039600" lon="6.5658780">
<ele>507.2330000</ele>
<time>2008-06-26T10:35:20Z</time>
</trkpt>
<trkpt lat="50.5041360" lon="6.5662830">
<ele>504.3490000</ele>
<time>2008-06-26T10:35:23Z</time>
</trkpt>
<trkpt lat="50.5045790" lon="6.5673280">
<ele>499.5420000</ele>
<time>2008-06-26T10:35:30Z</time>
</trkpt>
<trkpt lat="50.5049480" lon="6.5683090">
<ele>496.1780000</ele>
<time>2008-06-26T10:35:36Z</time>
</trkpt>
<trkpt lat="50.5053640" lon="6.5693310">
<ele>491.8520000</ele>
<time>2008-06-26T10:35:42Z</time>
</trkpt>
<trkpt lat="50.5057050" lon="6.5701530">
<ele>488.4870000</ele>
<time>2008-06-26T10:35:47Z</time>
</trkpt>
<trkpt lat="50.5059240" lon="6.5707080">
<ele>486.5640000</ele>
<time>2008-06-26T10:35:51Z</time>
</trkpt>
<trkpt lat="50.5066940" lon="6.5712050">
<ele>481.2770000</ele>
<time>2008-06-26T10:36:00Z</time>
</trkpt>
<trkpt lat="50.5072170" lon="6.5717860">
<ele>475.9900000</ele>
<time>2008-06-26T10:36:09Z</time>
</trkpt>
<trkpt lat="50.5070680" lon="6.5720600">
<ele>474.0670000</ele>
<time>2008-06-26T10:36:12Z</time>
</trkpt>
<trkpt lat="50.5064100" lon="6.5719700">
<ele>470.2220000</ele>
<time>2008-06-26T10:36:19Z</time>
</trkpt>
<trkpt lat="50.5055780" lon="6.5715830">
<ele>465.4160000</ele>
<time>2008-06-26T10:36:27Z</time>
</trkpt>
<trkpt lat="50.5049720" lon="6.5711840">
<ele>462.0510000</ele>
<time>2008-06-26T10:36:33Z</time>
</trkpt>
<trkpt lat="50.5045270" lon="6.5715550">
<ele>459.6480000</ele>
<time>2008-06-26T10:36:40Z</time>
</trkpt>
<trkpt lat="50.5047500" lon="6.5720050">
<ele>457.7250000</ele>
<time>2008-06-26T10:36:44Z</time>
</trkpt>
<trkpt lat="50.5048510" lon="6.5720510">
<ele>456.7640000</ele>
<time>2008-06-26T10:36:45Z</time>
</trkpt>
<trkpt lat="50.5052730" lon="6.5722220">
<ele>453.3990000</ele>
<time>2008-06-26T10:36:49Z</time>
</trkpt>
<trkpt lat="50.5057330" lon="6.5726320">
<ele>449.0730000</ele>
<time>2008-06-26T10:36:54Z</time>
</trkpt>
<trkpt lat="50.5061280" lon="6.5730870">
<ele>444.7470000</ele>
<time>2008-06-26T10:36:59Z</time>
</trkpt>
<trkpt lat="50.5064290" lon="6.5737440">
<ele>441.8630000</ele>
<time>2008-06-26T10:37:08Z</time>
</trkpt>
<trkpt lat="50.5065570" lon="6.5738360">
<ele>441.8630000</ele>
<time>2008-06-26T10:37:10Z</time>
</trkpt>
<trkpt lat="50.5073040" lon="6.5744240">
<ele>439.4600000</ele>
<time>2008-06-26T10:37:20Z</time>
</trkpt>
<trkpt lat="50.5073900" lon="6.5744770">
<ele>439.4600000</ele>
<time>2008-06-26T10:37:21Z</time>
</trkpt>
<trkpt lat="50.5080620" lon="6.5744260">
<ele>435.6150000</ele>
<time>2008-06-26T10:37:28Z</time>
</trkpt>
<trkpt lat="50.5087450" lon="6.5740080">
<ele>431.2890000</ele>
<time>2008-06-26T10:37:35Z</time>
</trkpt>
<trkpt lat="50.5092700" lon="6.5739990">
<ele>426.4820000</ele>
<time>2008-06-26T10:37:40Z</time>
</trkpt>
<trkpt lat="50.5097130" lon="6.5741860">
<ele>422.6370000</ele>
<time>2008-06-26T10:37:44Z</time>
</trkpt>
<trkpt lat="50.5101480" lon="6.5744670">
<ele>419.2720000</ele>
<time>2008-06-26T10:37:48Z</time>
</trkpt>
<trkpt lat="50.5106390" lon="6.5749780">
<ele>415.9070000</ele>
<time>2008-06-26T10:37:53Z</time>
</trkpt>
<trkpt lat="50.5116390" lon="6.5767900">
<ele>411.5820000</ele>
<time>2008-06-26T10:38:07Z</time>
</trkpt>
<trkpt lat="50.5124180" lon="6.5794840">
<ele>409.6590000</ele>
<time>2008-06-26T10:38:31Z</time>
</trkpt>
<trkpt lat="50.5126090" lon="6.5802260">
<ele>410.1400000</ele>
<time>2008-06-26T10:38:40Z</time>
</trkpt>
<trkpt lat="50.5129300" lon="6.5816650">
<ele>413.5040000</ele>
<time>2008-06-26T10:38:56Z</time>
</trkpt>
<trkpt lat="50.5133850" lon="6.5823250">
<ele>418.3110000</ele>
<time>2008-06-26T10:39:11Z</time>
</trkpt>
<trkpt lat="50.5135130" lon="6.5824140">
<ele>419.2720000</ele>
<time>2008-06-26T10:39:15Z</time>
</trkpt>
<trkpt lat="50.5138660" lon="6.5826490">
<ele>422.6370000</ele>
<time>2008-06-26T10:39:27Z</time>
</trkpt>
<trkpt lat="50.5143250" lon="6.5829470">
<ele>426.4820000</ele>
<time>2008-06-26T10:39:43Z</time>
</trkpt>
<trkpt lat="50.5147750" lon="6.5832530">
<ele>429.8470000</ele>
<time>2008-06-26T10:39:59Z</time>
</trkpt>
<trkpt lat="50.5151160" lon="6.5835010">
<ele>433.2110000</ele>
<time>2008-06-26T10:40:11Z</time>
</trkpt>
<trkpt lat="50.5155450" lon="6.5839200">
<ele>437.0570000</ele>
<time>2008-06-26T10:40:27Z</time>
</trkpt>
<trkpt lat="50.5159390" lon="6.5844010">
<ele>440.9020000</ele>
<time>2008-06-26T10:40:43Z</time>
</trkpt>
<trkpt lat="50.5163190" lon="6.5849230">
<ele>445.2280000</ele>
<time>2008-06-26T10:40:59Z</time>
</trkpt>
<trkpt lat="50.5166720" lon="6.5854590">
<ele>448.5920000</ele>
<time>2008-06-26T10:41:15Z</time>
</trkpt>
<trkpt lat="50.5169330" lon="6.5858890">
<ele>451.9570000</ele>
<time>2008-06-26T10:41:27Z</time>
</trkpt>
<trkpt lat="50.5172720" lon="6.5864860">
<ele>455.8020000</ele>
<time>2008-06-26T10:41:43Z</time>
</trkpt>
<trkpt lat="50.5175920" lon="6.5871140">
<ele>459.6480000</ele>
<time>2008-06-26T10:41:59Z</time>
</trkpt>
<trkpt lat="50.5178170" lon="6.5875980">
<ele>463.0120000</ele>
<time>2008-06-26T10:42:11Z</time>
</trkpt>
<trkpt lat="50.5181050" lon="6.5882450">
<ele>466.8570000</ele>
<time>2008-06-26T10:42:27Z</time>
</trkpt>
<trkpt lat="50.5183760" lon="6.5889200">
<ele>470.7030000</ele>
<time>2008-06-26T10:42:43Z</time>
</trkpt>
<trkpt lat="50.5186230" lon="6.5896280">
<ele>474.0670000</ele>
<time>2008-06-26T10:42:59Z</time>
</trkpt>
<trkpt lat="50.5189010" lon="6.5905660">
<ele>478.3930000</ele>
<time>2008-06-26T10:43:19Z</time>
</trkpt>
<trkpt lat="50.5191570" lon="6.5915720">
<ele>481.7580000</ele>
<time>2008-06-26T10:43:39Z</time>
</trkpt>
<trkpt lat="50.5195310" lon="6.5931150">
<ele>485.6030000</ele>
<time>2008-06-26T10:44:07Z</time>
</trkpt>
<trkpt lat="50.5196140" lon="6.5933470">
<ele>485.6030000</ele>
<time>2008-06-26T10:44:11Z</time>
</trkpt>
<trkpt lat="50.5207460" lon="6.5939980">
<ele>487.5260000</ele>
<time>2008-06-26T10:44:41Z</time>
</trkpt>
<trkpt lat="50.5207810" lon="6.5934770">
<ele>487.5260000</ele>
<time>2008-06-26T10:44:49Z</time>
</trkpt>
<trkpt lat="50.5207390" lon="6.5931750">
<ele>488.0060000</ele>
<time>2008-06-26T10:44:53Z</time>
</trkpt>
<trkpt lat="50.5205360" lon="6.5912460">
<ele>491.8520000</ele>
<time>2008-06-26T10:45:19Z</time>
</trkpt>
<trkpt lat="50.5208170" lon="6.5897510">
<ele>496.1780000</ele>
<time>2008-06-26T10:45:43Z</time>
</trkpt>
<trkpt lat="50.5216340" lon="6.5882240">
<ele>497.1390000</ele>
<time>2008-06-26T10:46:08Z</time>
</trkpt>
<trkpt lat="50.5224650" lon="6.5871300">
<ele>493.7740000</ele>
<time>2008-06-26T10:46:23Z</time>
</trkpt>
<trkpt lat="50.5234260" lon="6.5866360">
<ele>491.8520000</ele>
<time>2008-06-26T10:46:35Z</time>
</trkpt>
<trkpt lat="50.5244060" lon="6.5868000">
<ele>491.3710000</ele>
<time>2008-06-26T10:46:47Z</time>
</trkpt>
<trkpt lat="50.5254050" lon="6.5872660">
<ele>493.7740000</ele>
<time>2008-06-26T10:47:02Z</time>
</trkpt>
<trkpt lat="50.5262710" lon="6.5873450">
<ele>496.1780000</ele>
<time>2008-06-26T10:47:17Z</time>
</trkpt>
<trkpt lat="50.5266250" lon="6.5872060">
<ele>496.6580000</ele>
<time>2008-06-26T10:47:23Z</time>
</trkpt>
<trkpt lat="50.5279420" lon="6.5867970">
<ele>496.1780000</ele>
<time>2008-06-26T10:47:44Z</time>
</trkpt>
<trkpt lat="50.5289470" lon="6.5868210">
<ele>492.8130000</ele>
<time>2008-06-26T10:47:56Z</time>
</trkpt>
<trkpt lat="50.5314080" lon="6.5869530">
<ele>490.8900000</ele>
<time>2008-06-26T10:48:23Z</time>
</trkpt>
<trkpt lat="50.5316820" lon="6.5868220">
<ele>491.3710000</ele>
<time>2008-06-26T10:48:27Z</time>
</trkpt>
<trkpt lat="50.5320150" lon="6.5866610">
<ele>492.3320000</ele>
<time>2008-06-26T10:48:32Z</time>
</trkpt>
<trkpt lat="50.5327290" lon="6.5868180">
<ele>493.2940000</ele>
<time>2008-06-26T10:48:43Z</time>
</trkpt>
<trkpt lat="50.5334460" lon="6.5868190">
<ele>497.1390000</ele>
<time>2008-06-26T10:48:55Z</time>
</trkpt>
<trkpt lat="50.5356160" lon="6.5865610">
<ele>497.1390000</ele>
<time>2008-06-26T10:49:28Z</time>
</trkpt>
<trkpt lat="50.5359270" lon="6.5860360">
<ele>497.1390000</ele>
<time>2008-06-26T10:49:35Z</time>
</trkpt>
<trkpt lat="50.5360160" lon="6.5851520">
<ele>500.9840000</ele>
<time>2008-06-26T10:49:45Z</time>
</trkpt>
<trkpt lat="50.5364030" lon="6.5846570">
<ele>503.3870000</ele>
<time>2008-06-26T10:49:55Z</time>
</trkpt>
<trkpt lat="50.5370790" lon="6.5845760">
<ele>506.7520000</ele>
<time>2008-06-26T10:50:09Z</time>
</trkpt>
<trkpt lat="50.5376120" lon="6.5844220">
<ele>509.1550000</ele>
<time>2008-06-26T10:51:09Z</time>
</trkpt>
<trkpt lat="50.5380700" lon="6.5835640">
<ele>501.4650000</ele>
<time>2008-06-26T10:51:22Z</time>
</trkpt>
<trkpt lat="50.5381390" lon="6.5830750">
<ele>498.1000000</ele>
<time>2008-06-26T10:51:25Z</time>
</trkpt>
<trkpt lat="50.5381600" lon="6.5825760">
<ele>494.7360000</ele>
<time>2008-06-26T10:51:28Z</time>
</trkpt>
<trkpt lat="50.5382190" lon="6.5816780">
<ele>489.4480000</ele>
<time>2008-06-26T10:51:33Z</time>
</trkpt>
<trkpt lat="50.5382810" lon="6.5809070">
<ele>485.1220000</ele>
<time>2008-06-26T10:51:37Z</time>
</trkpt>
<trkpt lat="50.5383280" lon="6.5801170">
<ele>481.2770000</ele>
<time>2008-06-26T10:51:41Z</time>
</trkpt>
<trkpt lat="50.5383460" lon="6.5794990">
<ele>476.9510000</ele>
<time>2008-06-26T10:51:44Z</time>
</trkpt>
<trkpt lat="50.5383470" lon="6.5786510">
<ele>472.1450000</ele>
<time>2008-06-26T10:51:48Z</time>
</trkpt>
<trkpt lat="50.5383460" lon="6.5776010">
<ele>468.2990000</ele>
<time>2008-06-26T10:51:53Z</time>
</trkpt>
<trkpt lat="50.5383760" lon="6.5767680">
<ele>464.9350000</ele>
<time>2008-06-26T10:51:57Z</time>
</trkpt>
<trkpt lat="50.5385000" lon="6.5759470">
<ele>461.0890000</ele>
<time>2008-06-26T10:52:01Z</time>
</trkpt>
<trkpt lat="50.5386680" lon="6.5751270">
<ele>456.2830000</ele>
<time>2008-06-26T10:52:05Z</time>
</trkpt>
<trkpt lat="50.5388120" lon="6.5742710">
<ele>451.9570000</ele>
<time>2008-06-26T10:52:09Z</time>
</trkpt>
<trkpt lat="50.5388800" lon="6.5738740">
<ele>450.0340000</ele>
<time>2008-06-26T10:52:11Z</time>
</trkpt>
<trkpt lat="50.5390530" lon="6.5733070">
<ele>445.2280000</ele>
<time>2008-06-26T10:52:14Z</time>
</trkpt>
<trkpt lat="50.5391310" lon="6.5731310">
<ele>443.3050000</ele>
<time>2008-06-26T10:52:15Z</time>
</trkpt>
<trkpt lat="50.5393720" lon="6.5726320">
<ele>440.9020000</ele>
<time>2008-06-26T10:52:18Z</time>
</trkpt>
<trkpt lat="50.5395090" lon="6.5722650">
<ele>437.5370000</ele>
<time>2008-06-26T10:52:20Z</time>
</trkpt>
<trkpt lat="50.5396220" lon="6.5718590">
<ele>434.1730000</ele>
<time>2008-06-26T10:52:22Z</time>
</trkpt>
<trkpt lat="50.5397240" lon="6.5714110">
<ele>430.8080000</ele>
<time>2008-06-26T10:52:24Z</time>
</trkpt>
<trkpt lat="50.5398230" lon="6.5709700">
<ele>427.4430000</ele>
<time>2008-06-26T10:52:26Z</time>
</trkpt>
<trkpt lat="50.5400280" lon="6.5701070">
<ele>421.1950000</ele>
<time>2008-06-26T10:52:30Z</time>
</trkpt>
<trkpt lat="50.5402480" lon="6.5691170">
<ele>415.4270000</ele>
<time>2008-06-26T10:52:35Z</time>
</trkpt>
<trkpt lat="50.5404340" lon="6.5683600">
<ele>410.1400000</ele>
<time>2008-06-26T10:52:39Z</time>
</trkpt>
<trkpt lat="50.5405540" lon="6.5678210">
<ele>407.2560000</ele>
<time>2008-06-26T10:52:42Z</time>
</trkpt>
<trkpt lat="50.5406170" lon="6.5668530">
<ele>402.4490000</ele>
<time>2008-06-26T10:52:47Z</time>
</trkpt>
<trkpt lat="50.5406500" lon="6.5653600">
<ele>399.0840000</ele>
<time>2008-06-26T10:52:55Z</time>
</trkpt>
<trkpt lat="50.5408390" lon="6.5638920">
<ele>394.2780000</ele>
<time>2008-06-26T10:53:04Z</time>
</trkpt>
<trkpt lat="50.5410360" lon="6.5629630">
<ele>388.9910000</ele>
<time>2008-06-26T10:53:10Z</time>
</trkpt>
<trkpt lat="50.5412110" lon="6.5621710">
<ele>385.1450000</ele>
<time>2008-06-26T10:53:16Z</time>
</trkpt>
<trkpt lat="50.5412330" lon="6.5620800">
<ele>384.6650000</ele>
<time>2008-06-26T10:53:17Z</time>
</trkpt>
<trkpt lat="50.5414090" lon="6.5618450">
<ele>383.7030000</ele>
<time>2008-06-26T10:53:25Z</time>
</trkpt>
<trkpt lat="50.5414540" lon="6.5603690">
<ele>377.4550000</ele>
<time>2008-06-26T10:53:40Z</time>
</trkpt>
<trkpt lat="50.5414240" lon="6.5600260">
<ele>377.4550000</ele>
<time>2008-06-26T10:53:43Z</time>
</trkpt>
<trkpt lat="50.5415960" lon="6.5586020">
<ele>378.8970000</ele>
<time>2008-06-26T10:54:02Z</time>
</trkpt>
<trkpt lat="50.5423590" lon="6.5575290">
<ele>376.0130000</ele>
<time>2008-06-26T11:00:22Z</time>
</trkpt>
<trkpt lat="50.5425240" lon="6.5573100">
<ele>376.0130000</ele>
<time>2008-06-26T11:00:26Z</time>
</trkpt>
<trkpt lat="50.5442620" lon="6.5547910">
<ele>374.5710000</ele>
<time>2008-06-26T11:00:59Z</time>
</trkpt>
<trkpt lat="50.5464290" lon="6.5533300">
<ele>373.6090000</ele>
<time>2008-06-26T11:01:29Z</time>
</trkpt>
<trkpt lat="50.5490900" lon="6.5510670">
<ele>372.1670000</ele>
<time>2008-06-26T11:02:08Z</time>
</trkpt>
<trkpt lat="50.5494190" lon="6.5506130">
<ele>372.1670000</ele>
<time>2008-06-26T11:02:14Z</time>
</trkpt>
<trkpt lat="50.5508570" lon="6.5465140">
<ele>370.2450000</ele>
<time>2008-06-26T11:02:53Z</time>
</trkpt>
<trkpt lat="50.5528130" lon="6.5438420">
<ele>368.3220000</ele>
<time>2008-06-26T11:03:26Z</time>
</trkpt>
<trkpt lat="50.5540550" lon="6.5422910">
<ele>369.2840000</ele>
<time>2008-06-26T11:03:46Z</time>
</trkpt>
<trkpt lat="50.5546680" lon="6.5420360">
<ele>373.6090000</ele>
<time>2008-06-26T11:03:58Z</time>
</trkpt>
<trkpt lat="50.5551780" lon="6.5419370">
<ele>377.4550000</ele>
<time>2008-06-26T11:04:11Z</time>
</trkpt>
<trkpt lat="50.5556450" lon="6.5418490">
<ele>380.8190000</ele>
<time>2008-06-26T11:04:23Z</time>
</trkpt>
<trkpt lat="50.5564980" lon="6.5418400">
<ele>383.7030000</ele>
<time>2008-06-26T11:04:50Z</time>
</trkpt>
<trkpt lat="50.5570990" lon="6.5415610">
<ele>383.2230000</ele>
<time>2008-06-26T11:05:02Z</time>
</trkpt>
<trkpt lat="50.5574510" lon="6.5412450">
<ele>382.7420000</ele>
<time>2008-06-26T11:05:08Z</time>
</trkpt>
<trkpt lat="50.5576490" lon="6.5410580">
<ele>382.2610000</ele>
<time>2008-06-26T11:05:11Z</time>
</trkpt>
<trkpt lat="50.5580850" lon="6.5407500">
<ele>381.3000000</ele>
<time>2008-06-26T11:05:17Z</time>
</trkpt>
<trkpt lat="50.5591430" lon="6.5399540">
<ele>379.8580000</ele>
<time>2008-06-26T11:05:32Z</time>
</trkpt>
<trkpt lat="50.5599500" lon="6.5388860">
<ele>377.4550000</ele>
<time>2008-06-26T11:05:44Z</time>
</trkpt>
<trkpt lat="50.5609780" lon="6.5370610">
<ele>373.1290000</ele>
<time>2008-06-26T11:05:59Z</time>
</trkpt>
<trkpt lat="50.5625590" lon="6.5342110">
<ele>366.4000000</ele>
<time>2008-06-26T11:06:23Z</time>
</trkpt>
<trkpt lat="50.5636110" lon="6.5334380">
<ele>363.5160000</ele>
<time>2008-06-26T11:06:35Z</time>
</trkpt>
<trkpt lat="50.5654510" lon="6.5321030">
<ele>360.1510000</ele>
<time>2008-06-26T11:06:56Z</time>
</trkpt>
<trkpt lat="50.5656970" lon="6.5319040">
<ele>360.1510000</ele>
<time>2008-06-26T11:06:59Z</time>
</trkpt>
<trkpt lat="50.5662560" lon="6.5309650">
<ele>359.1900000</ele>
<time>2008-06-26T11:07:08Z</time>
</trkpt>
<trkpt lat="50.5675050" lon="6.5296590">
<ele>356.7860000</ele>
<time>2008-06-26T11:07:25Z</time>
</trkpt>
<trkpt lat="50.5682740" lon="6.5282300">
<ele>354.8640000</ele>
<time>2008-06-26T11:07:39Z</time>
</trkpt>
<trkpt lat="50.5687580" lon="6.5248440">
<ele>352.4610000</ele>
<time>2008-06-26T11:08:04Z</time>
</trkpt>
<trkpt lat="50.5694970" lon="6.5173830">
<ele>348.6150000</ele>
<time>2008-06-26T11:09:01Z</time>
</trkpt>
<trkpt lat="50.5702190" lon="6.5100870">
<ele>344.2890000</ele>
<time>2008-06-26T11:09:57Z</time>
</trkpt>
<trkpt lat="50.5707640" lon="6.5045640">
<ele>341.8860000</ele>
<time>2008-06-26T11:10:42Z</time>
</trkpt>
<trkpt lat="50.5713390" lon="6.5018490">
<ele>339.4830000</ele>
<time>2008-06-26T11:11:05Z</time>
</trkpt>
<trkpt lat="50.5715140" lon="6.5011280">
<ele>339.4830000</ele>
<time>2008-06-26T11:11:11Z</time>
</trkpt>
<trkpt lat="50.5717240" lon="6.5004610">
<ele>339.0020000</ele>
<time>2008-06-26T11:11:21Z</time>
</trkpt>
<trkpt lat="50.5717670" lon="6.5003310">
<ele>339.0020000</ele>
<time>2008-06-26T11:11:32Z</time>
</trkpt>
<trkpt lat="50.5720310" lon="6.4993740">
<ele>339.0020000</ele>
<time>2008-06-26T11:11:43Z</time>
</trkpt>
<trkpt lat="50.5721160" lon="6.4990850">
<ele>339.9630000</ele>
<time>2008-06-26T11:11:46Z</time>
</trkpt>
<trkpt lat="50.5732150" lon="6.4970590">
<ele>345.2510000</ele>
<time>2008-06-26T11:12:14Z</time>
</trkpt>
<trkpt lat="50.5741240" lon="6.4964040">
<ele>344.2890000</ele>
<time>2008-06-26T11:12:33Z</time>
</trkpt>
<trkpt lat="50.5744430" lon="6.4963510">
<ele>342.3670000</ele>
<time>2008-06-26T11:12:49Z</time>
</trkpt>
<trkpt lat="50.5748250" lon="6.4957390">
<ele>340.4440000</ele>
<time>2008-06-26T11:12:59Z</time>
</trkpt>
<trkpt lat="50.5756290" lon="6.4935320">
<ele>337.0790000</ele>
<time>2008-06-26T11:13:35Z</time>
</trkpt>
<trkpt lat="50.5765460" lon="6.4899090">
<ele>333.7150000</ele>
<time>2008-06-26T11:14:09Z</time>
</trkpt>
<trkpt lat="50.5776090" lon="6.4828060">
<ele>331.7920000</ele>
<time>2008-06-26T11:15:09Z</time>
</trkpt>
<trkpt lat="50.5780130" lon="6.4817800">
<ele>332.2730000</ele>
<time>2008-06-26T11:15:20Z</time>
</trkpt>
<trkpt lat="50.5781520" lon="6.4797600">
<ele>330.3500000</ele>
<time>2008-06-26T11:15:38Z</time>
</trkpt>
<trkpt lat="50.5782090" lon="6.4783310">
<ele>329.8700000</ele>
<time>2008-06-26T11:15:50Z</time>
</trkpt>
<trkpt lat="50.5775480" lon="6.4744130">
<ele>330.8310000</ele>
<time>2008-06-26T11:16:25Z</time>
</trkpt>
<trkpt lat="50.5776360" lon="6.4728180">
<ele>333.2340000</ele>
<time>2008-06-26T11:16:41Z</time>
</trkpt>
<trkpt lat="50.5776360" lon="6.4720900">
<ele>334.1950000</ele>
<time>2008-06-26T11:16:49Z</time>
</trkpt>
<trkpt lat="50.5776220" lon="6.4696130">
<ele>332.2730000</ele>
<time>2008-06-26T11:17:12Z</time>
</trkpt>
<trkpt lat="50.5772770" lon="6.4672250">
<ele>330.3500000</ele>
<time>2008-06-26T11:17:33Z</time>
</trkpt>
<trkpt lat="50.5764940" lon="6.4653170">
<ele>328.4280000</ele>
<time>2008-06-26T11:17:53Z</time>
</trkpt>
<trkpt lat="50.5764470" lon="6.4634990">
<ele>329.8700000</ele>
<time>2008-06-26T11:18:11Z</time>
</trkpt>
<trkpt lat="50.5763150" lon="6.4622900">
<ele>329.8700000</ele>
<time>2008-06-26T11:18:23Z</time>
</trkpt>
<trkpt lat="50.5760950" lon="6.4597840">
<ele>329.3890000</ele>
<time>2008-06-26T11:18:46Z</time>
</trkpt>
<trkpt lat="50.5767430" lon="6.4575870">
<ele>329.3890000</ele>
<time>2008-06-26T11:19:12Z</time>
</trkpt>
<trkpt lat="50.5769060" lon="6.4580560">
<ele>330.3500000</ele>
<time>2008-06-26T11:19:18Z</time>
</trkpt>
<trkpt lat="50.5770510" lon="6.4587890">
<ele>330.8310000</ele>
<time>2008-06-26T11:19:26Z</time>
</trkpt>
<trkpt lat="50.5774620" lon="6.4606230">
<ele>329.8700000</ele>
<time>2008-06-26T11:19:44Z</time>
</trkpt>
<trkpt lat="50.5785150" lon="6.4631950">
<ele>328.9080000</ele>
<time>2008-06-26T11:20:11Z</time>
</trkpt>
<trkpt lat="50.5796800" lon="6.4647230">
<ele>328.9080000</ele>
<time>2008-06-26T11:20:32Z</time>
</trkpt>
<trkpt lat="50.5815440" lon="6.4660530">
<ele>329.3890000</ele>
<time>2008-06-26T11:21:01Z</time>
</trkpt>
<trkpt lat="50.5821350" lon="6.4658020">
<ele>329.3890000</ele>
<time>2008-06-26T11:21:11Z</time>
</trkpt>
<trkpt lat="50.5826670" lon="6.4643210">
<ele>329.8700000</ele>
<time>2008-06-26T11:21:28Z</time>
</trkpt>
<trkpt lat="50.5842620" lon="6.4601610">
<ele>329.8700000</ele>
<time>2008-06-26T11:22:16Z</time>
</trkpt>
<trkpt lat="50.5840770" lon="6.4593180">
<ele>329.8700000</ele>
<time>2008-06-26T11:22:24Z</time>
</trkpt>
<trkpt lat="50.5839010" lon="6.4589560">
<ele>329.8700000</ele>
<time>2008-06-26T11:22:28Z</time>
</trkpt>
<trkpt lat="50.5829590" lon="6.4571860">
<ele>330.3500000</ele>
<time>2008-06-26T11:22:49Z</time>
</trkpt>
<trkpt lat="50.5829020" lon="6.4562870">
<ele>331.3120000</ele>
<time>2008-06-26T11:22:59Z</time>
</trkpt>
<trkpt lat="50.5832450" lon="6.4561120">
<ele>332.2730000</ele>
<time>2008-06-26T11:23:05Z</time>
</trkpt>
<trkpt lat="50.5833090" lon="6.4561160">
<ele>332.2730000</ele>
<time>2008-06-26T11:23:06Z</time>
</trkpt>
<trkpt lat="50.5844050" lon="6.4562690">
<ele>331.7920000</ele>
<time>2008-06-26T11:23:22Z</time>
</trkpt>
<trkpt lat="50.5853060" lon="6.4566970">
<ele>329.8700000</ele>
<time>2008-06-26T11:23:34Z</time>
</trkpt>
<trkpt lat="50.5865540" lon="6.4572130">
<ele>329.8700000</ele>
<time>2008-06-26T11:23:52Z</time>
</trkpt>
<trkpt lat="50.5877450" lon="6.4575490">
<ele>330.3500000</ele>
<time>2008-06-26T11:24:10Z</time>
</trkpt>
<trkpt lat="50.5896910" lon="6.4568050">
<ele>333.2340000</ele>
<time>2008-06-26T11:24:44Z</time>
</trkpt>
<trkpt lat="50.5897980" lon="6.4565110">
<ele>333.2340000</ele>
<time>2008-06-26T11:24:48Z</time>
</trkpt>
<trkpt lat="50.5899330" lon="6.4561400">
<ele>333.2340000</ele>
<time>2008-06-26T11:24:53Z</time>
</trkpt>
<trkpt lat="50.5900520" lon="6.4549430">
<ele>332.7540000</ele>
<time>2008-06-26T11:25:06Z</time>
</trkpt>
<trkpt lat="50.5907280" lon="6.4526390">
<ele>330.8310000</ele>
<time>2008-06-26T11:25:37Z</time>
</trkpt>
<trkpt lat="50.5910490" lon="6.4525290">
<ele>330.8310000</ele>
<time>2008-06-26T11:25:42Z</time>
</trkpt>
<trkpt lat="50.5918370" lon="6.4526980">
<ele>328.9080000</ele>
<time>2008-06-26T11:25:53Z</time>
</trkpt>
<trkpt lat="50.5922690" lon="6.4528310">
<ele>328.9080000</ele>
<time>2008-06-26T11:25:59Z</time>
</trkpt>
<trkpt lat="50.5936280" lon="6.4533870">
<ele>329.3890000</ele>
<time>2008-06-26T11:26:21Z</time>
</trkpt>
<trkpt lat="50.5943540" lon="6.4536650">
<ele>329.8700000</ele>
<time>2008-06-26T11:26:36Z</time>
</trkpt>
<trkpt lat="50.5942650" lon="6.4529970">
<ele>330.3500000</ele>
<time>2008-06-26T11:26:44Z</time>
</trkpt>
<trkpt lat="50.5947070" lon="6.4519310">
<ele>330.8310000</ele>
<time>2008-06-26T11:27:06Z</time>
</trkpt>
<trkpt lat="50.5948790" lon="6.4522170">
<ele>329.3890000</ele>
<time>2008-06-26T11:27:10Z</time>
</trkpt>
<trkpt lat="50.5950120" lon="6.4524450">
<ele>329.8700000</ele>
<time>2008-06-26T11:27:13Z</time>
</trkpt>
<trkpt lat="50.5961520" lon="6.4531310">
<ele>329.3890000</ele>
<time>2008-06-26T11:27:34Z</time>
</trkpt>
<trkpt lat="50.5965410" lon="6.4526560">
<ele>329.3890000</ele>
<time>2008-06-26T11:27:42Z</time>
</trkpt>
<trkpt lat="50.5971790" lon="6.4510520">
<ele>330.3500000</ele>
<time>2008-06-26T11:28:01Z</time>
</trkpt>
<trkpt lat="50.5974860" lon="6.4506210">
<ele>329.8700000</ele>
<time>2008-06-26T11:28:08Z</time>
</trkpt>
<trkpt lat="50.5979570" lon="6.4500220">
<ele>329.8700000</ele>
<time>2008-06-26T11:28:17Z</time>
</trkpt>
<trkpt lat="50.5986110" lon="6.4489350">
<ele>330.3500000</ele>
<time>2008-06-26T11:28:32Z</time>
</trkpt>
<trkpt lat="50.5988340" lon="6.4485350">
<ele>330.3500000</ele>
<time>2008-06-26T11:28:37Z</time>
</trkpt>
<trkpt lat="50.5989310" lon="6.4482780">
<ele>330.3500000</ele>
<time>2008-06-26T11:28:40Z</time>
</trkpt>
<trkpt lat="50.5990520" lon="6.4479180">
<ele>329.8700000</ele>
<time>2008-06-26T11:28:44Z</time>
</trkpt>
<trkpt lat="50.5991200" lon="6.4447050">
<ele>331.7920000</ele>
<time>2008-06-26T11:29:17Z</time>
</trkpt>
<trkpt lat="50.5981070" lon="6.4427950">
<ele>330.8310000</ele>
<time>2008-06-26T11:29:41Z</time>
</trkpt>
<trkpt lat="50.5975750" lon="6.4413040">
<ele>330.3500000</ele>
<time>2008-06-26T11:30:03Z</time>
</trkpt>
<trkpt lat="50.5982900" lon="6.4405230">
<ele>329.3890000</ele>
<time>2008-06-26T11:30:18Z</time>
</trkpt>
<trkpt lat="50.6000500" lon="6.4402780">
<ele>326.5050000</ele>
<time>2008-06-26T11:30:54Z</time>
</trkpt>
<trkpt lat="50.6001190" lon="6.4396780">
<ele>326.5050000</ele>
<time>2008-06-26T11:31:00Z</time>
</trkpt>
<trkpt lat="50.5998560" lon="6.4389460">
<ele>326.9860000</ele>
<time>2008-06-26T11:31:09Z</time>
</trkpt>
<trkpt lat="50.5985670" lon="6.4355780">
<ele>329.3890000</ele>
<time>2008-06-26T11:31:52Z</time>
</trkpt>
<trkpt lat="50.5976150" lon="6.4342370">
<ele>329.8700000</ele>
<time>2008-06-26T11:32:13Z</time>
</trkpt>
<trkpt lat="50.5976230" lon="6.4331450">
<ele>330.8310000</ele>
<time>2008-06-26T11:32:29Z</time>
</trkpt>
<trkpt lat="50.5982290" lon="6.4330420">
<ele>330.8310000</ele>
<time>2008-06-26T11:32:39Z</time>
</trkpt>
<trkpt lat="50.5997930" lon="6.4327730">
<ele>330.8310000</ele>
<time>2008-06-26T11:33:04Z</time>
</trkpt>
<trkpt lat="50.6008810" lon="6.4320280">
<ele>329.8700000</ele>
<time>2008-06-26T11:33:25Z</time>
</trkpt>
<trkpt lat="50.6018530" lon="6.4314310">
<ele>329.3890000</ele>
<time>2008-06-26T11:33:42Z</time>
</trkpt>
<trkpt lat="50.6022500" lon="6.4315890">
<ele>329.3890000</ele>
<time>2008-06-26T11:33:50Z</time>
</trkpt>
<trkpt lat="50.6029810" lon="6.4311010">
<ele>328.9080000</ele>
<time>2008-06-26T11:34:05Z</time>
</trkpt>
<trkpt lat="50.6038290" lon="6.4315000">
<ele>327.9470000</ele>
<time>2008-06-26T11:34:20Z</time>
</trkpt>
<trkpt lat="50.6041690" lon="6.4311620">
<ele>328.4280000</ele>
<time>2008-06-26T11:34:26Z</time>
</trkpt>
<trkpt lat="50.6055580" lon="6.4302070">
<ele>327.9470000</ele>
<time>2008-06-26T11:34:51Z</time>
</trkpt>
<trkpt lat="50.6066710" lon="6.4293910">
<ele>327.4660000</ele>
<time>2008-06-26T11:35:10Z</time>
</trkpt>
<trkpt lat="50.6083290" lon="6.4287350">
<ele>326.5050000</ele>
<time>2008-06-26T11:35:39Z</time>
</trkpt>
<trkpt lat="50.6079240" lon="6.4285380">
<ele>326.5050000</ele>
<time>2008-06-26T11:35:46Z</time>
</trkpt>
<trkpt lat="50.6089210" lon="6.4290380">
<ele>326.5050000</ele>
<time>2008-06-26T11:35:49Z</time>
</trkpt>
<trkpt lat="50.6090970" lon="6.4291220">
<ele>326.5050000</ele>
<time>2008-06-26T11:35:52Z</time>
</trkpt>
<trkpt lat="50.6094400" lon="6.4292590">
<ele>326.5050000</ele>
<time>2008-06-26T11:35:58Z</time>
</trkpt>
<trkpt lat="50.6097270" lon="6.4290930">
<ele>326.0240000</ele>
<time>2008-06-26T11:36:09Z</time>
</trkpt>
<trkpt lat="50.6097010" lon="6.4289320">
<ele>326.5050000</ele>
<time>2008-06-26T11:36:24Z</time>
</trkpt>
<trkpt lat="50.6098750" lon="6.4293040">
<ele>328.4280000</ele>
<time>2008-06-26T11:36:35Z</time>
</trkpt>
<trkpt lat="50.6101640" lon="6.4292300">
<ele>331.3120000</ele>
<time>2008-06-26T11:36:46Z</time>
</trkpt>
<trkpt lat="50.6102340" lon="6.4292050">
<ele>331.3120000</ele>
<time>2008-06-26T11:37:08Z</time>
</trkpt>
<trkpt lat="50.6105110" lon="6.4291990">
<ele>336.1180000</ele>
<time>2008-06-26T11:37:54Z</time>
</trkpt>
<trkpt lat="50.6109270" lon="6.4291170">
<ele>339.4830000</ele>
<time>2008-06-26T11:38:07Z</time>
</trkpt>
<trkpt lat="50.6110060" lon="6.4291770">
<ele>340.4440000</ele>
<time>2008-06-26T11:38:11Z</time>
</trkpt>
<trkpt lat="50.6111120" lon="6.4292570">
<ele>341.4050000</ele>
<time>2008-06-26T11:38:15Z</time>
</trkpt>
<trkpt lat="50.6111590" lon="6.4290080">
<ele>345.2510000</ele>
<time>2008-06-26T11:38:30Z</time>
</trkpt>
<trkpt lat="50.6107980" lon="6.4284800">
<ele>348.6150000</ele>
<time>2008-06-26T11:38:46Z</time>
</trkpt>
<trkpt lat="50.6104090" lon="6.4282070">
<ele>353.4220000</ele>
<time>2008-06-26T11:39:04Z</time>
</trkpt>
<trkpt lat="50.6100650" lon="6.4280210">
<ele>357.7480000</ele>
<time>2008-06-26T11:39:19Z</time>
</trkpt>
<trkpt lat="50.6097580" lon="6.4277350">
<ele>362.0740000</ele>
<time>2008-06-26T11:39:34Z</time>
</trkpt>
<trkpt lat="50.6094920" lon="6.4273010">
<ele>366.4000000</ele>
<time>2008-06-26T11:39:49Z</time>
</trkpt>
<trkpt lat="50.6092480" lon="6.4268240">
<ele>370.2450000</ele>
<time>2008-06-26T11:40:04Z</time>
</trkpt>
<trkpt lat="50.6090160" lon="6.4263810">
<ele>374.5710000</ele>
<time>2008-06-26T11:40:19Z</time>
</trkpt>
<trkpt lat="50.6087340" lon="6.4260270">
<ele>377.9350000</ele>
<time>2008-06-26T11:40:34Z</time>
</trkpt>
<trkpt lat="50.6084220" lon="6.4256330">
<ele>381.7810000</ele>
<time>2008-06-26T11:40:49Z</time>
</trkpt>
<trkpt lat="50.6081520" lon="6.4251860">
<ele>385.6260000</ele>
<time>2008-06-26T11:41:04Z</time>
</trkpt>
<trkpt lat="50.6079690" lon="6.4246290">
<ele>388.9910000</ele>
<time>2008-06-26T11:41:19Z</time>
</trkpt>
<trkpt lat="50.6078380" lon="6.4240680">
<ele>391.8750000</ele>
<time>2008-06-26T11:41:33Z</time>
</trkpt>
<trkpt lat="50.6080120" lon="6.4240440">
<ele>393.7970000</ele>
<time>2008-06-26T11:41:41Z</time>
</trkpt>
<trkpt lat="50.6082840" lon="6.4244560">
<ele>396.2010000</ele>
<time>2008-06-26T11:41:54Z</time>
</trkpt>
<trkpt lat="50.6090360" lon="6.4251260">
<ele>401.9690000</ele>
<time>2008-06-26T11:42:22Z</time>
</trkpt>
<trkpt lat="50.6094460" lon="6.4255470">
<ele>405.8140000</ele>
<time>2008-06-26T11:42:38Z</time>
</trkpt>
<trkpt lat="50.6098510" lon="6.4260650">
<ele>409.1780000</ele>
<time>2008-06-26T11:42:54Z</time>
</trkpt>
<trkpt lat="50.6102540" lon="6.4265050">
<ele>413.0240000</ele>
<time>2008-06-26T11:43:10Z</time>
</trkpt>
<trkpt lat="50.6112040" lon="6.4268150">
<ele>419.2720000</ele>
<time>2008-06-26T11:43:46Z</time>
</trkpt>
<trkpt lat="50.6118240" lon="6.4270550">
<ele>422.6370000</ele>
<time>2008-06-26T11:44:02Z</time>
</trkpt>
<trkpt lat="50.6124120" lon="6.4274560">
<ele>426.4820000</ele>
<time>2008-06-26T11:44:22Z</time>
</trkpt>
<trkpt lat="50.6131810" lon="6.4273650">
<ele>432.2500000</ele>
<time>2008-06-26T11:44:50Z</time>
</trkpt>
<trkpt lat="50.6141490" lon="6.4273680">
<ele>437.0570000</ele>
<time>2008-06-26T11:45:21Z</time>
</trkpt>
<trkpt lat="50.6143130" lon="6.4279690">
<ele>438.4990000</ele>
<time>2008-06-26T11:45:36Z</time>
</trkpt>
<trkpt lat="50.6148150" lon="6.4294560">
<ele>444.7470000</ele>
<time>2008-06-26T11:46:07Z</time>
</trkpt>
<trkpt lat="50.6154280" lon="6.4302070">
<ele>449.5540000</ele>
<time>2008-06-26T11:46:31Z</time>
</trkpt>
<trkpt lat="50.6157230" lon="6.4309310">
<ele>452.9180000</ele>
<time>2008-06-26T11:46:49Z</time>
</trkpt>
<trkpt lat="50.6157120" lon="6.4309620">
<ele>452.9180000</ele>
<time>2008-06-26T11:46:50Z</time>
</trkpt>
<trkpt lat="50.6149170" lon="6.4321630">
<ele>458.6860000</ele>
<time>2008-06-26T11:47:23Z</time>
</trkpt>
<trkpt lat="50.6145540" lon="6.4320640">
<ele>461.0890000</ele>
<time>2008-06-26T11:47:35Z</time>
</trkpt>
<trkpt lat="50.6128410" lon="6.4325130">
<ele>469.2610000</ele>
<time>2008-06-26T11:48:23Z</time>
</trkpt>
<trkpt lat="50.6125070" lon="6.4332340">
<ele>472.1450000</ele>
<time>2008-06-26T11:48:39Z</time>
</trkpt>
<trkpt lat="50.6122130" lon="6.4339500">
<ele>475.5090000</ele>
<time>2008-06-26T11:48:55Z</time>
</trkpt>
<trkpt lat="50.6119810" lon="6.4346450">
<ele>478.8740000</ele>
<time>2008-06-26T11:49:11Z</time>
</trkpt>
<trkpt lat="50.6120040" lon="6.4354500">
<ele>482.2390000</ele>
<time>2008-06-26T11:49:27Z</time>
</trkpt>
<trkpt lat="50.6121050" lon="6.4363500">
<ele>485.6030000</ele>
<time>2008-06-26T11:49:44Z</time>
</trkpt>
<trkpt lat="50.6124170" lon="6.4372580">
<ele>488.9680000</ele>
<time>2008-06-26T11:50:04Z</time>
</trkpt>
<trkpt lat="50.6128360" lon="6.4380550">
<ele>492.3320000</ele>
<time>2008-06-26T11:50:24Z</time>
</trkpt>
<trkpt lat="50.6131760" lon="6.4386970">
<ele>495.6970000</ele>
<time>2008-06-26T11:50:40Z</time>
</trkpt>
<trkpt lat="50.6136480" lon="6.4394280">
<ele>498.1000000</ele>
<time>2008-06-26T11:51:00Z</time>
</trkpt>
<trkpt lat="50.6138110" lon="6.4395100">
<ele>498.5810000</ele>
<time>2008-06-26T11:51:04Z</time>
</trkpt>
<trkpt lat="50.6140510" lon="6.4396320">
<ele>498.5810000</ele>
<time>2008-06-26T11:51:09Z</time>
</trkpt>
<trkpt lat="50.6150110" lon="6.4411180">
<ele>497.6200000</ele>
<time>2008-06-26T11:51:35Z</time>
</trkpt>
<trkpt lat="50.6151540" lon="6.4404740">
<ele>493.2940000</ele>
<time>2008-06-26T11:51:44Z</time>
</trkpt>
<trkpt lat="50.6151650" lon="6.4403490">
<ele>493.2940000</ele>
<time>2008-06-26T11:51:45Z</time>
</trkpt>
<trkpt lat="50.6156740" lon="6.4391810">
<ele>491.3710000</ele>
<time>2008-06-26T11:51:58Z</time>
</trkpt>
<trkpt lat="50.6161520" lon="6.4393120">
<ele>488.9680000</ele>
<time>2008-06-26T11:52:04Z</time>
</trkpt>
<trkpt lat="50.6169500" lon="6.4395770">
<ele>484.1610000</ele>
<time>2008-06-26T11:52:12Z</time>
</trkpt>
<trkpt lat="50.6175090" lon="6.4397410">
<ele>480.7970000</ele>
<time>2008-06-26T11:52:17Z</time>
</trkpt>
<trkpt lat="50.6179940" lon="6.4397550">
<ele>476.4710000</ele>
<time>2008-06-26T11:52:21Z</time>
</trkpt>
<trkpt lat="50.6183760" lon="6.4397340">
<ele>473.1060000</ele>
<time>2008-06-26T11:52:24Z</time>
</trkpt>
<trkpt lat="50.6191650" lon="6.4397030">
<ele>468.7800000</ele>
<time>2008-06-26T11:52:30Z</time>
</trkpt>
<trkpt lat="50.6192950" lon="6.4396870">
<ele>468.7800000</ele>
<time>2008-06-26T11:52:31Z</time>
</trkpt>
<trkpt lat="50.6202680" lon="6.4396480">
<ele>465.4160000</ele>
<time>2008-06-26T11:52:39Z</time>
</trkpt>
<trkpt lat="50.6220370" lon="6.4401400">
<ele>459.6480000</ele>
<time>2008-06-26T11:52:54Z</time>
</trkpt>
<trkpt lat="50.6225860" lon="6.4403080">
<ele>457.7250000</ele>
<time>2008-06-26T11:52:59Z</time>
</trkpt>
<trkpt lat="50.6231360" lon="6.4402520">
<ele>454.3600000</ele>
<time>2008-06-26T11:53:04Z</time>
</trkpt>
<trkpt lat="50.6236150" lon="6.4401070">
<ele>450.9960000</ele>
<time>2008-06-26T11:53:08Z</time>
</trkpt>
<trkpt lat="50.6244780" lon="6.4394520">
<ele>445.2280000</ele>
<time>2008-06-26T11:53:16Z</time>
</trkpt>
<trkpt lat="50.6247960" lon="6.4386230">
<ele>442.3440000</ele>
<time>2008-06-26T11:53:21Z</time>
</trkpt>
<trkpt lat="50.6248530" lon="6.4378610">
<ele>438.9790000</ele>
<time>2008-06-26T11:53:25Z</time>
</trkpt>
<trkpt lat="50.6247660" lon="6.4371200">
<ele>436.0950000</ele>
<time>2008-06-26T11:53:29Z</time>
</trkpt>
<trkpt lat="50.6247230" lon="6.4368180">
<ele>434.6530000</ele>
<time>2008-06-26T11:53:31Z</time>
</trkpt>
<trkpt lat="50.6250070" lon="6.4361490">
<ele>430.8080000</ele>
<time>2008-06-26T11:53:38Z</time>
</trkpt>
<trkpt lat="50.6253390" lon="6.4366750">
<ele>427.9240000</ele>
<time>2008-06-26T11:53:43Z</time>
</trkpt>
<trkpt lat="50.6255470" lon="6.4374590">
<ele>424.5590000</ele>
<time>2008-06-26T11:53:48Z</time>
</trkpt>
<trkpt lat="50.6256830" lon="6.4379490">
<ele>422.6370000</ele>
<time>2008-06-26T11:53:51Z</time>
</trkpt>
<trkpt lat="50.6258100" lon="6.4386570">
<ele>419.2720000</ele>
<time>2008-06-26T11:53:55Z</time>
</trkpt>
<trkpt lat="50.6258180" lon="6.4394100">
<ele>415.9070000</ele>
<time>2008-06-26T11:53:59Z</time>
</trkpt>
<trkpt lat="50.6256540" lon="6.4402690">
<ele>411.5820000</ele>
<time>2008-06-26T11:54:04Z</time>
</trkpt>
<trkpt lat="50.6248490" lon="6.4413620">
<ele>403.4100000</ele>
<time>2008-06-26T11:54:12Z</time>
</trkpt>
<trkpt lat="50.6244460" lon="6.4419000">
<ele>399.5650000</ele>
<time>2008-06-26T11:54:16Z</time>
</trkpt>
<trkpt lat="50.6241210" lon="6.4425170">
<ele>395.2390000</ele>
<time>2008-06-26T11:54:20Z</time>
</trkpt>
<trkpt lat="50.6238340" lon="6.4431900">
<ele>391.3940000</ele>
<time>2008-06-26T11:54:24Z</time>
</trkpt>
<trkpt lat="50.6236250" lon="6.4440930">
<ele>386.5870000</ele>
<time>2008-06-26T11:54:29Z</time>
</trkpt>
<trkpt lat="50.6233260" lon="6.4452440">
<ele>381.7810000</ele>
<time>2008-06-26T11:54:36Z</time>
</trkpt>
<trkpt lat="50.6234940" lon="6.4459530">
<ele>378.4160000</ele>
<time>2008-06-26T11:54:42Z</time>
</trkpt>
<trkpt lat="50.6241340" lon="6.4458170">
<ele>376.4940000</ele>
<time>2008-06-26T11:54:48Z</time>
</trkpt>
<trkpt lat="50.6247270" lon="6.4449880">
<ele>371.2060000</ele>
<time>2008-06-26T11:54:55Z</time>
</trkpt>
<trkpt lat="50.6251760" lon="6.4444750">
<ele>367.3610000</ele>
<time>2008-06-26T11:55:00Z</time>
</trkpt>
<trkpt lat="50.6254690" lon="6.4442180">
<ele>364.4770000</ele>
<time>2008-06-26T11:55:03Z</time>
</trkpt>
<trkpt lat="50.6255690" lon="6.4441390">
<ele>363.9960000</ele>
<time>2008-06-26T11:55:04Z</time>
</trkpt>
<trkpt lat="50.6260200" lon="6.4439700">
<ele>360.1510000</ele>
<time>2008-06-26T11:55:08Z</time>
</trkpt>
<trkpt lat="50.6272230" lon="6.4439150">
<ele>351.9800000</ele>
<time>2008-06-26T11:55:18Z</time>
</trkpt>
<trkpt lat="50.6275630" lon="6.4436300">
<ele>348.1350000</ele>
<time>2008-06-26T11:55:21Z</time>
</trkpt>
<trkpt lat="50.6278920" lon="6.4432640">
<ele>344.7700000</ele>
<time>2008-06-26T11:55:24Z</time>
</trkpt>
<trkpt lat="50.6282890" lon="6.4428470">
<ele>340.4440000</ele>
<time>2008-06-26T11:55:28Z</time>
</trkpt>
<trkpt lat="50.6288760" lon="6.4426010">
<ele>335.1570000</ele>
<time>2008-06-26T11:55:33Z</time>
</trkpt>
<trkpt lat="50.6296250" lon="6.4428010">
<ele>328.9080000</ele>
<time>2008-06-26T11:55:39Z</time>
</trkpt>
<trkpt lat="50.6301070" lon="6.4429950">
<ele>324.5820000</ele>
<time>2008-06-26T11:55:43Z</time>
</trkpt>
<trkpt lat="50.6305830" lon="6.4432710">
<ele>320.7370000</ele>
<time>2008-06-26T11:55:47Z</time>
</trkpt>
<trkpt lat="50.6312600" lon="6.4437890">
<ele>315.4500000</ele>
<time>2008-06-26T11:55:53Z</time>
</trkpt>
<trkpt lat="50.6318090" lon="6.4442200">
<ele>310.1620000</ele>
<time>2008-06-26T11:55:58Z</time>
</trkpt>
<trkpt lat="50.6323050" lon="6.4445530">
<ele>306.7980000</ele>
<time>2008-06-26T11:56:03Z</time>
</trkpt>
<trkpt lat="50.6328130" lon="6.4446400">
<ele>302.9530000</ele>
<time>2008-06-26T11:56:08Z</time>
</trkpt>
<trkpt lat="50.6333770" lon="6.4443800">
<ele>299.5880000</ele>
<time>2008-06-26T11:56:14Z</time>
</trkpt>
<trkpt lat="50.6344050" lon="6.4429400">
<ele>292.3780000</ele>
<time>2008-06-26T11:56:28Z</time>
</trkpt>
<trkpt lat="50.6351510" lon="6.4424340">
<ele>289.0140000</ele>
<time>2008-06-26T11:56:36Z</time>
</trkpt>
<trkpt lat="50.6354380" lon="6.4423000">
<ele>289.0140000</ele>
<time>2008-06-26T11:56:39Z</time>
</trkpt>
<trkpt lat="50.6367590" lon="6.4419000">
<ele>289.4940000</ele>
<time>2008-06-26T11:56:54Z</time>
</trkpt>
<trkpt lat="50.6389080" lon="6.4413870">
<ele>289.0140000</ele>
<time>2008-06-26T11:57:21Z</time>
</trkpt>
<trkpt lat="50.6395550" lon="6.4417250">
<ele>289.9750000</ele>
<time>2008-06-26T11:57:31Z</time>
</trkpt>
<trkpt lat="50.6397380" lon="6.4426050">
<ele>290.4560000</ele>
<time>2008-06-26T11:57:39Z</time>
</trkpt>
<trkpt lat="50.6397690" lon="6.4429500">
<ele>290.9360000</ele>
<time>2008-06-26T11:57:42Z</time>
</trkpt>
<trkpt lat="50.6399460" lon="6.4445190">
<ele>289.4940000</ele>
<time>2008-06-26T11:57:55Z</time>
</trkpt>
<trkpt lat="50.6399160" lon="6.4466520">
<ele>288.5330000</ele>
<time>2008-06-26T11:58:11Z</time>
</trkpt>
<trkpt lat="50.6402380" lon="6.4479760">
<ele>291.8970000</ele>
<time>2008-06-26T11:58:24Z</time>
</trkpt>
<trkpt lat="50.6404710" lon="6.4489170">
<ele>294.7810000</ele>
<time>2008-06-26T11:58:36Z</time>
</trkpt>
<trkpt lat="50.6408210" lon="6.4492220">
<ele>296.2240000</ele>
<time>2008-06-26T11:58:45Z</time>
</trkpt>
<trkpt lat="50.6413820" lon="6.4490070">
<ele>297.6650000</ele>
<time>2008-06-26T11:58:56Z</time>
</trkpt>
<trkpt lat="50.6417500" lon="6.4497920">
<ele>300.0690000</ele>
<time>2008-06-26T11:59:11Z</time>
</trkpt>
<trkpt lat="50.6417260" lon="6.4519060">
<ele>303.9140000</ele>
<time>2008-06-26T11:59:39Z</time>
</trkpt>
<trkpt lat="50.6415250" lon="6.4522600">
<ele>305.3560000</ele>
<time>2008-06-26T11:59:45Z</time>
</trkpt>
<trkpt lat="50.6413820" lon="6.4525150">
<ele>305.8370000</ele>
<time>2008-06-26T11:59:49Z</time>
</trkpt>
<trkpt lat="50.6412600" lon="6.4535170">
<ele>304.8750000</ele>
<time>2008-06-26T12:00:01Z</time>
</trkpt>
<trkpt lat="50.6416270" lon="6.4553500">
<ele>301.5110000</ele>
<time>2008-06-26T12:00:18Z</time>
</trkpt>
<trkpt lat="50.6417220" lon="6.4556140">
<ele>301.0300000</ele>
<time>2008-06-26T12:00:21Z</time>
</trkpt>
<trkpt lat="50.6420310" lon="6.4564220">
<ele>304.8750000</ele>
<time>2008-06-26T12:00:32Z</time>
</trkpt>
<trkpt lat="50.6420670" lon="6.4573310">
<ele>309.2010000</ele>
<time>2008-06-26T12:00:47Z</time>
</trkpt>
<trkpt lat="50.6421980" lon="6.4579120">
<ele>312.5660000</ele>
<time>2008-06-26T12:01:00Z</time>
</trkpt>
<trkpt lat="50.6423320" lon="6.4574560">
<ele>315.4500000</ele>
<time>2008-06-26T12:01:09Z</time>
</trkpt>
<trkpt lat="50.6425350" lon="6.4567790">
<ele>318.8140000</ele>
<time>2008-06-26T12:01:25Z</time>
</trkpt>
<trkpt lat="50.6421250" lon="6.4552790">
<ele>324.1020000</ele>
<time>2008-06-26T12:01:53Z</time>
</trkpt>
<trkpt lat="50.6421600" lon="6.4541270">
<ele>329.3890000</ele>
<time>2008-06-26T12:02:17Z</time>
</trkpt>
<trkpt lat="50.6428130" lon="6.4545160">
<ele>333.7150000</ele>
<time>2008-06-26T12:02:37Z</time>
</trkpt>
<trkpt lat="50.6432740" lon="6.4546950">
<ele>337.5600000</ele>
<time>2008-06-26T12:02:53Z</time>
</trkpt>
<trkpt lat="50.6436370" lon="6.4547830">
<ele>341.8860000</ele>
<time>2008-06-26T12:03:06Z</time>
</trkpt>
<trkpt lat="50.6437460" lon="6.4541830">
<ele>345.7310000</ele>
<time>2008-06-26T12:03:24Z</time>
</trkpt>
<trkpt lat="50.6435840" lon="6.4534820">
<ele>349.0960000</ele>
<time>2008-06-26T12:03:40Z</time>
</trkpt>
<trkpt lat="50.6434380" lon="6.4529780">
<ele>352.4610000</ele>
<time>2008-06-26T12:03:52Z</time>
</trkpt>
<trkpt lat="50.6433200" lon="6.4521970">
<ele>355.8250000</ele>
<time>2008-06-26T12:04:08Z</time>
</trkpt>
<trkpt lat="50.6433040" lon="6.4514000">
<ele>359.1900000</ele>
<time>2008-06-26T12:04:24Z</time>
</trkpt>
<trkpt lat="50.6436390" lon="6.4509670">
<ele>363.5160000</ele>
<time>2008-06-26T12:04:40Z</time>
</trkpt>
<trkpt lat="50.6440570" lon="6.4506340">
<ele>367.3610000</ele>
<time>2008-06-26T12:04:56Z</time>
</trkpt>
<trkpt lat="50.6443070" lon="6.4500200">
<ele>371.2060000</ele>
<time>2008-06-26T12:05:13Z</time>
</trkpt>
<trkpt lat="50.6442850" lon="6.4492500">
<ele>373.6090000</ele>
<time>2008-06-26T12:05:29Z</time>
</trkpt>
<trkpt lat="50.6445450" lon="6.4489280">
<ele>376.4940000</ele>
<time>2008-06-26T12:05:41Z</time>
</trkpt>
<trkpt lat="50.6449260" lon="6.4487720">
<ele>379.8580000</ele>
<time>2008-06-26T12:05:55Z</time>
</trkpt>
<trkpt lat="50.6452690" lon="6.4484330">
<ele>383.2230000</ele>
<time>2008-06-26T12:06:10Z</time>
</trkpt>
<trkpt lat="50.6453640" lon="6.4478340">
<ele>386.1070000</ele>
<time>2008-06-26T12:06:24Z</time>
</trkpt>
<trkpt lat="50.6454520" lon="6.4472620">
<ele>388.0290000</ele>
<time>2008-06-26T12:06:36Z</time>
</trkpt>
<trkpt lat="50.6456200" lon="6.4473190">
<ele>389.9520000</ele>
<time>2008-06-26T12:06:43Z</time>
</trkpt>
<trkpt lat="50.6458790" lon="6.4482910">
<ele>394.7590000</ele>
<time>2008-06-26T12:07:05Z</time>
</trkpt>
<trkpt lat="50.6461200" lon="6.4493950">
<ele>399.5650000</ele>
<time>2008-06-26T12:07:30Z</time>
</trkpt>
<trkpt lat="50.6463470" lon="6.4500260">
<ele>403.4100000</ele>
<time>2008-06-26T12:07:46Z</time>
</trkpt>
<trkpt lat="50.6466650" lon="6.4505890">
<ele>406.7750000</ele>
<time>2008-06-26T12:08:02Z</time>
</trkpt>
<trkpt lat="50.6474640" lon="6.4516190">
<ele>406.7750000</ele>
<time>2008-06-26T12:08:24Z</time>
</trkpt>
<trkpt lat="50.6481880" lon="6.4515290">
<ele>406.2940000</ele>
<time>2008-06-26T12:08:35Z</time>
</trkpt>
<trkpt lat="50.6484090" lon="6.4512890">
<ele>407.7360000</ele>
<time>2008-06-26T12:08:39Z</time>
</trkpt>
<trkpt lat="50.6484620" lon="6.4512310">
<ele>407.7360000</ele>
<time>2008-06-26T12:08:40Z</time>
</trkpt>
<trkpt lat="50.6490940" lon="6.4506640">
<ele>411.5820000</ele>
<time>2008-06-26T12:08:53Z</time>
</trkpt>
<trkpt lat="50.6495880" lon="6.4501860">
<ele>414.9460000</ele>
<time>2008-06-26T12:09:04Z</time>
</trkpt>
<trkpt lat="50.6501530" lon="6.4496340">
<ele>415.9070000</ele>
<time>2008-06-26T12:09:16Z</time>
</trkpt>
<trkpt lat="50.6504950" lon="6.4486510">
<ele>412.5430000</ele>
<time>2008-06-26T12:09:26Z</time>
</trkpt>
<trkpt lat="50.6505980" lon="6.4477920">
<ele>409.1780000</ele>
<time>2008-06-26T12:09:32Z</time>
</trkpt>
<trkpt lat="50.6511330" lon="6.4464170">
<ele>402.9300000</ele>
<time>2008-06-26T12:09:42Z</time>
</trkpt>
<trkpt lat="50.6516710" lon="6.4454910">
<ele>399.0840000</ele>
<time>2008-06-26T12:09:49Z</time>
</trkpt>
<trkpt lat="50.6528210" lon="6.4434130">
<ele>399.5650000</ele>
<time>2008-06-26T12:10:06Z</time>
</trkpt>
<trkpt lat="50.6530100" lon="6.4425220">
<ele>402.4490000</ele>
<time>2008-06-26T12:10:15Z</time>
</trkpt>
<trkpt lat="50.6530200" lon="6.4420010">
<ele>404.8520000</ele>
<time>2008-06-26T12:10:21Z</time>
</trkpt>
<trkpt lat="50.6530230" lon="6.4409850">
<ele>408.2170000</ele>
<time>2008-06-26T12:10:33Z</time>
</trkpt>
<trkpt lat="50.6530380" lon="6.4402740">
<ele>410.1400000</ele>
<time>2008-06-26T12:10:42Z</time>
</trkpt>
<trkpt lat="50.6538140" lon="6.4367370">
<ele>408.2170000</ele>
<time>2008-06-26T12:11:18Z</time>
</trkpt>
<trkpt lat="50.6556730" lon="6.4321760">
<ele>409.1780000</ele>
<time>2008-06-26T12:12:05Z</time>
</trkpt>
<trkpt lat="50.6558030" lon="6.4311330">
<ele>412.5430000</ele>
<time>2008-06-26T12:12:17Z</time>
</trkpt>
<trkpt lat="50.6558130" lon="6.4298750">
<ele>415.9070000</ele>
<time>2008-06-26T12:12:32Z</time>
</trkpt>
<trkpt lat="50.6558140" lon="6.4296250">
<ele>415.9070000</ele>
<time>2008-06-26T12:12:35Z</time>
</trkpt>
<trkpt lat="50.6558190" lon="6.4276530">
<ele>419.2720000</ele>
<time>2008-06-26T12:13:00Z</time>
</trkpt>
<trkpt lat="50.6555320" lon="6.4254000">
<ele>421.1950000</ele>
<time>2008-06-26T12:13:27Z</time>
</trkpt>
<trkpt lat="50.6555550" lon="6.4251350">
<ele>420.7140000</ele>
<time>2008-06-26T12:13:30Z</time>
</trkpt>
<trkpt lat="50.6559250" lon="6.4217940">
<ele>423.1170000</ele>
<time>2008-06-26T12:14:05Z</time>
</trkpt>
<trkpt lat="50.6559530" lon="6.4203320">
<ele>426.4820000</ele>
<time>2008-06-26T12:14:23Z</time>
</trkpt>
<trkpt lat="50.6559570" lon="6.4200950">
<ele>426.9630000</ele>
<time>2008-06-26T12:14:26Z</time>
</trkpt>
<trkpt lat="50.6555990" lon="6.4174080">
<ele>431.2890000</ele>
<time>2008-06-26T12:15:00Z</time>
</trkpt>
<trkpt lat="50.6559930" lon="6.4160000">
<ele>433.6920000</ele>
<time>2008-06-26T12:15:20Z</time>
</trkpt>
<trkpt lat="50.6566370" lon="6.4138380">
<ele>437.5370000</ele>
<time>2008-06-26T12:15:50Z</time>
</trkpt>
<trkpt lat="50.6567700" lon="6.4130010">
<ele>440.9020000</ele>
<time>2008-06-26T12:16:04Z</time>
</trkpt>
<trkpt lat="50.6569910" lon="6.4114490">
<ele>446.6700000</ele>
<time>2008-06-26T12:16:29Z</time>
</trkpt>
<trkpt lat="50.6569450" lon="6.4109820">
<ele>449.0730000</ele>
<time>2008-06-26T12:16:43Z</time>
</trkpt>
<trkpt lat="50.6569770" lon="6.4114500">
<ele>447.1500000</ele>
<time>2008-06-26T12:16:51Z</time>
</trkpt>
<trkpt lat="50.6569790" lon="6.4130890">
<ele>439.9400000</ele>
<time>2008-06-26T12:17:16Z</time>
</trkpt>
<trkpt lat="50.6571690" lon="6.4129810">
<ele>440.9020000</ele>
<time>2008-06-26T12:17:20Z</time>
</trkpt>
<trkpt lat="50.6573650" lon="6.4128760">
<ele>441.3820000</ele>
<time>2008-06-26T12:17:24Z</time>
</trkpt>
<trkpt lat="50.6578090" lon="6.4121970">
<ele>443.7860000</ele>
<time>2008-06-26T12:17:37Z</time>
</trkpt>
<trkpt lat="50.6583030" lon="6.4110660">
<ele>448.5920000</ele>
<time>2008-06-26T12:17:57Z</time>
</trkpt>
<trkpt lat="50.6587420" lon="6.4102920">
<ele>451.9570000</ele>
<time>2008-06-26T12:18:13Z</time>
</trkpt>
<trkpt lat="50.6592700" lon="6.4101070">
<ele>451.9570000</ele>
<time>2008-06-26T12:18:28Z</time>
</trkpt>
<trkpt lat="50.6600170" lon="6.4108490">
<ele>449.0730000</ele>
<time>2008-06-26T12:18:41Z</time>
</trkpt>
<trkpt lat="50.6605630" lon="6.4115040">
<ele>445.2280000</ele>
<time>2008-06-26T12:18:51Z</time>
</trkpt>
<trkpt lat="50.6610260" lon="6.4120300">
<ele>441.3820000</ele>
<time>2008-06-26T12:18:59Z</time>
</trkpt>
<trkpt lat="50.6617860" lon="6.4129530">
<ele>437.5370000</ele>
<time>2008-06-26T12:19:09Z</time>
</trkpt>
<trkpt lat="50.6626490" lon="6.4139630">
<ele>433.6920000</ele>
<time>2008-06-26T12:19:21Z</time>
</trkpt>
<trkpt lat="50.6627640" lon="6.4140860">
<ele>432.2500000</ele>
<time>2008-06-26T12:19:23Z</time>
</trkpt>
<trkpt lat="50.6630650" lon="6.4140740">
<ele>432.2500000</ele>
<time>2008-06-26T12:19:29Z</time>
</trkpt>
<trkpt lat="50.6655720" lon="6.4140280">
<ele>427.4430000</ele>
<time>2008-06-26T12:20:01Z</time>
</trkpt>
<trkpt lat="50.6660660" lon="6.4134080">
<ele>424.5590000</ele>
<time>2008-06-26T12:20:08Z</time>
</trkpt>
<trkpt lat="50.6663790" lon="6.4127370">
<ele>421.1950000</ele>
<time>2008-06-26T12:20:13Z</time>
</trkpt>
<trkpt lat="50.6669080" lon="6.4120390">
<ele>417.8300000</ele>
<time>2008-06-26T12:20:19Z</time>
</trkpt>
<trkpt lat="50.6669930" lon="6.4119170">
<ele>417.3500000</ele>
<time>2008-06-26T12:20:20Z</time>
</trkpt>
<trkpt lat="50.6675280" lon="6.4108640">
<ele>412.0620000</ele>
<time>2008-06-26T12:20:28Z</time>
</trkpt>
<trkpt lat="50.6680860" lon="6.4104960">
<ele>411.5820000</ele>
<time>2008-06-26T12:20:34Z</time>
</trkpt>
<trkpt lat="50.6683760" lon="6.4103060">
<ele>409.6590000</ele>
<time>2008-06-26T12:20:37Z</time>
</trkpt>
<trkpt lat="50.6687960" lon="6.4101340">
<ele>406.2940000</ele>
<time>2008-06-26T12:20:41Z</time>
</trkpt>
<trkpt lat="50.6699660" lon="6.4100220">
<ele>401.9690000</ele>
<time>2008-06-26T12:20:53Z</time>
</trkpt>
<trkpt lat="50.6709120" lon="6.4091430">
<ele>399.5650000</ele>
<time>2008-06-26T12:21:05Z</time>
</trkpt>
<trkpt lat="50.6716390" lon="6.4084770">
<ele>398.1230000</ele>
<time>2008-06-26T12:21:14Z</time>
</trkpt>
<trkpt lat="50.6718110" lon="6.4083730">
<ele>398.1230000</ele>
<time>2008-06-26T12:21:16Z</time>
</trkpt>
<trkpt lat="50.6730320" lon="6.4084600">
<ele>393.7970000</ele>
<time>2008-06-26T12:21:29Z</time>
</trkpt>
<trkpt lat="50.6742430" lon="6.4088900">
<ele>390.4330000</ele>
<time>2008-06-26T12:21:41Z</time>
</trkpt>
<trkpt lat="50.6745220" lon="6.4089750">
<ele>389.9520000</ele>
<time>2008-06-26T12:21:44Z</time>
</trkpt>
<trkpt lat="50.6753420" lon="6.4086550">
<ele>386.5870000</ele>
<time>2008-06-26T12:21:53Z</time>
</trkpt>
<trkpt lat="50.6767100" lon="6.4081020">
<ele>380.8190000</ele>
<time>2008-06-26T12:22:07Z</time>
</trkpt>
<trkpt lat="50.6773080" lon="6.4082830">
<ele>376.4940000</ele>
<time>2008-06-26T12:22:13Z</time>
</trkpt>
<trkpt lat="50.6777980" lon="6.4086620">
<ele>371.6870000</ele>
<time>2008-06-26T12:22:18Z</time>
</trkpt>
<trkpt lat="50.6781940" lon="6.4091290">
<ele>365.9190000</ele>
<time>2008-06-26T12:22:22Z</time>
</trkpt>
<trkpt lat="50.6785970" lon="6.4096210">
<ele>361.1120000</ele>
<time>2008-06-26T12:22:26Z</time>
</trkpt>
<trkpt lat="50.6791370" lon="6.4100750">
<ele>355.8250000</ele>
<time>2008-06-26T12:22:31Z</time>
</trkpt>
<trkpt lat="50.6796060" lon="6.4102600">
<ele>351.0180000</ele>
<time>2008-06-26T12:22:35Z</time>
</trkpt>
<trkpt lat="50.6801010" lon="6.4102610">
<ele>346.2120000</ele>
<time>2008-06-26T12:22:39Z</time>
</trkpt>
<trkpt lat="50.6805930" lon="6.4100690">
<ele>340.9250000</ele>
<time>2008-06-26T12:22:43Z</time>
</trkpt>
<trkpt lat="50.6810480" lon="6.4096900">
<ele>336.1180000</ele>
<time>2008-06-26T12:22:47Z</time>
</trkpt>
<trkpt lat="50.6814290" lon="6.4091550">
<ele>330.3500000</ele>
<time>2008-06-26T12:22:51Z</time>
</trkpt>
<trkpt lat="50.6816020" lon="6.4088390">
<ele>328.4280000</ele>
<time>2008-06-26T12:22:53Z</time>
</trkpt>
<trkpt lat="50.6817720" lon="6.4084980">
<ele>325.0630000</ele>
<time>2008-06-26T12:22:55Z</time>
</trkpt>
<trkpt lat="50.6821000" lon="6.4077940">
<ele>319.7760000</ele>
<time>2008-06-26T12:22:59Z</time>
</trkpt>
<trkpt lat="50.6822540" lon="6.4074640">
<ele>318.3340000</ele>
<time>2008-06-26T12:23:01Z</time>
</trkpt>
<trkpt lat="50.6828780" lon="6.4067770">
<ele>312.5660000</ele>
<time>2008-06-26T12:23:08Z</time>
</trkpt>
<trkpt lat="50.6834920" lon="6.4070880">
<ele>307.2790000</ele>
<time>2008-06-26T12:23:14Z</time>
</trkpt>
<trkpt lat="50.6836950" lon="6.4077340">
<ele>302.9530000</ele>
<time>2008-06-26T12:23:18Z</time>
</trkpt>
<trkpt lat="50.6836220" lon="6.4084890">
<ele>299.5880000</ele>
<time>2008-06-26T12:23:22Z</time>
</trkpt>
<trkpt lat="50.6833590" lon="6.4091920">
<ele>294.7810000</ele>
<time>2008-06-26T12:23:26Z</time>
</trkpt>
<trkpt lat="50.6832020" lon="6.4095350">
<ele>292.8590000</ele>
<time>2008-06-26T12:23:28Z</time>
</trkpt>
<trkpt lat="50.6828790" lon="6.4102480">
<ele>287.0910000</ele>
<time>2008-06-26T12:23:32Z</time>
</trkpt>
<trkpt lat="50.6825290" lon="6.4109860">
<ele>281.3230000</ele>
<time>2008-06-26T12:23:36Z</time>
</trkpt>
<trkpt lat="50.6821930" lon="6.4117350">
<ele>275.5550000</ele>
<time>2008-06-26T12:23:40Z</time>
</trkpt>
<trkpt lat="50.6818610" lon="6.4124610">
<ele>270.7480000</ele>
<time>2008-06-26T12:23:44Z</time>
</trkpt>
<trkpt lat="50.6815560" lon="6.4131220">
<ele>265.9420000</ele>
<time>2008-06-26T12:23:48Z</time>
</trkpt>
<trkpt lat="50.6812860" lon="6.4137180">
<ele>262.5770000</ele>
<time>2008-06-26T12:23:52Z</time>
</trkpt>
<trkpt lat="50.6812340" lon="6.4144310">
<ele>258.7320000</ele>
<time>2008-06-26T12:23:57Z</time>
</trkpt>
<trkpt lat="50.6815100" lon="6.4146280">
<ele>256.3290000</ele>
<time>2008-06-26T12:24:00Z</time>
</trkpt>
<trkpt lat="50.6818640" lon="6.4143550">
<ele>253.4450000</ele>
<time>2008-06-26T12:24:04Z</time>
</trkpt>
<trkpt lat="50.6821640" lon="6.4138780">
<ele>252.0030000</ele>
<time>2008-06-26T12:24:08Z</time>
</trkpt>
<trkpt lat="50.6835250" lon="6.4117460">
<ele>248.6380000</ele>
<time>2008-06-26T12:24:26Z</time>
</trkpt>
<trkpt lat="50.6859450" lon="6.4079420">
<ele>245.7540000</ele>
<time>2008-06-26T12:25:04Z</time>
</trkpt>
<trkpt lat="50.6871010" lon="6.4068980">
<ele>239.9860000</ele>
<time>2008-06-26T12:25:18Z</time>
</trkpt>
<trkpt lat="50.6876560" lon="6.4067760">
<ele>236.1410000</ele>
<time>2008-06-26T12:25:23Z</time>
</trkpt>
<trkpt lat="50.6887260" lon="6.4059960">
<ele>234.6990000</ele>
<time>2008-06-26T12:25:38Z</time>
</trkpt>
<trkpt lat="50.6883790" lon="6.4051330">
<ele>235.1800000</ele>
<time>2008-06-26T12:25:46Z</time>
</trkpt>
<trkpt lat="50.6873120" lon="6.4035540">
<ele>237.1020000</ele>
<time>2008-06-26T12:26:07Z</time>
</trkpt>
<trkpt lat="50.6858890" lon="6.4001390">
<ele>241.9090000</ele>
<time>2008-06-26T12:26:51Z</time>
</trkpt>
<trkpt lat="50.6862730" lon="6.3980610">
<ele>245.7540000</ele>
<time>2008-06-26T12:27:16Z</time>
</trkpt>
<trkpt lat="50.6862070" lon="6.3965940">
<ele>248.6380000</ele>
<time>2008-06-26T12:27:34Z</time>
</trkpt>
<trkpt lat="50.6858850" lon="6.3952010">
<ele>250.5610000</ele>
<time>2008-06-26T12:27:53Z</time>
</trkpt>
<trkpt lat="50.6854550" lon="6.3939280">
<ele>253.9250000</ele>
<time>2008-06-26T12:28:13Z</time>
</trkpt>
<trkpt lat="50.6852880" lon="6.3933370">
<ele>257.2900000</ele>
<time>2008-06-26T12:28:25Z</time>
</trkpt>
<trkpt lat="50.6855600" lon="6.3928190">
<ele>262.0970000</ele>
<time>2008-06-26T12:28:44Z</time>
</trkpt>
<trkpt lat="50.6857970" lon="6.3931150">
<ele>265.4610000</ele>
<time>2008-06-26T12:28:56Z</time>
</trkpt>
<trkpt lat="50.6858850" lon="6.3940130">
<ele>271.2290000</ele>
<time>2008-06-26T12:29:19Z</time>
</trkpt>
<trkpt lat="50.6861180" lon="6.3947600">
<ele>275.0740000</ele>
<time>2008-06-26T12:29:39Z</time>
</trkpt>
<trkpt lat="50.6866190" lon="6.3948890">
<ele>279.4000000</ele>
<time>2008-06-26T12:30:01Z</time>
</trkpt>
<trkpt lat="50.6866330" lon="6.3946970">
<ele>279.4000000</ele>
<time>2008-06-26T12:30:05Z</time>
</trkpt>
<trkpt lat="50.6863830" lon="6.3942730">
<ele>281.8040000</ele>
<time>2008-06-26T12:30:17Z</time>
</trkpt>
<trkpt lat="50.6862130" lon="6.3934780">
<ele>286.1300000</ele>
<time>2008-06-26T12:30:37Z</time>
</trkpt>
<trkpt lat="50.6864750" lon="6.3926810">
<ele>290.4560000</ele>
<time>2008-06-26T12:30:57Z</time>
</trkpt>
<trkpt lat="50.6863730" lon="6.3921070">
<ele>293.8200000</ele>
<time>2008-06-26T12:31:11Z</time>
</trkpt>
<trkpt lat="50.6861230" lon="6.3916200">
<ele>297.1850000</ele>
<time>2008-06-26T12:31:26Z</time>
</trkpt>
<trkpt lat="50.6859550" lon="6.3910510">
<ele>300.5490000</ele>
<time>2008-06-26T12:31:41Z</time>
</trkpt>
<trkpt lat="50.6860380" lon="6.3902270">
<ele>303.9140000</ele>
<time>2008-06-26T12:32:00Z</time>
</trkpt>
<trkpt lat="50.6859190" lon="6.3893220">
<ele>307.2790000</ele>
<time>2008-06-26T12:32:24Z</time>
</trkpt>
<trkpt lat="50.6855770" lon="6.3895680">
<ele>309.2010000</ele>
<time>2008-06-26T12:32:36Z</time>
</trkpt>
<trkpt lat="50.6850250" lon="6.3904500">
<ele>313.5270000</ele>
<time>2008-06-26T12:33:00Z</time>
</trkpt>
<trkpt lat="50.6845600" lon="6.3906740">
<ele>316.8920000</ele>
<time>2008-06-26T12:33:16Z</time>
</trkpt>
<trkpt lat="50.6840520" lon="6.3906510">
<ele>320.7370000</ele>
<time>2008-06-26T12:33:32Z</time>
</trkpt>
<trkpt lat="50.6835340" lon="6.3905800">
<ele>324.1020000</ele>
<time>2008-06-26T12:33:48Z</time>
</trkpt>
<trkpt lat="50.6830310" lon="6.3899670">
<ele>328.4280000</ele>
<time>2008-06-26T12:34:12Z</time>
</trkpt>
<trkpt lat="50.6832690" lon="6.3898590">
<ele>329.3890000</ele>
<time>2008-06-26T12:34:20Z</time>
</trkpt>
<trkpt lat="50.6835100" lon="6.3900150">
<ele>331.3120000</ele>
<time>2008-06-26T12:34:28Z</time>
</trkpt>
<trkpt lat="50.6839750" lon="6.3902750">
<ele>334.6760000</ele>
<time>2008-06-26T12:34:44Z</time>
</trkpt>
<trkpt lat="50.6844250" lon="6.3899970">
<ele>337.5600000</ele>
<time>2008-06-26T12:35:00Z</time>
</trkpt>
<trkpt lat="50.6847950" lon="6.3894480">
<ele>340.9250000</ele>
<time>2008-06-26T12:35:16Z</time>
</trkpt>
<trkpt lat="50.6851580" lon="6.3889230">
<ele>344.7700000</ele>
<time>2008-06-26T12:35:32Z</time>
</trkpt>
<trkpt lat="50.6856250" lon="6.3883660">
<ele>349.0960000</ele>
<time>2008-06-26T12:35:52Z</time>
</trkpt>
<trkpt lat="50.6861770" lon="6.3880810">
<ele>352.9410000</ele>
<time>2008-06-26T12:36:12Z</time>
</trkpt>
<trkpt lat="50.6866150" lon="6.3878760">
<ele>356.7860000</ele>
<time>2008-06-26T12:36:28Z</time>
</trkpt>
<trkpt lat="50.6870710" lon="6.3876620">
<ele>360.6320000</ele>
<time>2008-06-26T12:36:45Z</time>
</trkpt>
<trkpt lat="50.6873720" lon="6.3874340">
<ele>363.9960000</ele>
<time>2008-06-26T12:36:57Z</time>
</trkpt>
<trkpt lat="50.6876930" lon="6.3869310">
<ele>367.3610000</ele>
<time>2008-06-26T12:37:13Z</time>
</trkpt>
<trkpt lat="50.6878670" lon="6.3863900">
<ele>370.7260000</ele>
<time>2008-06-26T12:37:28Z</time>
</trkpt>
<trkpt lat="50.6880350" lon="6.3858500">
<ele>374.0900000</ele>
<time>2008-06-26T12:37:43Z</time>
</trkpt>
<trkpt lat="50.6883550" lon="6.3855850">
<ele>377.4550000</ele>
<time>2008-06-26T12:37:58Z</time>
</trkpt>
<trkpt lat="50.6885890" lon="6.3857020">
<ele>380.8190000</ele>
<time>2008-06-26T12:38:08Z</time>
</trkpt>
<trkpt lat="50.6888360" lon="6.3861430">
<ele>384.1840000</ele>
<time>2008-06-26T12:38:23Z</time>
</trkpt>
<trkpt lat="50.6890900" lon="6.3865200">
<ele>387.5490000</ele>
<time>2008-06-26T12:38:37Z</time>
</trkpt>
<trkpt lat="50.6894380" lon="6.3863580">
<ele>390.4330000</ele>
<time>2008-06-26T12:38:52Z</time>
</trkpt>
<trkpt lat="50.6894760" lon="6.3855920">
<ele>392.8360000</ele>
<time>2008-06-26T12:39:12Z</time>
</trkpt>
<trkpt lat="50.6890810" lon="6.3845760">
<ele>394.7590000</ele>
<time>2008-06-26T12:39:32Z</time>
</trkpt>
<trkpt lat="50.6888280" lon="6.3838520">
<ele>398.1230000</ele>
<time>2008-06-26T12:39:48Z</time>
</trkpt>
<trkpt lat="50.6884990" lon="6.3832330">
<ele>401.4880000</ele>
<time>2008-06-26T12:40:05Z</time>
</trkpt>
<trkpt lat="50.6880290" lon="6.3825900">
<ele>404.8520000</ele>
<time>2008-06-26T12:40:25Z</time>
</trkpt>
<trkpt lat="50.6874170" lon="6.3817550">
<ele>408.2170000</ele>
<time>2008-06-26T12:40:49Z</time>
</trkpt>
<trkpt lat="50.6872820" lon="6.3810210">
<ele>411.5820000</ele>
<time>2008-06-26T12:41:05Z</time>
</trkpt>
<trkpt lat="50.6870370" lon="6.3801230">
<ele>415.4270000</ele>
<time>2008-06-26T12:41:25Z</time>
</trkpt>
<trkpt lat="50.6866080" lon="6.3790060">
<ele>417.8300000</ele>
<time>2008-06-26T12:41:49Z</time>
</trkpt>
<trkpt lat="50.6860870" lon="6.3776600">
<ele>417.3500000</ele>
<time>2008-06-26T12:42:10Z</time>
</trkpt>
<trkpt lat="50.6857090" lon="6.3758580">
<ele>417.8300000</ele>
<time>2008-06-26T12:42:32Z</time>
</trkpt>
<trkpt lat="50.6865990" lon="6.3731590">
<ele>413.0240000</ele>
<time>2008-06-26T12:43:14Z</time>
</trkpt>
<trkpt lat="50.6869320" lon="6.3720540">
<ele>411.1010000</ele>
<time>2008-06-26T12:43:25Z</time>
</trkpt>
<trkpt lat="50.6871980" lon="6.3679940">
<ele>409.6590000</ele>
<time>2008-06-26T12:44:02Z</time>
</trkpt>
<trkpt lat="50.6874480" lon="6.3671520">
<ele>404.3720000</ele>
<time>2008-06-26T12:44:09Z</time>
</trkpt>
<trkpt lat="50.6876860" lon="6.3664150">
<ele>401.0070000</ele>
<time>2008-06-26T12:44:14Z</time>
</trkpt>
<trkpt lat="50.6879610" lon="6.3655570">
<ele>401.4880000</ele>
<time>2008-06-26T12:44:20Z</time>
</trkpt>
<trkpt lat="50.6880310" lon="6.3645530">
<ele>405.8140000</ele>
<time>2008-06-26T12:44:30Z</time>
</trkpt>
<trkpt lat="50.6880330" lon="6.3637620">
<ele>409.1780000</ele>
<time>2008-06-26T12:44:43Z</time>
</trkpt>
<trkpt lat="50.6881160" lon="6.3628900">
<ele>412.5430000</ele>
<time>2008-06-26T12:44:59Z</time>
</trkpt>
<trkpt lat="50.6884170" lon="6.3624850">
<ele>414.9460000</ele>
<time>2008-06-26T12:45:11Z</time>
</trkpt>
<trkpt lat="50.6889530" lon="6.3625060">
<ele>417.3500000</ele>
<time>2008-06-26T12:45:27Z</time>
</trkpt>
<trkpt lat="50.6894790" lon="6.3627540">
<ele>420.7140000</ele>
<time>2008-06-26T12:45:43Z</time>
</trkpt>
<trkpt lat="50.6899530" lon="6.3631310">
<ele>424.0790000</ele>
<time>2008-06-26T12:45:59Z</time>
</trkpt>
<trkpt lat="50.6905020" lon="6.3634250">
<ele>426.9630000</ele>
<time>2008-06-26T12:46:26Z</time>
</trkpt>
<trkpt lat="50.6904620" lon="6.3634240">
<ele>426.9630000</ele>
<time>2008-06-26T12:47:59Z</time>
</trkpt>
<trkpt lat="50.6904850" lon="6.3632850">
<ele>427.4430000</ele>
<time>2008-06-26T12:50:18Z</time>
</trkpt>
<trkpt lat="50.6907270" lon="6.3630160">
<ele>428.4050000</ele>
<time>2008-06-26T12:50:27Z</time>
</trkpt>
<trkpt lat="50.6915310" lon="6.3617100">
<ele>432.2500000</ele>
<time>2008-06-26T12:50:55Z</time>
</trkpt>
<trkpt lat="50.6920800" lon="6.3595970">
<ele>434.6530000</ele>
<time>2008-06-26T12:51:27Z</time>
</trkpt>
<trkpt lat="50.6925090" lon="6.3577410">
<ele>437.5370000</ele>
<time>2008-06-26T12:51:54Z</time>
</trkpt>
<trkpt lat="50.6921910" lon="6.3573030">
<ele>437.5370000</ele>
<time>2008-06-26T12:52:04Z</time>
</trkpt>
<trkpt lat="50.6920550" lon="6.3571780">
<ele>438.0180000</ele>
<time>2008-06-26T12:52:07Z</time>
</trkpt>
<trkpt lat="50.6908200" lon="6.3559410">
<ele>441.3820000</ele>
<time>2008-06-26T12:52:34Z</time>
</trkpt>
<trkpt lat="50.6877050" lon="6.3527850">
<ele>447.6310000</ele>
<time>2008-06-26T12:53:37Z</time>
</trkpt>
<trkpt lat="50.6823570" lon="6.3470550">
<ele>448.5920000</ele>
<time>2008-06-26T12:55:19Z</time>
</trkpt>
<trkpt lat="50.6811820" lon="6.3466630">
<ele>449.5540000</ele>
<time>2008-06-26T12:55:38Z</time>
</trkpt>
<trkpt lat="50.6804280" lon="6.3465690">
<ele>452.9180000</ele>
<time>2008-06-26T12:55:52Z</time>
</trkpt>
<trkpt lat="50.6802790" lon="6.3465480">
<ele>452.9180000</ele>
<time>2008-06-26T12:55:55Z</time>
</trkpt>
<trkpt lat="50.6793670" lon="6.3464450">
<ele>456.7640000</ele>
<time>2008-06-26T12:56:15Z</time>
</trkpt>
<trkpt lat="50.6784040" lon="6.3461630">
<ele>461.5700000</ele>
<time>2008-06-26T12:56:40Z</time>
</trkpt>
<trkpt lat="50.6775940" lon="6.3461040">
<ele>465.4160000</ele>
<time>2008-06-26T12:57:00Z</time>
</trkpt>
<trkpt lat="50.6765580" lon="6.3460240">
<ele>468.7800000</ele>
<time>2008-06-26T12:57:24Z</time>
</trkpt>
<trkpt lat="50.6751760" lon="6.3459580">
<ele>472.1450000</ele>
<time>2008-06-26T12:57:54Z</time>
</trkpt>
<trkpt lat="50.6741100" lon="6.3459150">
<ele>475.5090000</ele>
<time>2008-06-26T12:58:18Z</time>
</trkpt>
<trkpt lat="50.6730350" lon="6.3458590">
<ele>478.8740000</ele>
<time>2008-06-26T12:58:42Z</time>
</trkpt>
<trkpt lat="50.6729030" lon="6.3458340">
<ele>479.8350000</ele>
<time>2008-06-26T12:58:45Z</time>
</trkpt>
<trkpt lat="50.6712990" lon="6.3447930">
<ele>483.2000000</ele>
<time>2008-06-26T12:59:20Z</time>
</trkpt>
<trkpt lat="50.6701110" lon="6.3439780">
<ele>484.1610000</ele>
<time>2008-06-26T12:59:44Z</time>
</trkpt>
<trkpt lat="50.6696840" lon="6.3434830">
<ele>484.1610000</ele>
<time>2008-06-26T12:59:53Z</time>
</trkpt>
<trkpt lat="50.6683890" lon="6.3414910">
<ele>484.6420000</ele>
<time>2008-06-26T13:00:23Z</time>
</trkpt>
<trkpt lat="50.6656290" lon="6.3371510">
<ele>483.2000000</ele>
<time>2008-06-26T13:01:23Z</time>
</trkpt>
<trkpt lat="50.6651630" lon="6.3358310">
<ele>478.8740000</ele>
<time>2008-06-26T13:01:35Z</time>
</trkpt>
<trkpt lat="50.6651670" lon="6.3348140">
<ele>474.5480000</ele>
<time>2008-06-26T13:01:42Z</time>
</trkpt>
<trkpt lat="50.6652010" lon="6.3346720">
<ele>474.5480000</ele>
<time>2008-06-26T13:01:43Z</time>
</trkpt>
<trkpt lat="50.6660860" lon="6.3329620">
<ele>478.8740000</ele>
<time>2008-06-26T13:02:02Z</time>
</trkpt>
<trkpt lat="50.6665670" lon="6.3321760">
<ele>482.2390000</ele>
<time>2008-06-26T13:02:14Z</time>
</trkpt>
<trkpt lat="50.6688670" lon="6.3283790">
<ele>475.5090000</ele>
<time>2008-06-26T13:03:02Z</time>
</trkpt>
<trkpt lat="50.6712660" lon="6.3243820">
<ele>472.1450000</ele>
<time>2008-06-26T13:03:45Z</time>
</trkpt>
<trkpt lat="50.6714010" lon="6.3238590">
<ele>472.6250000</ele>
<time>2008-06-26T13:03:50Z</time>
</trkpt>
<trkpt lat="50.6715050" lon="6.3224430">
<ele>475.9900000</ele>
<time>2008-06-26T13:04:06Z</time>
</trkpt>
<trkpt lat="50.6715200" lon="6.3222040">
<ele>475.9900000</ele>
<time>2008-06-26T13:04:09Z</time>
</trkpt>
<trkpt lat="50.6715890" lon="6.3212880">
<ele>479.3540000</ele>
<time>2008-06-26T13:04:21Z</time>
</trkpt>
<trkpt lat="50.6716290" lon="6.3207190">
<ele>480.3160000</ele>
<time>2008-06-26T13:04:29Z</time>
</trkpt>
<trkpt lat="50.6713910" lon="6.3182270">
<ele>483.6800000</ele>
<time>2008-06-26T13:05:04Z</time>
</trkpt>
<trkpt lat="50.6714180" lon="6.3175230">
<ele>487.0450000</ele>
<time>2008-06-26T13:05:16Z</time>
</trkpt>
<trkpt lat="50.6715470" lon="6.3167710">
<ele>488.4870000</ele>
<time>2008-06-26T13:05:28Z</time>
</trkpt>
<trkpt lat="50.6717530" lon="6.3157400">
<ele>491.8520000</ele>
<time>2008-06-26T13:05:44Z</time>
</trkpt>
<trkpt lat="50.6720050" lon="6.3143970">
<ele>495.2160000</ele>
<time>2008-06-26T13:06:08Z</time>
</trkpt>
<trkpt lat="50.6721640" lon="6.3135680">
<ele>499.0620000</ele>
<time>2008-06-26T13:06:24Z</time>
</trkpt>
<trkpt lat="50.6724240" lon="6.3121900">
<ele>504.8290000</ele>
<time>2008-06-26T13:06:52Z</time>
</trkpt>
<trkpt lat="50.6726670" lon="6.3112650">
<ele>508.6750000</ele>
<time>2008-06-26T13:07:12Z</time>
</trkpt>
<trkpt lat="50.6729260" lon="6.3103870">
<ele>512.5200000</ele>
<time>2008-06-26T13:07:32Z</time>
</trkpt>
<trkpt lat="50.6734250" lon="6.3092210">
<ele>518.2880000</ele>
<time>2008-06-26T13:08:00Z</time>
</trkpt>
<trkpt lat="50.6739430" lon="6.3086420">
<ele>522.1330000</ele>
<time>2008-06-26T13:08:20Z</time>
</trkpt>
<trkpt lat="50.6743820" lon="6.3081930">
<ele>525.4980000</ele>
<time>2008-06-26T13:08:36Z</time>
</trkpt>
<trkpt lat="50.6755420" lon="6.3070040">
<ele>525.0170000</ele>
<time>2008-06-26T13:09:07Z</time>
</trkpt>
<trkpt lat="50.6767000" lon="6.3063330">
<ele>518.7690000</ele>
<time>2008-06-26T13:09:22Z</time>
</trkpt>
<trkpt lat="50.6774540" lon="6.3060700">
<ele>515.4040000</ele>
<time>2008-06-26T13:09:30Z</time>
</trkpt>
<trkpt lat="50.6781280" lon="6.3059730">
<ele>510.5970000</ele>
<time>2008-06-26T13:09:36Z</time>
</trkpt>
<trkpt lat="50.6782450" lon="6.3059570">
<ele>510.5970000</ele>
<time>2008-06-26T13:09:37Z</time>
</trkpt>
<trkpt lat="50.6788390" lon="6.3058760">
<ele>506.7520000</ele>
<time>2008-06-26T13:09:42Z</time>
</trkpt>
<trkpt lat="50.6793210" lon="6.3058040">
<ele>503.3870000</ele>
<time>2008-06-26T13:09:46Z</time>
</trkpt>
<trkpt lat="50.6801960" lon="6.3052570">
<ele>498.5810000</ele>
<time>2008-06-26T13:09:54Z</time>
</trkpt>
<trkpt lat="50.6805310" lon="6.3045200">
<ele>495.2160000</ele>
<time>2008-06-26T13:09:59Z</time>
</trkpt>
<trkpt lat="50.6806860" lon="6.3038120">
<ele>492.8130000</ele>
<time>2008-06-26T13:10:03Z</time>
</trkpt>
<trkpt lat="50.6808890" lon="6.3027260">
<ele>488.9680000</ele>
<time>2008-06-26T13:10:09Z</time>
</trkpt>
<trkpt lat="50.6810060" lon="6.3021110">
<ele>487.0450000</ele>
<time>2008-06-26T13:10:13Z</time>
</trkpt>
<trkpt lat="50.6814380" lon="6.3014700">
<ele>483.6800000</ele>
<time>2008-06-26T13:10:20Z</time>
</trkpt>
<trkpt lat="50.6819130" lon="6.3017160">
<ele>480.7970000</ele>
<time>2008-06-26T13:10:25Z</time>
</trkpt>
<trkpt lat="50.6829200" lon="6.3025580">
<ele>474.5480000</ele>
<time>2008-06-26T13:10:35Z</time>
</trkpt>
<trkpt lat="50.6830360" lon="6.3026150">
<ele>474.5480000</ele>
<time>2008-06-26T13:10:36Z</time>
</trkpt>
<trkpt lat="50.6837530" lon="6.3028360">
<ele>470.7030000</ele>
<time>2008-06-26T13:10:42Z</time>
</trkpt>
<trkpt lat="50.6846290" lon="6.3028320">
<ele>465.4160000</ele>
<time>2008-06-26T13:10:49Z</time>
</trkpt>
<trkpt lat="50.6854680" lon="6.3024370">
<ele>459.1670000</ele>
<time>2008-06-26T13:10:56Z</time>
</trkpt>
<trkpt lat="50.6865580" lon="6.3019680">
<ele>452.4380000</ele>
<time>2008-06-26T13:11:05Z</time>
</trkpt>
<trkpt lat="50.6868100" lon="6.3019770">
<ele>450.9960000</ele>
<time>2008-06-26T13:11:07Z</time>
</trkpt>
<trkpt lat="50.6875930" lon="6.3020190">
<ele>446.6700000</ele>
<time>2008-06-26T13:11:13Z</time>
</trkpt>
<trkpt lat="50.6881150" lon="6.3019470">
<ele>442.8240000</ele>
<time>2008-06-26T13:11:17Z</time>
</trkpt>
<trkpt lat="50.6888910" lon="6.3017760">
<ele>438.0180000</ele>
<time>2008-06-26T13:11:23Z</time>
</trkpt>
<trkpt lat="50.6895360" lon="6.3016730">
<ele>434.1730000</ele>
<time>2008-06-26T13:11:28Z</time>
</trkpt>
<trkpt lat="50.6901580" lon="6.3017860">
<ele>430.3270000</ele>
<time>2008-06-26T13:11:33Z</time>
</trkpt>
<trkpt lat="50.6903990" lon="6.3019020">
<ele>429.3660000</ele>
<time>2008-06-26T13:11:35Z</time>
</trkpt>
<trkpt lat="50.6906310" lon="6.3019940">
<ele>427.4430000</ele>
<time>2008-06-26T13:11:37Z</time>
</trkpt>
<trkpt lat="50.6915190" lon="6.3020900">
<ele>421.6750000</ele>
<time>2008-06-26T13:11:44Z</time>
</trkpt>
<trkpt lat="50.6922440" lon="6.3018670">
<ele>417.3500000</ele>
<time>2008-06-26T13:11:50Z</time>
</trkpt>
<trkpt lat="50.6933390" lon="6.3010190">
<ele>411.1010000</ele>
<time>2008-06-26T13:12:00Z</time>
</trkpt>
<trkpt lat="50.6939430" lon="6.3003780">
<ele>407.7360000</ele>
<time>2008-06-26T13:12:06Z</time>
</trkpt>
<trkpt lat="50.6949490" lon="6.2983920">
<ele>401.0070000</ele>
<time>2008-06-26T13:12:20Z</time>
</trkpt>
<trkpt lat="50.6947820" lon="6.2973090">
<ele>397.6420000</ele>
<time>2008-06-26T13:12:26Z</time>
</trkpt>
<trkpt lat="50.6946130" lon="6.2968080">
<ele>396.2010000</ele>
<time>2008-06-26T13:12:29Z</time>
</trkpt>
<trkpt lat="50.6943650" lon="6.2961310">
<ele>393.3170000</ele>
<time>2008-06-26T13:12:33Z</time>
</trkpt>
<trkpt lat="50.6941540" lon="6.2948560">
<ele>389.4710000</ele>
<time>2008-06-26T13:12:40Z</time>
</trkpt>
<trkpt lat="50.6942150" lon="6.2942980">
<ele>386.1070000</ele>
<time>2008-06-26T13:12:43Z</time>
</trkpt>
<trkpt lat="50.6945280" lon="6.2934830">
<ele>382.7420000</ele>
<time>2008-06-26T13:12:48Z</time>
</trkpt>
<trkpt lat="50.6946000" lon="6.2933260">
<ele>382.7420000</ele>
<time>2008-06-26T13:12:49Z</time>
</trkpt>
<trkpt lat="50.6955860" lon="6.2923780">
<ele>376.9740000</ele>
<time>2008-06-26T13:13:00Z</time>
</trkpt>
<trkpt lat="50.6960630" lon="6.2923330">
<ele>373.6090000</ele>
<time>2008-06-26T13:13:04Z</time>
</trkpt>
<trkpt lat="50.6968170" lon="6.2923640">
<ele>369.2840000</ele>
<time>2008-06-26T13:13:10Z</time>
</trkpt>
<trkpt lat="50.6973400" lon="6.2924220">
<ele>365.9190000</ele>
<time>2008-06-26T13:13:14Z</time>
</trkpt>
<trkpt lat="50.6981520" lon="6.2924670">
<ele>361.5930000</ele>
<time>2008-06-26T13:13:20Z</time>
</trkpt>
<trkpt lat="50.6986860" lon="6.2924030">
<ele>358.2280000</ele>
<time>2008-06-26T13:13:24Z</time>
</trkpt>
<trkpt lat="50.6995150" lon="6.2923050">
<ele>353.4220000</ele>
<time>2008-06-26T13:13:30Z</time>
</trkpt>
<trkpt lat="50.7002910" lon="6.2923080">
<ele>349.5770000</ele>
<time>2008-06-26T13:13:36Z</time>
</trkpt>
<trkpt lat="50.7011190" lon="6.2924570">
<ele>346.2120000</ele>
<time>2008-06-26T13:13:43Z</time>
</trkpt>
<trkpt lat="50.7012360" lon="6.2924670">
<ele>346.2120000</ele>
<time>2008-06-26T13:13:44Z</time>
</trkpt>
<trkpt lat="50.7019530" lon="6.2924520">
<ele>342.3670000</ele>
<time>2008-06-26T13:13:50Z</time>
</trkpt>
<trkpt lat="50.7027080" lon="6.2923390">
<ele>338.0410000</ele>
<time>2008-06-26T13:13:56Z</time>
</trkpt>
<trkpt lat="50.7032020" lon="6.2922480">
<ele>334.1950000</ele>
<time>2008-06-26T13:14:00Z</time>
</trkpt>
<trkpt lat="50.7039350" lon="6.2920040">
<ele>330.3500000</ele>
<time>2008-06-26T13:14:06Z</time>
</trkpt>
<trkpt lat="50.7046540" lon="6.2916010">
<ele>326.5050000</ele>
<time>2008-06-26T13:14:12Z</time>
</trkpt>
<trkpt lat="50.7055060" lon="6.2907930">
<ele>322.1790000</ele>
<time>2008-06-26T13:14:20Z</time>
</trkpt>
<trkpt lat="50.7064840" lon="6.2895280">
<ele>317.8530000</ele>
<time>2008-06-26T13:14:31Z</time>
</trkpt>
<trkpt lat="50.7065780" lon="6.2894330">
<ele>317.8530000</ele>
<time>2008-06-26T13:14:32Z</time>
</trkpt>
<trkpt lat="50.7073730" lon="6.2887790">
<ele>314.0080000</ele>
<time>2008-06-26T13:14:40Z</time>
</trkpt>
<trkpt lat="50.7074730" lon="6.2886940">
<ele>314.0080000</ele>
<time>2008-06-26T13:14:41Z</time>
</trkpt>
<trkpt lat="50.7084380" lon="6.2870500">
<ele>309.2010000</ele>
<time>2008-06-26T13:14:54Z</time>
</trkpt>
<trkpt lat="50.7090950" lon="6.2848240">
<ele>303.9140000</ele>
<time>2008-06-26T13:15:08Z</time>
</trkpt>
<trkpt lat="50.7091570" lon="6.2825790">
<ele>298.1460000</ele>
<time>2008-06-26T13:15:21Z</time>
</trkpt>
<trkpt lat="50.7096460" lon="6.2791790">
<ele>292.8590000</ele>
<time>2008-06-26T13:15:43Z</time>
</trkpt>
<trkpt lat="50.7096060" lon="6.2755070">
<ele>286.1300000</ele>
<time>2008-06-26T13:16:05Z</time>
</trkpt>
<trkpt lat="50.7099230" lon="6.2731950">
<ele>282.2840000</ele>
<time>2008-06-26T13:16:19Z</time>
</trkpt>
<trkpt lat="50.7111050" lon="6.2710710">
<ele>277.4780000</ele>
<time>2008-06-26T13:16:37Z</time>
</trkpt>
<trkpt lat="50.7113660" lon="6.2708730">
<ele>277.4780000</ele>
<time>2008-06-26T13:16:40Z</time>
</trkpt>
<trkpt lat="50.7121810" lon="6.2697600">
<ele>276.0360000</ele>
<time>2008-06-26T13:16:52Z</time>
</trkpt>
<trkpt lat="50.7122410" lon="6.2696440">
<ele>276.0360000</ele>
<time>2008-06-26T13:16:53Z</time>
</trkpt>
<trkpt lat="50.7125170" lon="6.2687240">
<ele>275.0740000</ele>
<time>2008-06-26T13:17:00Z</time>
</trkpt>
<trkpt lat="50.7130990" lon="6.2665170">
<ele>272.1900000</ele>
<time>2008-06-26T13:17:16Z</time>
</trkpt>
<trkpt lat="50.7149250" lon="6.2638030">
<ele>268.8260000</ele>
<time>2008-06-26T13:17:43Z</time>
</trkpt>
<trkpt lat="50.7166890" lon="6.2619290">
<ele>265.9420000</ele>
<time>2008-06-26T13:18:09Z</time>
</trkpt>
<trkpt lat="50.7173720" lon="6.2610190">
<ele>265.4610000</ele>
<time>2008-06-26T13:18:21Z</time>
</trkpt>
<trkpt lat="50.7178600" lon="6.2603150">
<ele>264.9810000</ele>
<time>2008-06-26T13:18:30Z</time>
</trkpt>
<trkpt lat="50.7181060" lon="6.2595640">
<ele>261.6160000</ele>
<time>2008-06-26T13:18:37Z</time>
</trkpt>
<trkpt lat="50.7180530" lon="6.2586950">
<ele>259.2130000</ele>
<time>2008-06-26T13:18:43Z</time>
</trkpt>
<trkpt lat="50.7180880" lon="6.2577810">
<ele>258.2510000</ele>
<time>2008-06-26T13:18:50Z</time>
</trkpt>
<trkpt lat="50.7180960" lon="6.2571690">
<ele>258.7320000</ele>
<time>2008-06-26T13:18:58Z</time>
</trkpt>
<trkpt lat="50.7184660" lon="6.2568560">
<ele>256.3290000</ele>
<time>2008-06-26T13:19:06Z</time>
</trkpt>
<trkpt lat="50.7192060" lon="6.2557580">
<ele>254.8870000</ele>
<time>2008-06-26T13:19:20Z</time>
</trkpt>
<trkpt lat="50.7195710" lon="6.2544940">
<ele>253.4450000</ele>
<time>2008-06-26T13:19:33Z</time>
</trkpt>
<trkpt lat="50.7195440" lon="6.2542060">
<ele>253.4450000</ele>
<time>2008-06-26T13:19:36Z</time>
</trkpt>
<trkpt lat="50.7195020" lon="6.2538270">
<ele>254.8870000</ele>
<time>2008-06-26T13:19:41Z</time>
</trkpt>
<trkpt lat="50.7192190" lon="6.2535770">
<ele>255.3670000</ele>
<time>2008-06-26T13:19:49Z</time>
</trkpt>
<trkpt lat="50.7189970" lon="6.2535500">
<ele>255.8480000</ele>
<time>2008-06-26T13:19:53Z</time>
</trkpt>
<trkpt lat="50.7187060" lon="6.2535000">
<ele>256.8090000</ele>
<time>2008-06-26T13:19:58Z</time>
</trkpt>
<trkpt lat="50.7171550" lon="6.2522590">
<ele>260.1740000</ele>
<time>2008-06-26T13:20:29Z</time>
</trkpt>
<trkpt lat="50.7167580" lon="6.2510700">
<ele>265.4610000</ele>
<time>2008-06-26T13:20:50Z</time>
</trkpt>
<trkpt lat="50.7167340" lon="6.2503090">
<ele>269.3070000</ele>
<time>2008-06-26T13:21:07Z</time>
</trkpt>
<trkpt lat="50.7166620" lon="6.2494510">
<ele>273.6320000</ele>
<time>2008-06-26T13:21:27Z</time>
</trkpt>
<trkpt lat="50.7166960" lon="6.2488820">
<ele>276.9970000</ele>
<time>2008-06-26T13:21:40Z</time>
</trkpt>
<trkpt lat="50.7167250" lon="6.2483090">
<ele>280.3620000</ele>
<time>2008-06-26T13:21:53Z</time>
</trkpt>
<trkpt lat="50.7167730" lon="6.2476080">
<ele>284.2070000</ele>
<time>2008-06-26T13:22:09Z</time>
</trkpt>
<trkpt lat="50.7168920" lon="6.2468480">
<ele>288.0520000</ele>
<time>2008-06-26T13:22:27Z</time>
</trkpt>
<trkpt lat="50.7169680" lon="6.2467010">
<ele>289.0140000</ele>
<time>2008-06-26T13:22:31Z</time>
</trkpt>
<trkpt lat="50.7170610" lon="6.2465230">
<ele>290.4560000</ele>
<time>2008-06-26T13:22:36Z</time>
</trkpt>
<trkpt lat="50.7170630" lon="6.2459100">
<ele>295.2620000</ele>
<time>2008-06-26T13:22:52Z</time>
</trkpt>
<trkpt lat="50.7171620" lon="6.2450870">
<ele>300.0690000</ele>
<time>2008-06-26T13:23:11Z</time>
</trkpt>
<trkpt lat="50.7172750" lon="6.2444640">
<ele>303.4330000</ele>
<time>2008-06-26T13:23:25Z</time>
</trkpt>
<trkpt lat="50.7174000" lon="6.2438420">
<ele>307.2790000</ele>
<time>2008-06-26T13:23:40Z</time>
</trkpt>
<trkpt lat="50.7175690" lon="6.2432800">
<ele>311.1240000</ele>
<time>2008-06-26T13:23:55Z</time>
</trkpt>
<trkpt lat="50.7177930" lon="6.2427300">
<ele>314.4880000</ele>
<time>2008-06-26T13:24:10Z</time>
</trkpt>
<trkpt lat="50.7180730" lon="6.2422510">
<ele>318.3340000</ele>
<time>2008-06-26T13:24:25Z</time>
</trkpt>
<trkpt lat="50.7185940" lon="6.2416820">
<ele>321.6980000</ele>
<time>2008-06-26T13:24:46Z</time>
</trkpt>
<trkpt lat="50.7195330" lon="6.2407180">
<ele>322.1790000</ele>
<time>2008-06-26T13:25:11Z</time>
</trkpt>
<trkpt lat="50.7208240" lon="6.2406880">
<ele>320.7370000</ele>
<time>2008-06-26T13:25:31Z</time>
</trkpt>
<trkpt lat="50.7220330" lon="6.2413180">
<ele>316.8920000</ele>
<time>2008-06-26T13:25:46Z</time>
</trkpt>
<trkpt lat="50.7225990" lon="6.2411600">
<ele>313.5270000</ele>
<time>2008-06-26T13:25:52Z</time>
</trkpt>
<trkpt lat="50.7230640" lon="6.2404310">
<ele>309.2010000</ele>
<time>2008-06-26T13:25:58Z</time>
</trkpt>
<trkpt lat="50.7233300" lon="6.2398570">
<ele>306.3170000</ele>
<time>2008-06-26T13:26:02Z</time>
</trkpt>
<trkpt lat="50.7235970" lon="6.2392560">
<ele>303.9140000</ele>
<time>2008-06-26T13:26:06Z</time>
</trkpt>
<trkpt lat="50.7238790" lon="6.2382320">
<ele>300.0690000</ele>
<time>2008-06-26T13:26:12Z</time>
</trkpt>
<trkpt lat="50.7239610" lon="6.2378870">
<ele>299.1070000</ele>
<time>2008-06-26T13:26:14Z</time>
</trkpt>
<trkpt lat="50.7246990" lon="6.2362900">
<ele>296.7040000</ele>
<time>2008-06-26T13:26:26Z</time>
</trkpt>
<trkpt lat="50.7255790" lon="6.2350230">
<ele>293.3390000</ele>
<time>2008-06-26T13:26:38Z</time>
</trkpt>
<trkpt lat="50.7276340" lon="6.2323430">
<ele>289.9750000</ele>
<time>2008-06-26T13:27:08Z</time>
</trkpt>
<trkpt lat="50.7283510" lon="6.2307970">
<ele>287.0910000</ele>
<time>2008-06-26T13:27:23Z</time>
</trkpt>
<trkpt lat="50.7291910" lon="6.2287940">
<ele>284.6880000</ele>
<time>2008-06-26T13:27:41Z</time>
</trkpt>
<trkpt lat="50.7294060" lon="6.2285480">
<ele>284.2070000</ele>
<time>2008-06-26T13:27:44Z</time>
</trkpt>
<trkpt lat="50.7305740" lon="6.2272500">
<ele>287.0910000</ele>
<time>2008-06-26T13:28:02Z</time>
</trkpt>
<trkpt lat="50.7311820" lon="6.2256170">
<ele>288.5330000</ele>
<time>2008-06-26T13:28:21Z</time>
</trkpt>
<trkpt lat="50.7311080" lon="6.2251800">
<ele>289.0140000</ele>
<time>2008-06-26T13:28:26Z</time>
</trkpt>
<trkpt lat="50.7309700" lon="6.2244810">
<ele>289.0140000</ele>
<time>2008-06-26T13:28:35Z</time>
</trkpt>
<trkpt lat="50.7313420" lon="6.2240540">
<ele>287.5710000</ele>
<time>2008-06-26T13:28:44Z</time>
</trkpt>
<trkpt lat="50.7323520" lon="6.2228480">
<ele>286.6100000</ele>
<time>2008-06-26T13:29:08Z</time>
</trkpt>
<trkpt lat="50.7323100" lon="6.2222640">
<ele>285.1680000</ele>
<time>2008-06-26T13:29:16Z</time>
</trkpt>
<trkpt lat="50.7321290" lon="6.2207550">
<ele>281.8040000</ele>
<time>2008-06-26T13:29:29Z</time>
</trkpt>
<trkpt lat="50.7319870" lon="6.2200550">
<ele>282.7650000</ele>
<time>2008-06-26T13:29:35Z</time>
</trkpt>
<trkpt lat="50.7315460" lon="6.2190200">
<ele>283.7260000</ele>
<time>2008-06-26T13:29:47Z</time>
</trkpt>
<trkpt lat="50.7310360" lon="6.2178350">
<ele>284.2070000</ele>
<time>2008-06-26T13:30:02Z</time>
</trkpt>
<trkpt lat="50.7311670" lon="6.2166520">
<ele>282.7650000</ele>
<time>2008-06-26T13:30:15Z</time>
</trkpt>
<trkpt lat="50.7318490" lon="6.2105470">
<ele>283.7260000</ele>
<time>2008-06-26T13:31:19Z</time>
</trkpt>
<trkpt lat="50.7315820" lon="6.2085840">
<ele>282.2840000</ele>
<time>2008-06-26T13:31:41Z</time>
</trkpt>
<trkpt lat="50.7318660" lon="6.2078990">
<ele>282.7650000</ele>
<time>2008-06-26T13:31:55Z</time>
</trkpt>
<trkpt lat="50.7320700" lon="6.2079460">
<ele>282.2840000</ele>
<time>2008-06-26T13:31:58Z</time>
</trkpt>
<trkpt lat="50.7336130" lon="6.2082340">
<ele>280.3620000</ele>
<time>2008-06-26T13:32:20Z</time>
</trkpt>
<trkpt lat="50.7342950" lon="6.2079150">
<ele>279.4000000</ele>
<time>2008-06-26T13:32:29Z</time>
</trkpt>
<trkpt lat="50.7346970" lon="6.2074800">
<ele>278.4390000</ele>
<time>2008-06-26T13:32:35Z</time>
</trkpt>
<trkpt lat="50.7359450" lon="6.2059970">
<ele>275.0740000</ele>
<time>2008-06-26T13:32:53Z</time>
</trkpt>
<trkpt lat="50.7368700" lon="6.2050170">
<ele>271.7100000</ele>
<time>2008-06-26T13:33:05Z</time>
</trkpt>
<trkpt lat="50.7374030" lon="6.2042950">
<ele>268.3450000</ele>
<time>2008-06-26T13:33:12Z</time>
</trkpt>
<trkpt lat="50.7380350" lon="6.2033980">
<ele>264.5000000</ele>
<time>2008-06-26T13:33:20Z</time>
</trkpt>
<trkpt lat="50.7384400" lon="6.2021370">
<ele>264.0190000</ele>
<time>2008-06-26T13:33:29Z</time>
</trkpt>
<trkpt lat="50.7390640" lon="6.2007530">
<ele>265.9420000</ele>
<time>2008-06-26T13:33:43Z</time>
</trkpt>
<trkpt lat="50.7399550" lon="6.1997530">
<ele>262.5770000</ele>
<time>2008-06-26T13:33:58Z</time>
</trkpt>
<trkpt lat="50.7404540" lon="6.1987940">
<ele>257.7710000</ele>
<time>2008-06-26T13:34:07Z</time>
</trkpt>
<trkpt lat="50.7405020" lon="6.1986840">
<ele>257.7710000</ele>
<time>2008-06-26T13:34:08Z</time>
</trkpt>
<trkpt lat="50.7410580" lon="6.1981200">
<ele>254.4060000</ele>
<time>2008-06-26T13:34:16Z</time>
</trkpt>
<trkpt lat="50.7421360" lon="6.1960620">
<ele>251.5220000</ele>
<time>2008-06-26T13:34:36Z</time>
</trkpt>
<trkpt lat="50.7443600" lon="6.1924100">
<ele>252.0030000</ele>
<time>2008-06-26T13:35:19Z</time>
</trkpt>
<trkpt lat="50.7443540" lon="6.1916500">
<ele>252.0030000</ele>
<time>2008-06-26T13:35:26Z</time>
</trkpt>
<trkpt lat="50.7440500" lon="6.1911280">
<ele>251.5220000</ele>
<time>2008-06-26T13:35:32Z</time>
</trkpt>
<trkpt lat="50.7436430" lon="6.1904480">
<ele>251.0410000</ele>
<time>2008-06-26T13:35:50Z</time>
</trkpt>
<trkpt lat="50.7436700" lon="6.1904760">
<ele>251.0410000</ele>
<time>2008-06-26T13:41:55Z</time>
</trkpt>
<trkpt lat="50.7437000" lon="6.1904700">
<ele>252.0030000</ele>
<time>2008-06-26T13:42:05Z</time>
</trkpt>
</trkseg>
</trk>
</gpx>
